
Distance (Route):
Temperature : 0°C
Humidity : 0%
Pressure : 0hPa| Receiver | Frames | First received | Last received |
|---|---|---|---|
| POL1PZ | 240 | 2026-09-05 23:30:32 | 2026-09-06 01:21:14 |
| SQ6EMJ | 234 | 2026-09-05 23:30:40 | 2026-09-06 01:10:50 |
| PETON7-10 | 191 | 2026-09-06 00:11:53 | 2026-09-06 01:09:04 |
| OE5MMP-10 | 130 | 2026-09-06 00:10:25 | 2026-09-06 01:06:11 |
| OE5DRO-10 | 61 | 2026-09-06 00:15:29 | 2026-09-06 01:09:03 |
| SP3BTT-10 | 35 | 2026-09-05 23:46:21 | 2026-09-06 00:47:42 |
| HA6NAB-11 | 20 | 2026-09-06 00:35:22 | 2026-09-06 00:38:48 |
| SP9KGR-15 | 6 | 2026-09-06 01:00:34 | 2026-09-06 01:02:50 |
| OK1SLM-15 | 4 | 2026-09-06 01:03:59 | 2026-09-06 01:04:21 |
| S52SK | 3 | 2026-09-06 00:53:25 | 2026-09-06 01:03:10 |
| OE3JTB-15 | 2 | 2026-09-06 00:17:13 | 2026-09-06 00:17:43 |
| PG1ADW-2 | 1 | 2026-09-06 00:31:33 | 2026-09-06 00:31:33 |
| DB0UT-7 | 1 | 2026-09-06 00:59:36 | 2026-09-06 00:59:36 |
| KRY50SP | 1 | 2026-09-06 01:09:17 | 2026-09-06 01:09:17 |
| Receiver | Date | Latitude | Longitude | Direction | Speed | Altitude | Climb | Temperature | Humidity | Pressure | Voltage | Killtimer | Uptime | BKT | XDATA |
|---|---|---|---|---|---|---|---|---|---|---|---|---|---|---|---|
| POL1PZ | 2026-09-06 01:21:14 | 50.23612 | 18.90854 | 123° | 100km/h | 4830m | -12.8m/s | 0°C | 0% | 0hPa | 0V | 00:00:00 | 00:00:00 | 00:00:00 | |
| POL1PZ | 2026-09-06 01:20:54 | 50.23886 | 18.90155 | 122° | 110km/h | 5082m | -12.7m/s | 0°C | 0% | 0hPa | 0V | 00:00:00 | 00:00:00 | 00:00:00 | |
| POL1PZ | 2026-09-06 01:20:34 | 50.24180 | 18.89367 | 122° | 119km/h | 5351m | -12.0m/s | 0°C | 0% | 0hPa | 0V | 00:00:00 | 00:00:00 | 00:00:00 | |
| POL1PZ | 2026-09-06 01:20:13 | 50.24521 | 18.88438 | 121° | 139km/h | 5609m | -12.3m/s | 0°C | 0% | 0hPa | 0V | 00:00:00 | 00:00:00 | 00:00:00 | |
| POL1PZ | 2026-09-06 01:19:52 | 50.24890 | 18.87423 | 122° | 142km/h | 5870m | -12.4m/s | 0°C | 0% | 0hPa | 0V | 00:00:00 | 00:00:00 | 00:00:00 | |
| POL1PZ | 2026-09-06 01:19:32 | 50.25292 | 18.86403 | 121° | 161km/h | 6128m | -13.0m/s | 0°C | 0% | 0hPa | 0V | 00:00:00 | 00:00:00 | 00:00:00 | |
| POL1PZ | 2026-09-06 01:19:12 | 50.25695 | 18.85243 | 121° | 170km/h | 6399m | -14.2m/s | 0°C | 0% | 0hPa | 0V | 00:00:00 | 00:00:00 | 00:00:00 | |
| POL1PZ | 2026-09-06 01:18:51 | 50.26197 | 18.84079 | 128° | 170km/h | 6704m | -14.8m/s | 0°C | 0% | 0hPa | 0V | 00:00:00 | 00:00:00 | 00:00:00 | |
| POL1PZ | 2026-09-06 01:18:31 | 50.26738 | 18.82997 | 128° | 181km/h | 7012m | -15.1m/s | 0°C | 0% | 0hPa | 0V | 00:00:00 | 00:00:00 | 00:00:00 | |
| POL1PZ | 2026-09-06 01:18:07 | 50.27441 | 18.81638 | 129° | 179km/h | 7382m | -15.3m/s | 0°C | 0% | 0hPa | 0V | 00:00:00 | 00:00:00 | 00:00:00 | |
| POL1PZ | 2026-09-06 01:17:46 | 50.28058 | 18.80381 | 130° | 190km/h | 7711m | -16.3m/s | 0°C | 0% | 0hPa | 0V | 00:00:00 | 00:00:00 | 00:00:00 | |
| POL1PZ | 2026-09-06 01:17:25 | 50.28698 | 18.79110 | 131° | 195km/h | 8049m | -15.6m/s | 0°C | 0% | 0hPa | 0V | 00:00:00 | 00:00:00 | 00:00:00 | |
| POL1PZ | 2026-09-06 01:17:04 | 50.29388 | 18.77821 | 131° | 203km/h | 8394m | -16.8m/s | 0°C | 0% | 0hPa | 0V | 00:00:00 | 00:00:00 | 00:00:00 | |
| POL1PZ | 2026-09-06 01:16:43 | 50.30098 | 18.76458 | 130° | 215km/h | 8750m | -17.2m/s | 0°C | 0% | 0hPa | 0V | 00:00:00 | 00:00:00 | 00:00:00 | |
| POL1PZ | 2026-09-06 01:16:23 | 50.30804 | 18.75180 | 132° | 214km/h | 9097m | -16.8m/s | 0°C | 0% | 0hPa | 0V | 00:00:00 | 00:00:00 | 00:00:00 | |
| POL1PZ | 2026-09-06 01:16:02 | 50.31564 | 18.73817 | 131° | 215km/h | 9469m | -18.1m/s | 0°C | 0% | 0hPa | 0V | 00:00:00 | 00:00:00 | 00:00:00 | |
| POL1PZ | 2026-09-06 01:15:42 | 50.32277 | 18.72498 | 135° | 217km/h | 9821m | -17.5m/s | 0°C | 0% | 0hPa | 0V | 00:00:00 | 00:00:00 | 00:00:00 | |
| POL1PZ | 2026-09-06 01:15:20 | 50.33103 | 18.71119 | 133° | 224km/h | 10220m | -19.0m/s | 0°C | 0% | 0hPa | 0V | 00:00:00 | 00:00:00 | 00:00:00 | |
| POL1PZ | 2026-09-06 01:14:59 | 50.33918 | 18.69825 | 136° | 212km/h | 10595m | -18.7m/s | 0°C | 0% | 0hPa | 0V | 00:00:00 | 00:00:00 | 00:00:00 | |
| POL1PZ | 2026-09-06 01:14:38 | 50.34675 | 18.68550 | 132° | 215km/h | 10977m | -18.5m/s | 0°C | 0% | 0hPa | 0V | 00:00:00 | 00:00:00 | 00:00:00 | |
| POL1PZ | 2026-09-06 01:14:18 | 50.35407 | 18.67219 | 129° | 221km/h | 11353m | -18.6m/s | 0°C | 0% | 0hPa | 0V | 00:00:00 | 00:00:00 | 00:00:00 | |
| POL1PZ | 2026-09-06 01:13:57 | 50.36159 | 18.65696 | 131° | 245km/h | 11756m | -19.2m/s | 0°C | 0% | 0hPa | 0V | 00:00:00 | 00:00:00 | 00:00:00 | |
| POL1PZ | 2026-09-06 01:13:36 | 50.36995 | 18.64377 | 133° | 206km/h | 12165m | -19.5m/s | 0°C | 0% | 0hPa | 0V | 00:00:00 | 00:00:00 | 00:00:00 | |
| POL1PZ | 2026-09-06 01:13:16 | 50.37664 | 18.63252 | 133° | 177km/h | 12561m | -20.4m/s | 0°C | 0% | 0hPa | 0V | 00:00:00 | 00:00:00 | 00:00:00 | |
| POL1PZ | 2026-09-06 01:12:56 | 50.38195 | 18.62181 | 126° | 153km/h | 12998m | -21.3m/s | 0°C | 0% | 0hPa | 0V | 00:00:00 | 00:00:00 | 00:00:00 | |
| POL1PZ | 2026-09-06 01:12:34 | 50.38664 | 18.61283 | 132° | 133km/h | 13455m | -22.3m/s | 0°C | 0% | 0hPa | 0V | 00:00:00 | 00:00:00 | 00:00:00 | |
| POL1PZ | 2026-09-06 01:12:12 | 50.39069 | 18.60508 | 127° | 108km/h | 13947m | -22.6m/s | 0°C | 0% | 0hPa | 0V | 00:00:00 | 00:00:00 | 00:00:00 | |
| POL1PZ | 2026-09-06 01:11:51 | 50.39353 | 18.59797 | 118° | 95km/h | 14427m | -23.0m/s | 0°C | 0% | 0hPa | 0V | 00:00:00 | 00:00:00 | 00:00:00 | |
| POL1PZ | 2026-09-06 01:11:16 | 50.39740 | 18.58611 | 115° | 89km/h | 15288m | -25.4m/s | 0°C | 0% | 0hPa | 0V | 00:00:00 | 00:00:00 | 00:00:00 | |
| POL1PZ | 2026-09-06 01:10:56 | 50.39990 | 18.57968 | 132° | 78km/h | 15796m | -27.0m/s | 0°C | 0% | 0hPa | 0V | 00:00:00 | 00:00:00 | 00:00:00 | |
| SQ6EMJ | 2026-09-06 01:10:50 | 50.40061 | 18.57827 | 128° | 68km/h | 15962m | -27.5m/s | 0°C | 0% | 0hPa | 0V | 00:00:00 | 00:00:00 | 00:00:00 | |
| SQ6EMJ | 2026-09-06 01:10:44 | 50.40114 | 18.57685 | 122° | 77km/h | 16128m | -28.0m/s | 0°C | 0% | 0hPa | 0V | 00:00:00 | 00:00:00 | 00:00:00 | |
| SQ6EMJ | 2026-09-06 01:10:38 | 50.40171 | 18.57545 | 122° | 55km/h | 16295m | -27.4m/s | 0°C | 0% | 0hPa | 0V | 00:00:00 | 00:00:00 | 00:00:00 | |
| POL1PZ | 2026-09-06 01:10:31 | 50.40210 | 18.57399 | 118° | 68km/h | 16486m | -27.8m/s | 0°C | 0% | 0hPa | 0V | 00:00:00 | 00:00:00 | 00:00:00 | |
| SQ6EMJ | 2026-09-06 01:10:17 | 50.40331 | 18.57108 | 114° | 55km/h | 16891m | -30.0m/s | 0°C | 0% | 0hPa | 0V | 00:00:00 | 00:00:00 | 00:00:00 | |
| POL1PZ | 2026-09-06 01:10:04 | 50.40369 | 18.56851 | 99° | 55km/h | 17286m | -30.8m/s | 0°C | 0% | 0hPa | 0V | 00:00:00 | 00:00:00 | 00:00:00 | |
| KRY50SP | 2026-09-06 01:09:17 | 50.40547 | 18.55969 | 129° | 38km/h | 18855m | -32.6m/s | 0°C | 0% | 0hPa | 0V | 00:00:00 | 00:00:00 | 00:00:00 | |
| POL1PZ | 2026-09-06 01:09:14 | 50.40565 | 18.55934 | 127° | 44km/h | 18961m | -34.9m/s | 0°C | 0% | 0hPa | 0V | 00:00:00 | 00:00:00 | 00:00:00 | |
| PETON7-10 | 2026-09-06 01:09:04 | 50.40597 | 18.55835 | 126° | 24km/h | 19272m | -34.4m/s | 0°C | 0% | 0hPa | 0V | 00:00:00 | 00:00:00 | 00:00:00 | |
| OE5DRO-10 | 2026-09-06 01:09:03 | 50.40601 | 18.55827 | 128° | 24km/h | 19305m | -32.5m/s | 0°C | 0% | 0hPa | 0V | 00:00:00 | 00:00:00 | 00:00:00 | |
| POL1PZ | 2026-09-06 01:07:07 | 50.40910 | 18.54916 | 79° | 9km/h | 24240m | -54.5m/s | 0°C | 0% | 0hPa | 0V | 00:00:00 | 00:00:00 | 00:00:00 | |
| PETON7-10 | 2026-09-06 01:06:53 | 50.40883 | 18.54811 | 92° | 16km/h | 24978m | -56.6m/s | 0°C | 0% | 0hPa | 0V | 00:00:00 | 00:00:00 | 00:00:00 | |
| PETON7-10 | 2026-09-06 01:06:35 | 50.40914 | 18.54690 | 134° | 11km/h | 25984m | -57.4m/s | 0°C | 0% | 0hPa | 0V | 00:00:00 | 00:00:00 | 00:00:00 | |
| PETON7-10 | 2026-09-06 01:06:20 | 50.40952 | 18.54653 | 132° | 24km/h | 26920m | -64.6m/s | 0°C | 0% | 0hPa | 0V | 00:00:00 | 00:00:00 | 00:00:00 | |
| OE5MMP-10 | 2026-09-06 01:06:11 | 50.40983 | 18.54632 | 163° | 29km/h | 27515m | -67.9m/s | 0°C | 0% | 0hPa | 0V | 00:00:00 | 00:00:00 | 00:00:00 | |
| POL1PZ | 2026-09-06 01:06:09 | 50.40997 | 18.54623 | 158° | 29km/h | 27649m | -66.4m/s | 0°C | 0% | 0hPa | 0V | 00:00:00 | 00:00:00 | 00:00:00 | |
| PETON7-10 | 2026-09-06 01:06:04 | 50.41012 | 18.54602 | 139° | 13km/h | 27962m | -60.4m/s | 0°C | 0% | 0hPa | 0V | 00:00:00 | 00:00:00 | 00:00:00 | |
| OE5MMP-10 | 2026-09-06 01:05:56 | 50.41036 | 18.54586 | 152° | 33km/h | 28498m | -75.1m/s | 0°C | 0% | 0hPa | 0V | 00:00:00 | 00:00:00 | 00:00:00 | |
| PETON7-10 | 2026-09-06 01:05:49 | 50.41077 | 18.54546 | 138° | 22km/h | 29017m | -78.5m/s | 0°C | 0% | 0hPa | 0V | 00:00:00 | 00:00:00 | 00:00:00 | |
| POL1PZ | 2026-09-06 01:05:48 | 50.41081 | 18.54544 | 159° | 18km/h | 29094m | -80.1m/s | 0°C | 0% | 0hPa | 0V | 00:00:00 | 00:00:00 | 00:00:00 | |
| PETON7-10 | 2026-09-06 01:05:34 | 50.41132 | 18.54483 | 120° | 20km/h | 30240m | -82.1m/s | 0°C | 0% | 0hPa | 0V | 00:00:00 | 00:00:00 | 00:00:00 | |
| POL1PZ | 2026-09-06 01:05:24 | 50.41145 | 18.54444 | 133° | 35km/h | 31085m | -83.3m/s | 0°C | 0% | 0hPa | 0V | 00:00:00 | 00:00:00 | 00:00:00 | |
| OE5DRO-10 | 2026-09-06 01:05:14 | 50.41141 | 18.54369 | 58° | 42km/h | 31985m | -97.9m/s | 0°C | 0% | 0hPa | 0V | 00:00:00 | 00:00:00 | 00:00:00 | |
| OE5MMP-10 | 2026-09-06 01:05:12 | 50.41134 | 18.54356 | 44° | 29km/h | 32180m | -99.3m/s | 0°C | 0% | 0hPa | 0V | 00:00:00 | 00:00:00 | 00:00:00 | |
| PETON7-10 | 2026-09-06 01:05:11 | 50.41131 | 18.54352 | 62° | 26km/h | 32280m | -103.5m/s | 0°C | 0% | 0hPa | 0V | 00:00:00 | 00:00:00 | 00:00:00 | |
| PETON7-10 | 2026-09-06 01:04:56 | 50.41103 | 18.54213 | 96° | 27km/h | 33815m | -105.7m/s | 0°C | 0% | 0hPa | 0V | 00:00:00 | 00:00:00 | 00:00:00 | |
| OE5MMP-10 | 2026-09-06 01:04:54 | 50.41103 | 18.54191 | 98° | 27km/h | 34025m | -107.9m/s | 0°C | 0% | 0hPa | 0V | 00:00:00 | 00:00:00 | 00:00:00 | |
| POL1PZ | 2026-09-06 01:04:50 | 50.41101 | 18.54162 | 112° | 5km/h | 34459m | -102.1m/s | 0°C | 0% | 0hPa | 0V | 00:00:00 | 00:00:00 | 00:00:00 | |
| OE5MMP-10 | 2026-09-06 01:04:43 | 50.41125 | 18.54111 | 121° | 31km/h | 35186m | -95.9m/s | 0°C | 0% | 0hPa | 0V | 00:00:00 | 00:00:00 | 00:00:00 | |
| PETON7-10 | 2026-09-06 01:04:41 | 50.41132 | 18.54093 | 116° | 33km/h | 35384m | -99.3m/s | 0°C | 0% | 0hPa | 0V | 00:00:00 | 00:00:00 | 00:00:00 | |
| POL1PZ | 2026-09-06 01:04:30 | 50.41136 | 18.54003 | 101° | 46km/h | 36226m | -56.6m/s | 0°C | 0% | 0hPa | 0V | 00:00:00 | 00:00:00 | 00:00:00 | |
| OE5MMP-10 | 2026-09-06 01:04:26 | 50.41118 | 18.53964 | 347° | 37km/h | 36404m | -22.2m/s | 0°C | 0% | 0hPa | 0V | 00:00:00 | 00:00:00 | 00:00:00 | |
| OK1SLM-15 | 2026-09-06 01:04:21 | 50.41118 | 18.53938 | 78° | 38km/h | 36433m | 1.1m/s | 0°C | 0% | 0hPa | 0V | 00:00:00 | 00:00:00 | 00:00:00 | |
| OE5MMP-10 | 2026-09-06 01:04:15 | 50.41116 | 18.53859 | 164° | 46km/h | 36422m | 7.1m/s | 0°C | 0% | 0hPa | 0V | 00:00:00 | 00:00:00 | 00:00:00 | |
| PETON7-10 | 2026-09-06 01:04:11 | 50.41095 | 18.53745 | 181° | 46km/h | 36449m | 25.2m/s | 0°C | 0% | 0hPa | 0V | 00:00:00 | 00:00:00 | 00:00:00 | |
| OK1SLM-15 | 2026-09-06 01:04:10 | 50.41107 | 18.53740 | 181° | 62km/h | 36419m | 26.2m/s | 0°C | 0% | 0hPa | 0V | 00:00:00 | 00:00:00 | 00:00:00 | |
| POL1PZ | 2026-09-06 01:04:08 | 50.41124 | 18.53713 | 175° | 40km/h | 36346m | 7.5m/s | 0°C | 0% | 0hPa | 0V | 00:00:00 | 00:00:00 | 00:00:00 | |
| OK1SLM-15 | 2026-09-06 01:04:04 | 50.41161 | 18.53714 | 187° | 46km/h | 36333m | -2.5m/s | 0°C | 0% | 0hPa | 0V | 00:00:00 | 00:00:00 | 00:00:00 | |
| OK1SLM-15 | 2026-09-06 01:03:59 | 50.41179 | 18.53650 | 82° | 58km/h | 36323m | 7.1m/s | 0°C | 0% | 0hPa | 0V | 00:00:00 | 00:00:00 | 00:00:00 | |
| PETON7-10 | 2026-09-06 01:03:51 | 50.41220 | 18.53604 | 149° | 46km/h | 36264m | 2.7m/s | 0°C | 0% | 0hPa | 0V | 00:00:00 | 00:00:00 | 00:00:00 | |
| POL1PZ | 2026-09-06 01:03:47 | 50.41216 | 18.53519 | 74° | 75km/h | 36236m | 0.6m/s | 0°C | 0% | 0hPa | 0V | 00:00:00 | 00:00:00 | 00:00:00 | |
| PETON7-10 | 2026-09-06 01:03:35 | 50.41228 | 18.53407 | 69° | 33km/h | 36152m | 6.2m/s | 0°C | 0% | 0hPa | 0V | 00:00:00 | 00:00:00 | 00:00:00 | |
| POL1PZ | 2026-09-06 01:03:27 | 50.41232 | 18.53341 | 84° | 38km/h | 36063m | -4.8m/s | 0°C | 0% | 0hPa | 0V | 00:00:00 | 00:00:00 | 00:00:00 | |
| OE5MMP-10 | 2026-09-06 01:03:26 | 50.41232 | 18.53341 | 83° | 27km/h | 36063m | -4.8m/s | 0°C | 0% | 0hPa | 0V | 00:00:00 | 00:00:00 | 00:00:00 | |
| PETON7-10 | 2026-09-06 01:03:15 | 50.41227 | 18.53231 | 64° | 38km/h | 36004m | 2.3m/s | 0°C | 0% | 0hPa | 0V | 00:00:00 | 00:00:00 | 00:00:00 | |
| OE5MMP-10 | 2026-09-06 01:03:14 | 50.41222 | 18.53213 | 80° | 38km/h | 36001m | 5.7m/s | 0°C | 0% | 0hPa | 0V | 00:00:00 | 00:00:00 | 00:00:00 | |
| S52SK | 2026-09-06 01:03:10 | 50.41230 | 18.53163 | 113° | 35km/h | 35976m | 7.7m/s | 0°C | 0% | 0hPa | 0V | 00:00:00 | 00:00:00 | 00:00:00 | |
| POL1PZ | 2026-09-06 01:03:04 | 50.41214 | 18.53108 | 68° | 47km/h | 35936m | 7.2m/s | 0°C | 0% | 0hPa | 0V | 00:00:00 | 00:00:00 | 00:00:00 | |
| OE5MMP-10 | 2026-09-06 01:03:03 | 50.41211 | 18.53090 | 79° | 37km/h | 35926m | 6.4m/s | 0°C | 0% | 0hPa | 0V | 00:00:00 | 00:00:00 | 00:00:00 | |
| PETON7-10 | 2026-09-06 01:03:00 | 50.41220 | 18.53058 | 145° | 27km/h | 35908m | 7.1m/s | 0°C | 0% | 0hPa | 0V | 00:00:00 | 00:00:00 | 00:00:00 | |
| S52SK | 2026-09-06 01:02:56 | 50.41230 | 18.53041 | 17° | 16km/h | 35872m | 7.0m/s | 0°C | 0% | 0hPa | 0V | 00:00:00 | 00:00:00 | 00:00:00 | |
| OE5MMP-10 | 2026-09-06 01:02:52 | 50.41211 | 18.52982 | 85° | 33km/h | 35841m | 7.6m/s | 0°C | 0% | 0hPa | 0V | 00:00:00 | 00:00:00 | 00:00:00 | |
| SP9KGR-15 | 2026-09-06 01:02:50 | 50.41219 | 18.52943 | 128° | 38km/h | 35818m | 4.8m/s | 0°C | 0% | 0hPa | 0V | 00:00:00 | 00:00:00 | 00:00:00 | |
| PETON7-10 | 2026-09-06 01:02:45 | 50.41225 | 18.52898 | 294° | 29km/h | 35787m | -7.6m/s | 0°C | 0% | 0hPa | 0V | 00:00:00 | 00:00:00 | 00:00:00 | |
| POL1PZ | 2026-09-06 01:02:44 | 50.41220 | 18.52906 | 344° | 20km/h | 35803m | 3.4m/s | 0°C | 0% | 0hPa | 0V | 00:00:00 | 00:00:00 | 00:00:00 | |
| OE5MMP-10 | 2026-09-06 01:02:41 | 50.41215 | 18.52877 | 129° | 37km/h | 35780m | 9.8m/s | 0°C | 0% | 0hPa | 0V | 00:00:00 | 00:00:00 | 00:00:00 | |
| OE5MMP-10 | 2026-09-06 01:02:30 | 50.41227 | 18.52813 | 141° | 40km/h | 35721m | 5.2m/s | 0°C | 0% | 0hPa | 0V | 00:00:00 | 00:00:00 | 00:00:00 | |
| PETON7-10 | 2026-09-06 01:02:29 | 50.41235 | 18.52808 | 181° | 31km/h | 35716m | 5.9m/s | 0°C | 0% | 0hPa | 0V | 00:00:00 | 00:00:00 | 00:00:00 | |
| SP9KGR-15 | 2026-09-06 01:02:27 | 50.41247 | 18.52823 | 257° | 24km/h | 35705m | 5.4m/s | 0°C | 0% | 0hPa | 0V | 00:00:00 | 00:00:00 | 00:00:00 | |
| POL1PZ | 2026-09-06 01:02:23 | 50.41218 | 18.52817 | 59° | 57km/h | 35669m | 6.7m/s | 0°C | 0% | 0hPa | 0V | 00:00:00 | 00:00:00 | 00:00:00 | |
| OE5MMP-10 | 2026-09-06 01:02:20 | 50.41207 | 18.52764 | 105° | 35km/h | 35629m | 1.5m/s | 0°C | 0% | 0hPa | 0V | 00:00:00 | 00:00:00 | 00:00:00 | |
| PETON7-10 | 2026-09-06 01:02:14 | 50.41219 | 18.52757 | 47° | 33km/h | 35607m | 7.2m/s | 0°C | 0% | 0hPa | 0V | 00:00:00 | 00:00:00 | 00:00:00 | |
| OE5MMP-10 | 2026-09-06 01:02:06 | 50.41221 | 18.52683 | 154° | 42km/h | 35531m | 5.0m/s | 0°C | 0% | 0hPa | 0V | 00:00:00 | 00:00:00 | 00:00:00 | |
| SP9KGR-15 | 2026-09-06 01:02:04 | 50.41241 | 18.52673 | 119° | 15km/h | 35506m | 7.4m/s | 0°C | 0% | 0hPa | 0V | 00:00:00 | 00:00:00 | 00:00:00 | |
| POL1PZ | 2026-09-06 01:02:02 | 50.41243 | 18.52657 | 37° | 31km/h | 35479m | 1.9m/s | 0°C | 0% | 0hPa | 0V | 00:00:00 | 00:00:00 | 00:00:00 | |
| PETON7-10 | 2026-09-06 01:01:59 | 50.41224 | 18.52623 | 73° | 40km/h | 35464m | -1.3m/s | 0°C | 0% | 0hPa | 0V | 00:00:00 | 00:00:00 | 00:00:00 | |
| OE5MMP-10 | 2026-09-06 01:01:56 | 50.41238 | 18.52582 | 179° | 42km/h | 35451m | -8.8m/s | 0°C | 0% | 0hPa | 0V | 00:00:00 | 00:00:00 | 00:00:00 | |
| OE5MMP-10 | 2026-09-06 01:01:45 | 50.41259 | 18.52536 | 201° | 47km/h | 35429m | 4.6m/s | 0°C | 0% | 0hPa | 0V | 00:00:00 | 00:00:00 | 00:00:00 | |
| PETON7-10 | 2026-09-06 01:01:44 | 50.41267 | 18.52546 | 208° | 33km/h | 35425m | 7.6m/s | 0°C | 0% | 0hPa | 0V | 00:00:00 | 00:00:00 | 00:00:00 | |
| POL1PZ | 2026-09-06 01:01:41 | 50.41270 | 18.52538 | 66° | 38km/h | 35398m | 8.4m/s | 0°C | 0% | 0hPa | 0V | 00:00:00 | 00:00:00 | 00:00:00 | |
| OE5MMP-10 | 2026-09-06 01:01:31 | 50.41321 | 18.52468 | 103° | 33km/h | 35348m | 9.3m/s | 0°C | 0% | 0hPa | 0V | 00:00:00 | 00:00:00 | 00:00:00 | |
| PETON7-10 | 2026-09-06 01:01:29 | 50.41326 | 18.52419 | 114° | 38km/h | 35325m | 3.7m/s | 0°C | 0% | 0hPa | 0V | 00:00:00 | 00:00:00 | 00:00:00 | |
| OE5MMP-10 | 2026-09-06 01:01:21 | 50.41366 | 18.52375 | 82° | 38km/h | 35257m | 6.9m/s | 0°C | 0% | 0hPa | 0V | 00:00:00 | 00:00:00 | 00:00:00 | |
| PETON7-10 | 2026-09-06 01:01:14 | 50.41401 | 18.52338 | 258° | 31km/h | 35232m | 1.1m/s | 0°C | 0% | 0hPa | 0V | 00:00:00 | 00:00:00 | 00:00:00 | |
| OE5MMP-10 | 2026-09-06 01:01:11 | 50.41398 | 18.52332 | 82° | 42km/h | 35222m | 3.2m/s | 0°C | 0% | 0hPa | 0V | 00:00:00 | 00:00:00 | 00:00:00 | |
| SP9KGR-15 | 2026-09-06 01:01:08 | 50.41412 | 18.52278 | 157° | 42km/h | 35207m | 1.0m/s | 0°C | 0% | 0hPa | 0V | 00:00:00 | 00:00:00 | 00:00:00 | |
| OE5MMP-10 | 2026-09-06 01:01:01 | 50.41444 | 18.52261 | 99° | 46km/h | 35163m | 6.2m/s | 0°C | 0% | 0hPa | 0V | 00:00:00 | 00:00:00 | 00:00:00 | |
| PETON7-10 | 2026-09-06 01:00:59 | 50.41462 | 18.52222 | 130° | 51km/h | 35143m | 4.3m/s | 0°C | 0% | 0hPa | 0V | 00:00:00 | 00:00:00 | 00:00:00 | |
| SP9KGR-15 | 2026-09-06 01:00:53 | 50.41499 | 18.52173 | 5° | 22km/h | 35142m | 9.3m/s | 0°C | 0% | 0hPa | 0V | 00:00:00 | 00:00:00 | 00:00:00 | |
| OE5MMP-10 | 2026-09-06 01:00:51 | 50.41492 | 18.52153 | 92° | 44km/h | 35123m | 8.7m/s | 0°C | 0% | 0hPa | 0V | 00:00:00 | 00:00:00 | 00:00:00 | |
| PETON7-10 | 2026-09-06 01:00:44 | 50.41551 | 18.52047 | 74° | 37km/h | 35062m | 0.8m/s | 0°C | 0% | 0hPa | 0V | 00:00:00 | 00:00:00 | 00:00:00 | |
| OE5MMP-10 | 2026-09-06 01:00:41 | 50.41549 | 18.51997 | 90° | 40km/h | 35045m | 2.2m/s | 0°C | 0% | 0hPa | 0V | 00:00:00 | 00:00:00 | 00:00:00 | |
| SP9KGR-15 | 2026-09-06 01:00:34 | 50.41599 | 18.51901 | 111° | 18km/h | 35026m | 6.8m/s | 0°C | 0% | 0hPa | 0V | 00:00:00 | 00:00:00 | 00:00:00 | |
| POL1PZ | 2026-09-06 01:00:32 | 50.41593 | 18.51882 | 53° | 33km/h | 35009m | 7.3m/s | 0°C | 0% | 0hPa | 0V | 00:00:00 | 00:00:00 | 00:00:00 | |
| OE5MMP-10 | 2026-09-06 01:00:30 | 50.41588 | 18.51848 | 98° | 49km/h | 34997m | 7.0m/s | 0°C | 0% | 0hPa | 0V | 00:00:00 | 00:00:00 | 00:00:00 | |
| PETON7-10 | 2026-09-06 01:00:29 | 50.41591 | 18.51826 | 111° | 53km/h | 34988m | 9.5m/s | 0°C | 0% | 0hPa | 0V | 00:00:00 | 00:00:00 | 00:00:00 | |
| OE5MMP-10 | 2026-09-06 01:00:20 | 50.41605 | 18.51710 | 84° | 68km/h | 34936m | 4.4m/s | 0°C | 0% | 0hPa | 0V | 00:00:00 | 00:00:00 | 00:00:00 | |
| PETON7-10 | 2026-09-06 01:00:14 | 50.41661 | 18.51623 | 357° | 57km/h | 34890m | 8.5m/s | 0°C | 0% | 0hPa | 0V | 00:00:00 | 00:00:00 | 00:00:00 | |
| POL1PZ | 2026-09-06 01:00:12 | 50.41649 | 18.51610 | 62° | 75km/h | 34853m | 9.4m/s | 0°C | 0% | 0hPa | 0V | 00:00:00 | 00:00:00 | 00:00:00 | |
| PETON7-10 | 2026-09-06 00:59:58 | 50.41689 | 18.51323 | 186° | 53km/h | 34777m | 5.8m/s | 0°C | 0% | 0hPa | 0V | 00:00:00 | 00:00:00 | 00:00:00 | |
| OE5MMP-10 | 2026-09-06 00:59:53 | 50.41683 | 18.51263 | 106° | 44km/h | 34732m | 1.7m/s | 0°C | 0% | 0hPa | 0V | 00:00:00 | 00:00:00 | 00:00:00 | |
| POL1PZ | 2026-09-06 00:59:51 | 50.41702 | 18.51217 | 144° | 42km/h | 34717m | -9.8m/s | 0°C | 0% | 0hPa | 0V | 00:00:00 | 00:00:00 | 00:00:00 | |
| PETON7-10 | 2026-09-06 00:59:43 | 50.41682 | 18.51105 | 135° | 64km/h | 34738m | 10.4m/s | 0°C | 0% | 0hPa | 0V | 00:00:00 | 00:00:00 | 00:00:00 | |
| DB0UT-7 | 2026-09-06 00:59:36 | 50.41701 | 18.51027 | 128° | 84km/h | 34692m | 5.6m/s | 0°C | 0% | 0hPa | 0V | 00:00:00 | 00:00:00 | 00:00:00 | |
| OE5MMP-10 | 2026-09-06 00:59:29 | 50.41761 | 18.50932 | 77° | 68km/h | 34629m | 11.1m/s | 0°C | 0% | 0hPa | 0V | 00:00:00 | 00:00:00 | 00:00:00 | |
| PETON7-10 | 2026-09-06 00:59:25 | 50.41788 | 18.50834 | 151° | 60km/h | 34596m | 4.7m/s | 0°C | 0% | 0hPa | 0V | 00:00:00 | 00:00:00 | 00:00:00 | |
| OE5MMP-10 | 2026-09-06 00:59:19 | 50.41821 | 18.50770 | 85° | 78km/h | 34559m | 7.2m/s | 0°C | 0% | 0hPa | 0V | 00:00:00 | 00:00:00 | 00:00:00 | |
| POL1PZ | 2026-09-06 00:59:09 | 50.41879 | 18.50591 | 105° | 93km/h | 34500m | 7.2m/s | 0°C | 0% | 0hPa | 0V | 00:00:00 | 00:00:00 | 00:00:00 | |
| PETON7-10 | 2026-09-06 00:59:08 | 50.41889 | 18.50558 | 127° | 62km/h | 34493m | 4.8m/s | 0°C | 0% | 0hPa | 0V | 00:00:00 | 00:00:00 | 00:00:00 | |
| OE5MMP-10 | 2026-09-06 00:59:01 | 50.41913 | 18.50440 | 95° | 60km/h | 34419m | 5.6m/s | 0°C | 0% | 0hPa | 0V | 00:00:00 | 00:00:00 | 00:00:00 | |
| POL1PZ | 2026-09-06 00:58:48 | 50.41976 | 18.50207 | 116° | 9km/h | 34342m | 7.8m/s | 0°C | 0% | 0hPa | 0V | 00:00:00 | 00:00:00 | 00:00:00 | |
| OE5MMP-10 | 2026-09-06 00:58:47 | 50.41972 | 18.50202 | 17° | 57km/h | 34334m | 5.6m/s | 0°C | 0% | 0hPa | 0V | 00:00:00 | 00:00:00 | 00:00:00 | |
| PETON7-10 | 2026-09-06 00:58:35 | 50.41959 | 18.49969 | 84° | 53km/h | 34255m | 7.5m/s | 0°C | 0% | 0hPa | 0V | 00:00:00 | 00:00:00 | 00:00:00 | |
| OE5MMP-10 | 2026-09-06 00:58:27 | 50.41970 | 18.49819 | 49° | 69km/h | 34181m | 6.9m/s | 0°C | 0% | 0hPa | 0V | 00:00:00 | 00:00:00 | 00:00:00 | |
| POL1PZ | 2026-09-06 00:58:26 | 50.41958 | 18.49794 | 58° | 86km/h | 34172m | 3.7m/s | 0°C | 0% | 0hPa | 0V | 00:00:00 | 00:00:00 | 00:00:00 | |
| PETON7-10 | 2026-09-06 00:58:20 | 50.41970 | 18.49680 | 110° | 58km/h | 34141m | -1.5m/s | 0°C | 0% | 0hPa | 0V | 00:00:00 | 00:00:00 | 00:00:00 | |
| OE5MMP-10 | 2026-09-06 00:58:17 | 50.41943 | 18.49641 | 50° | 68km/h | 34146m | 5.5m/s | 0°C | 0% | 0hPa | 0V | 00:00:00 | 00:00:00 | 00:00:00 | |
| OE5MMP-10 | 2026-09-06 00:58:06 | 50.41891 | 18.49435 | 88° | 66km/h | 34020m | -0.1m/s | 0°C | 0% | 0hPa | 0V | 00:00:00 | 00:00:00 | 00:00:00 | |
| PETON7-10 | 2026-09-06 00:58:03 | 50.41916 | 18.49365 | 126° | 49km/h | 34035m | 2.7m/s | 0°C | 0% | 0hPa | 0V | 00:00:00 | 00:00:00 | 00:00:00 | |
| POL1PZ | 2026-09-06 00:57:58 | 50.41888 | 18.49294 | 75° | 78km/h | 34024m | 8.5m/s | 0°C | 0% | 0hPa | 0V | 00:00:00 | 00:00:00 | 00:00:00 | |
| OE5MMP-10 | 2026-09-06 00:57:50 | 50.41891 | 18.49132 | 31° | 62km/h | 33969m | 3.1m/s | 0°C | 0% | 0hPa | 0V | 00:00:00 | 00:00:00 | 00:00:00 | |
| PETON7-10 | 2026-09-06 00:57:48 | 50.41873 | 18.49093 | 63° | 46km/h | 33961m | 4.6m/s | 0°C | 0% | 0hPa | 0V | 00:00:00 | 00:00:00 | 00:00:00 | |
| OE5MMP-10 | 2026-09-06 00:57:40 | 50.41870 | 18.48957 | 12° | 64km/h | 33915m | 5.7m/s | 0°C | 0% | 0hPa | 0V | 00:00:00 | 00:00:00 | 00:00:00 | |
| OE5MMP-10 | 2026-09-06 00:57:29 | 50.41823 | 18.48810 | 23° | 71km/h | 33850m | -3.3m/s | 0°C | 0% | 0hPa | 0V | 00:00:00 | 00:00:00 | 00:00:00 | |
| PETON7-10 | 2026-09-06 00:57:15 | 50.41778 | 18.48633 | 103° | 42km/h | 33775m | 13.8m/s | 0°C | 0% | 0hPa | 0V | 00:00:00 | 00:00:00 | 00:00:00 | |
| OE5MMP-10 | 2026-09-06 00:57:14 | 50.41776 | 18.48631 | 13° | 49km/h | 33761m | 13.5m/s | 0°C | 0% | 0hPa | 0V | 00:00:00 | 00:00:00 | 00:00:00 | |
| OE5MMP-10 | 2026-09-06 00:57:04 | 50.41716 | 18.48542 | 340° | 60km/h | 33714m | 7.8m/s | 0°C | 0% | 0hPa | 0V | 00:00:00 | 00:00:00 | 00:00:00 | |
| PETON7-10 | 2026-09-06 00:57:00 | 50.41678 | 18.48458 | 110° | 58km/h | 33670m | 11.1m/s | 0°C | 0% | 0hPa | 0V | 00:00:00 | 00:00:00 | 00:00:00 | |
| OE5MMP-10 | 2026-09-06 00:56:51 | 50.41639 | 18.48373 | 120° | 55km/h | 33601m | 7.0m/s | 0°C | 0% | 0hPa | 0V | 00:00:00 | 00:00:00 | 00:00:00 | |
| PETON7-10 | 2026-09-06 00:56:41 | 50.41616 | 18.48301 | 237° | 51km/h | 33530m | 7.0m/s | 0°C | 0% | 0hPa | 0V | 00:00:00 | 00:00:00 | 00:00:00 | |
| OE5MMP-10 | 2026-09-06 00:56:28 | 50.41538 | 18.48215 | 125° | 51km/h | 33460m | 4.4m/s | 0°C | 0% | 0hPa | 0V | 00:00:00 | 00:00:00 | 00:00:00 | |
| PETON7-10 | 2026-09-06 00:56:24 | 50.41549 | 18.48210 | 333° | 53km/h | 33438m | 3.9m/s | 0°C | 0% | 0hPa | 0V | 00:00:00 | 00:00:00 | 00:00:00 | |
| OE5MMP-10 | 2026-09-06 00:56:15 | 50.41520 | 18.48163 | 352° | 47km/h | 33374m | 2.3m/s | 0°C | 0% | 0hPa | 0V | 00:00:00 | 00:00:00 | 00:00:00 | |
| PETON7-10 | 2026-09-06 00:56:09 | 50.41506 | 18.48094 | 199° | 46km/h | 33340m | 3.4m/s | 0°C | 0% | 0hPa | 0V | 00:00:00 | 00:00:00 | 00:00:00 | |
| OE5MMP-10 | 2026-09-06 00:56:05 | 50.41462 | 18.48118 | 39° | 55km/h | 33291m | 10.6m/s | 0°C | 0% | 0hPa | 0V | 00:00:00 | 00:00:00 | 00:00:00 | |
| OE5MMP-10 | 2026-09-06 00:55:55 | 50.41435 | 18.48029 | 111° | 47km/h | 33253m | 9.4m/s | 0°C | 0% | 0hPa | 0V | 00:00:00 | 00:00:00 | 00:00:00 | |
| PETON7-10 | 2026-09-06 00:55:54 | 50.41440 | 18.47999 | 108° | 37km/h | 33239m | 4.6m/s | 0°C | 0% | 0hPa | 0V | 00:00:00 | 00:00:00 | 00:00:00 | |
| OE5MMP-10 | 2026-09-06 00:55:45 | 50.41428 | 18.47946 | 116° | 51km/h | 33212m | 8.0m/s | 0°C | 0% | 0hPa | 0V | 00:00:00 | 00:00:00 | 00:00:00 | |
| PETON7-10 | 2026-09-06 00:55:39 | 50.41405 | 18.47904 | 46° | 44km/h | 33154m | 1.5m/s | 0°C | 0% | 0hPa | 0V | 00:00:00 | 00:00:00 | 00:00:00 | |
| OE5MMP-10 | 2026-09-06 00:55:31 | 50.41369 | 18.47836 | 5° | 55km/h | 33109m | 8.4m/s | 0°C | 0% | 0hPa | 0V | 00:00:00 | 00:00:00 | 00:00:00 | |
| PETON7-10 | 2026-09-06 00:55:23 | 50.41324 | 18.47783 | 339° | 55km/h | 33059m | 5.0m/s | 0°C | 0% | 0hPa | 0V | 00:00:00 | 00:00:00 | 00:00:00 | |
| OE5MMP-10 | 2026-09-06 00:55:21 | 50.41298 | 18.47777 | 38° | 53km/h | 33046m | 5.7m/s | 0°C | 0% | 0hPa | 0V | 00:00:00 | 00:00:00 | 00:00:00 | |
| OE5MMP-10 | 2026-09-06 00:55:09 | 50.41251 | 18.47665 | 142° | 58km/h | 32983m | 2.7m/s | 0°C | 0% | 0hPa | 0V | 00:00:00 | 00:00:00 | 00:00:00 | |
| PETON7-10 | 2026-09-06 00:55:08 | 50.41258 | 18.47658 | 159° | 57km/h | 32980m | 3.9m/s | 0°C | 0% | 0hPa | 0V | 00:00:00 | 00:00:00 | 00:00:00 | |
| OE5MMP-10 | 2026-09-06 00:54:53 | 50.41158 | 18.47573 | 76° | 51km/h | 32883m | 3.8m/s | 0°C | 0% | 0hPa | 0V | 00:00:00 | 00:00:00 | 00:00:00 | |
| OE5DRO-10 | 2026-09-06 00:54:48 | 50.41152 | 18.47560 | 329° | 51km/h | 32843m | 2.9m/s | 0°C | 0% | 0hPa | 0V | 00:00:00 | 00:00:00 | 00:00:00 | |
| OE5MMP-10 | 2026-09-06 00:54:38 | 50.41073 | 18.47498 | 349° | 55km/h | 32798m | 4.8m/s | 0°C | 0% | 0hPa | 0V | 00:00:00 | 00:00:00 | 00:00:00 | |
| PETON7-10 | 2026-09-06 00:54:37 | 50.41055 | 18.47494 | 24° | 53km/h | 32792m | 4.4m/s | 0°C | 0% | 0hPa | 0V | 00:00:00 | 00:00:00 | 00:00:00 | |
| PETON7-10 | 2026-09-06 00:54:22 | 50.40998 | 18.47414 | 333° | 57km/h | 32706m | 5.1m/s | 0°C | 0% | 0hPa | 0V | 00:00:00 | 00:00:00 | 00:00:00 | |
| OE5MMP-10 | 2026-09-06 00:54:20 | 50.40960 | 18.47416 | 21° | 58km/h | 32690m | 9.6m/s | 0°C | 0% | 0hPa | 0V | 00:00:00 | 00:00:00 | 00:00:00 | |
| OE5MMP-10 | 2026-09-06 00:54:10 | 50.40908 | 18.47347 | 90° | 51km/h | 32615m | 6.7m/s | 0°C | 0% | 0hPa | 0V | 00:00:00 | 00:00:00 | 00:00:00 | |
| PETON7-10 | 2026-09-06 00:54:07 | 50.40921 | 18.47327 | 254° | 55km/h | 32596m | 2.2m/s | 0°C | 0% | 0hPa | 0V | 00:00:00 | 00:00:00 | 00:00:00 | |
| OE5MMP-10 | 2026-09-06 00:53:54 | 50.40843 | 18.47292 | 119° | 51km/h | 32523m | 3.0m/s | 0°C | 0% | 0hPa | 0V | 00:00:00 | 00:00:00 | 00:00:00 | |
| PETON7-10 | 2026-09-06 00:53:51 | 50.40861 | 18.47289 | 278° | 49km/h | 32511m | 4.1m/s | 0°C | 0% | 0hPa | 0V | 00:00:00 | 00:00:00 | 00:00:00 | |
| PETON7-10 | 2026-09-06 00:53:36 | 50.40777 | 18.47218 | 230° | 44km/h | 32476m | 15.4m/s | 0°C | 0% | 0hPa | 0V | 00:00:00 | 00:00:00 | 00:00:00 | |
| OE5MMP-10 | 2026-09-06 00:53:26 | 50.40697 | 18.47178 | 300° | 47km/h | 32377m | 11.8m/s | 0°C | 0% | 0hPa | 0V | 00:00:00 | 00:00:00 | 00:00:00 | |
| S52SK | 2026-09-06 00:53:25 | 50.40687 | 18.47190 | 341° | 46km/h | 32366m | 9.6m/s | 0°C | 0% | 0hPa | 0V | 00:00:00 | 00:00:00 | 00:00:00 | |
| PETON7-10 | 2026-09-06 00:53:16 | 50.40631 | 18.47157 | 6° | 58km/h | 32292m | 6.1m/s | 0°C | 0% | 0hPa | 0V | 00:00:00 | 00:00:00 | 00:00:00 | |
| OE5MMP-10 | 2026-09-06 00:53:15 | 50.40614 | 18.47149 | 40° | 53km/h | 32287m | 6.5m/s | 0°C | 0% | 0hPa | 0V | 00:00:00 | 00:00:00 | 00:00:00 | |
| OE5MMP-10 | 2026-09-06 00:53:01 | 50.40588 | 18.47084 | 290° | 47km/h | 32196m | 7.8m/s | 0°C | 0% | 0hPa | 0V | 00:00:00 | 00:00:00 | 00:00:00 | |
| PETON7-10 | 2026-09-06 00:52:59 | 50.40565 | 18.47099 | 22° | 51km/h | 32187m | 3.1m/s | 0°C | 0% | 0hPa | 0V | 00:00:00 | 00:00:00 | 00:00:00 | |
| PETON7-10 | 2026-09-06 00:52:44 | 50.40566 | 18.47089 | 310° | 55km/h | 32098m | 7.1m/s | 0°C | 0% | 0hPa | 0V | 00:00:00 | 00:00:00 | 00:00:00 | |
| OE5MMP-10 | 2026-09-06 00:52:34 | 50.40553 | 18.47091 | 60° | 66km/h | 32081m | 12.2m/s | 0°C | 0% | 0hPa | 0V | 00:00:00 | 00:00:00 | 00:00:00 | |
| PETON7-10 | 2026-09-06 00:52:20 | 50.40561 | 18.47038 | 4° | 40km/h | 31986m | 5.9m/s | 0°C | 0% | 0hPa | 0V | 00:00:00 | 00:00:00 | 00:00:00 | |
| OE5MMP-10 | 2026-09-06 00:52:19 | 50.40556 | 18.47031 | 153° | 38km/h | 31992m | 11.3m/s | 0°C | 0% | 0hPa | 0V | 00:00:00 | 00:00:00 | 00:00:00 | |
| PETON7-10 | 2026-09-06 00:52:04 | 50.40590 | 18.46962 | 77° | 51km/h | 31886m | 12.9m/s | 0°C | 0% | 0hPa | 0V | 00:00:00 | 00:00:00 | 00:00:00 | |
| OE5MMP-10 | 2026-09-06 00:52:03 | 50.40589 | 18.46942 | 99° | 62km/h | 31877m | 24.2m/s | 0°C | 0% | 0hPa | 0V | 00:00:00 | 00:00:00 | 00:00:00 | |
| OE5MMP-10 | 2026-09-06 00:51:51 | 50.40636 | 18.46798 | 184° | 62km/h | 31797m | 7.3m/s | 0°C | 0% | 0hPa | 0V | 00:00:00 | 00:00:00 | 00:00:00 | |
| PETON7-10 | 2026-09-06 00:51:47 | 50.40629 | 18.46815 | 40° | 49km/h | 31796m | 7.9m/s | 0°C | 0% | 0hPa | 0V | 00:00:00 | 00:00:00 | 00:00:00 | |
| PETON7-10 | 2026-09-06 00:51:32 | 50.40666 | 18.46672 | 7° | 49km/h | 31691m | 2.4m/s | 0°C | 0% | 0hPa | 0V | 00:00:00 | 00:00:00 | 00:00:00 | |
| OE5MMP-10 | 2026-09-06 00:51:30 | 50.40635 | 18.46583 | 91° | 66km/h | 31714m | 9.3m/s | 0°C | 0% | 0hPa | 0V | 00:00:00 | 00:00:00 | 00:00:00 | |
| POL1PZ | 2026-09-06 00:51:22 | 50.40669 | 18.46517 | 140° | 64km/h | 31643m | 13.3m/s | 0°C | 0% | 0hPa | 0V | 00:00:00 | 00:00:00 | 00:00:00 | |
| OE5MMP-10 | 2026-09-06 00:51:20 | 50.40694 | 18.46484 | 139° | 46km/h | 31625m | 16.1m/s | 0°C | 0% | 0hPa | 0V | 00:00:00 | 00:00:00 | 00:00:00 | |
| PETON7-10 | 2026-09-06 00:51:17 | 50.40676 | 18.46467 | 306° | 55km/h | 31610m | 9.8m/s | 0°C | 0% | 0hPa | 0V | 00:00:00 | 00:00:00 | 00:00:00 | |
| POL1PZ | 2026-09-06 00:51:00 | 50.40776 | 18.46293 | 8° | 47km/h | 31713m | 45.4m/s | 0°C | 0% | 0hPa | 0V | 00:00:00 | 00:00:00 | 00:00:00 | |
| OE5DRO-10 | 2026-09-06 00:50:55 | 50.40743 | 18.46309 | 249° | 62km/h | 31450m | 13.8m/s | 0°C | 0% | 0hPa | 0V | 00:00:00 | 00:00:00 | 00:00:00 | |
| OE5MMP-10 | 2026-09-06 00:50:51 | 50.40710 | 18.46327 | 36° | 47km/h | 31470m | 14.9m/s | 0°C | 0% | 0hPa | 0V | 00:00:00 | 00:00:00 | 00:00:00 | |
| PETON7-10 | 2026-09-06 00:50:47 | 50.40693 | 18.46290 | 227° | 35km/h | 31410m | 12.5m/s | 0°C | 0% | 0hPa | 0V | 00:00:00 | 00:00:00 | 00:00:00 | |
| OE5MMP-10 | 2026-09-06 00:50:35 | 50.40616 | 18.46186 | 67° | 57km/h | 31319m | 4.0m/s | 0°C | 0% | 0hPa | 0V | 00:00:00 | 00:00:00 | 00:00:00 | |
| PETON7-10 | 2026-09-06 00:50:30 | 50.40591 | 18.46113 | 327° | 47km/h | 31316m | 4.3m/s | 0°C | 0% | 0hPa | 0V | 00:00:00 | 00:00:00 | 00:00:00 | |
| POL1PZ | 2026-09-06 00:50:26 | 50.40503 | 18.46076 | 196° | 75km/h | 31379m | 4.4m/s | 0°C | 0% | 0hPa | 0V | 00:00:00 | 00:00:00 | 00:00:00 | |
| PETON7-10 | 2026-09-06 00:50:15 | 50.40503 | 18.46001 | 205° | 66km/h | 31279m | 31.8m/s | 0°C | 0% | 0hPa | 0V | 00:00:00 | 00:00:00 | 00:00:00 | |
| POL1PZ | 2026-09-06 00:50:04 | 50.40618 | 18.46050 | 65° | 47km/h | 31104m | 7.7m/s | 0°C | 0% | 0hPa | 0V | 00:00:00 | 00:00:00 | 00:00:00 | |
| PETON7-10 | 2026-09-06 00:49:59 | 50.40658 | 18.46015 | 286° | 33km/h | 31086m | 2.1m/s | 0°C | 0% | 0hPa | 0V | 00:00:00 | 00:00:00 | 00:00:00 | |
| PETON7-10 | 2026-09-06 00:49:44 | 50.40652 | 18.45980 | 246° | 46km/h | 30963m | 2.0m/s | 0°C | 0% | 0hPa | 0V | 00:00:00 | 00:00:00 | 00:00:00 | |
| POL1PZ | 2026-09-06 00:49:41 | 50.40636 | 18.45991 | 34° | 57km/h | 30937m | 6.1m/s | 0°C | 0% | 0hPa | 0V | 00:00:00 | 00:00:00 | 00:00:00 | |
| OE5MMP-10 | 2026-09-06 00:49:40 | 50.40632 | 18.45973 | 74° | 58km/h | 30939m | 3.6m/s | 0°C | 0% | 0hPa | 0V | 00:00:00 | 00:00:00 | 00:00:00 | |
| OE5DRO-10 | 2026-09-06 00:49:31 | 50.40659 | 18.45946 | 151° | 35km/h | 30961m | 16.1m/s | 0°C | 0% | 0hPa | 0V | 00:00:00 | 00:00:00 | 00:00:00 | |
| PETON7-10 | 2026-09-06 00:49:29 | 50.40679 | 18.45953 | 278° | 46km/h | 30937m | 21.7m/s | 0°C | 0% | 0hPa | 0V | 00:00:00 | 00:00:00 | 00:00:00 | |
| OE5MMP-10 | 2026-09-06 00:49:26 | 50.40661 | 18.45987 | 353° | 47km/h | 30889m | 7.4m/s | 0°C | 0% | 0hPa | 0V | 00:00:00 | 00:00:00 | 00:00:00 | |
| POL1PZ | 2026-09-06 00:49:21 | 50.40640 | 18.45963 | 241° | 31km/h | 30831m | 14.0m/s | 0°C | 0% | 0hPa | 0V | 00:00:00 | 00:00:00 | 00:00:00 | |
| OE5MMP-10 | 2026-09-06 00:49:16 | 50.40618 | 18.45991 | 78° | 44km/h | 30788m | 8.6m/s | 0°C | 0% | 0hPa | 0V | 00:00:00 | 00:00:00 | 00:00:00 | |
| PETON7-10 | 2026-09-06 00:49:09 | 50.40608 | 18.46004 | 40° | 46km/h | 30745m | 4.1m/s | 0°C | 0% | 0hPa | 0V | 00:00:00 | 00:00:00 | 00:00:00 | |
| OE5MMP-10 | 2026-09-06 00:49:06 | 50.40615 | 18.45982 | 192° | 44km/h | 30724m | 8.7m/s | 0°C | 0% | 0hPa | 0V | 00:00:00 | 00:00:00 | 00:00:00 | |
| POL1PZ | 2026-09-06 00:49:00 | 50.40602 | 18.46018 | 133° | 44km/h | 30678m | 8.1m/s | 0°C | 0% | 0hPa | 0V | 00:00:00 | 00:00:00 | 00:00:00 | |
| PETON7-10 | 2026-09-06 00:48:54 | 50.40619 | 18.46068 | 355° | 46km/h | 30650m | 3.5m/s | 0°C | 0% | 0hPa | 0V | 00:00:00 | 00:00:00 | 00:00:00 | |
| OE5DRO-10 | 2026-09-06 00:48:47 | 50.40642 | 18.46089 | 322° | 40km/h | 30601m | 6.7m/s | 0°C | 0% | 0hPa | 0V | 00:00:00 | 00:00:00 | 00:00:00 | |
| OE5MMP-10 | 2026-09-06 00:48:44 | 50.40621 | 18.46077 | 109° | 38km/h | 30580m | 11.2m/s | 0°C | 0% | 0hPa | 0V | 00:00:00 | 00:00:00 | 00:00:00 | |
| PETON7-10 | 2026-09-06 00:48:39 | 50.40650 | 18.46108 | 339° | 42km/h | 30546m | 6.2m/s | 0°C | 0% | 0hPa | 0V | 00:00:00 | 00:00:00 | 00:00:00 | |
| POL1PZ | 2026-09-06 00:48:37 | 50.40635 | 18.46094 | 80° | 42km/h | 30531m | 5.3m/s | 0°C | 0% | 0hPa | 0V | 00:00:00 | 00:00:00 | 00:00:00 | |
| OE5MMP-10 | 2026-09-06 00:48:28 | 50.40647 | 18.46098 | 121° | 33km/h | 30485m | 8.1m/s | 0°C | 0% | 0hPa | 0V | 00:00:00 | 00:00:00 | 00:00:00 | |
| PETON7-10 | 2026-09-06 00:48:24 | 50.40683 | 18.46097 | 280° | 38km/h | 30457m | 5.9m/s | 0°C | 0% | 0hPa | 0V | 00:00:00 | 00:00:00 | 00:00:00 | |
| OE5DRO-10 | 2026-09-06 00:48:14 | 50.40697 | 18.46105 | 58° | 27km/h | 30402m | 11.4m/s | 0°C | 0% | 0hPa | 0V | 00:00:00 | 00:00:00 | 00:00:00 | |
| POL1PZ | 2026-09-06 00:48:13 | 50.40695 | 18.46093 | 88° | 38km/h | 30392m | 7.3m/s | 0°C | 0% | 0hPa | 0V | 00:00:00 | 00:00:00 | 00:00:00 | |
| OE5MMP-10 | 2026-09-06 00:48:10 | 50.40715 | 18.46061 | 188° | 38km/h | 30373m | 7.1m/s | 0°C | 0% | 0hPa | 0V | 00:00:00 | 00:00:00 | 00:00:00 | |
| PETON7-10 | 2026-09-06 00:48:09 | 50.40724 | 18.46068 | 230° | 42km/h | 30367m | 5.2m/s | 0°C | 0% | 0hPa | 0V | 00:00:00 | 00:00:00 | 00:00:00 | |
| OE5MMP-10 | 2026-09-06 00:48:00 | 50.40759 | 18.46095 | 254° | 44km/h | 30375m | 3.4m/s | 0°C | 0% | 0hPa | 0V | 00:00:00 | 00:00:00 | 00:00:00 | |
| PETON7-10 | 2026-09-06 00:47:54 | 50.40756 | 18.46041 | 138° | 27km/h | 30291m | 24.8m/s | 0°C | 0% | 0hPa | 0V | 00:00:00 | 00:00:00 | 00:00:00 | |
| OE5MMP-10 | 2026-09-06 00:47:50 | 50.40769 | 18.46068 | 354° | 13km/h | 30245m | 9.4m/s | 0°C | 0% | 0hPa | 0V | 00:00:00 | 00:00:00 | 00:00:00 | |
| POL1PZ | 2026-09-06 00:47:49 | 50.40767 | 18.46064 | 75° | 16km/h | 30236m | 7.8m/s | 0°C | 0% | 0hPa | 0V | 00:00:00 | 00:00:00 | 00:00:00 | |
| SP3BTT-10 | 2026-09-06 00:47:42 | 50.40799 | 18.46067 | 115° | 26km/h | 30192m | 9.1m/s | 0°C | 0% | 0hPa | 0V | 00:00:00 | 00:00:00 | 00:00:00 | |
| PETON7-10 | 2026-09-06 00:47:39 | 50.40808 | 18.46043 | 138° | 31km/h | 30172m | 6.9m/s | 0°C | 0% | 0hPa | 0V | 00:00:00 | 00:00:00 | 00:00:00 | |
| OE5DRO-10 | 2026-09-06 00:47:37 | 50.40827 | 18.46033 | 198° | 27km/h | 30154m | 4.5m/s | 0°C | 0% | 0hPa | 0V | 00:00:00 | 00:00:00 | 00:00:00 | |
| OE5MMP-10 | 2026-09-06 00:47:34 | 50.40836 | 18.46056 | 312° | 24km/h | 30140m | 6.8m/s | 0°C | 0% | 0hPa | 0V | 00:00:00 | 00:00:00 | 00:00:00 | |
| PETON7-10 | 2026-09-06 00:47:24 | 50.40883 | 18.46008 | 102° | 24km/h | 30075m | 5.4m/s | 0°C | 0% | 0hPa | 0V | 00:00:00 | 00:00:00 | 00:00:00 | |
| OE5MMP-10 | 2026-09-06 00:47:22 | 50.40890 | 18.46004 | 179° | 26km/h | 30060m | 5.6m/s | 0°C | 0% | 0hPa | 0V | 00:00:00 | 00:00:00 | 00:00:00 | |
| OE5DRO-10 | 2026-09-06 00:47:15 | 50.40922 | 18.45975 | 168° | 27km/h | 30010m | 3.6m/s | 0°C | 0% | 0hPa | 0V | 00:00:00 | 00:00:00 | 00:00:00 | |
| OE5MMP-10 | 2026-09-06 00:47:12 | 50.40934 | 18.45948 | 105° | 24km/h | 29990m | 5.3m/s | 0°C | 0% | 0hPa | 0V | 00:00:00 | 00:00:00 | 00:00:00 | |
| PETON7-10 | 2026-09-06 00:47:07 | 50.40950 | 18.45928 | 153° | 27km/h | 29962m | 3.4m/s | 0°C | 0% | 0hPa | 0V | 00:00:00 | 00:00:00 | 00:00:00 | |
| OE5MMP-10 | 2026-09-06 00:47:01 | 50.40977 | 18.45874 | 190° | 33km/h | 29922m | 4.6m/s | 0°C | 0% | 0hPa | 0V | 00:00:00 | 00:00:00 | 00:00:00 | |
| POL1PZ | 2026-09-06 00:46:59 | 50.40988 | 18.45873 | 152° | 9km/h | 29911m | 7.3m/s | 0°C | 0% | 0hPa | 0V | 00:00:00 | 00:00:00 | 00:00:00 | |
| OE5DRO-10 | 2026-09-06 00:46:56 | 50.40991 | 18.45835 | 100° | 27km/h | 29890m | 4.6m/s | 0°C | 0% | 0hPa | 0V | 00:00:00 | 00:00:00 | 00:00:00 | |
| PETON7-10 | 2026-09-06 00:46:52 | 50.41011 | 18.45819 | 158° | 26km/h | 29854m | 6.3m/s | 0°C | 0% | 0hPa | 0V | 00:00:00 | 00:00:00 | 00:00:00 | |
| OE5MMP-10 | 2026-09-06 00:46:48 | 50.41028 | 18.45777 | 115° | 29km/h | 29824m | -4.0m/s | 0°C | 0% | 0hPa | 0V | 00:00:00 | 00:00:00 | 00:00:00 | |
| SP3BTT-10 | 2026-09-06 00:46:41 | 50.41067 | 18.45724 | 85° | 24km/h | 29791m | 6.2m/s | 0°C | 0% | 0hPa | 0V | 00:00:00 | 00:00:00 | 00:00:00 | |
| OE5MMP-10 | 2026-09-06 00:46:37 | 50.41058 | 18.45707 | 129° | 24km/h | 29752m | 7.0m/s | 0°C | 0% | 0hPa | 0V | 00:00:00 | 00:00:00 | 00:00:00 | |
| PETON7-10 | 2026-09-06 00:46:36 | 50.41060 | 18.45694 | 99° | 22km/h | 29740m | 1.9m/s | 0°C | 0% | 0hPa | 0V | 00:00:00 | 00:00:00 | 00:00:00 | |
| OE5MMP-10 | 2026-09-06 00:46:27 | 50.41078 | 18.45626 | 128° | 24km/h | 29681m | -0.2m/s | 0°C | 0% | 0hPa | 0V | 00:00:00 | 00:00:00 | 00:00:00 | |
| PETON7-10 | 2026-09-06 00:46:20 | 50.41105 | 18.45606 | 122° | 22km/h | 29665m | 2.4m/s | 0°C | 0% | 0hPa | 0V | 00:00:00 | 00:00:00 | 00:00:00 | |
| OE5DRO-10 | 2026-09-06 00:46:17 | 50.41117 | 18.45598 | 232° | 24km/h | 29643m | 4.7m/s | 0°C | 0% | 0hPa | 0V | 00:00:00 | 00:00:00 | 00:00:00 | |
| OE5MMP-10 | 2026-09-06 00:46:15 | 50.41122 | 18.45601 | 121° | 20km/h | 29627m | 6.8m/s | 0°C | 0% | 0hPa | 0V | 00:00:00 | 00:00:00 | 00:00:00 | |
| PETON7-10 | 2026-09-06 00:46:05 | 50.41160 | 18.45557 | 152° | 27km/h | 29568m | 1.5m/s | 0°C | 0% | 0hPa | 0V | 00:00:00 | 00:00:00 | 00:00:00 | |
| OE5MMP-10 | 2026-09-06 00:46:04 | 50.41164 | 18.45556 | 185° | 27km/h | 29566m | 6.7m/s | 0°C | 0% | 0hPa | 0V | 00:00:00 | 00:00:00 | 00:00:00 | |
| OE5MMP-10 | 2026-09-06 00:45:53 | 50.41217 | 18.45545 | 119° | 26km/h | 29493m | 7.9m/s | 0°C | 0% | 0hPa | 0V | 00:00:00 | 00:00:00 | 00:00:00 | |
| PETON7-10 | 2026-09-06 00:45:50 | 50.41218 | 18.45526 | 43° | 22km/h | 29478m | 8.3m/s | 0°C | 0% | 0hPa | 0V | 00:00:00 | 00:00:00 | 00:00:00 | |
| OE5MMP-10 | 2026-09-06 00:45:41 | 50.41249 | 18.45493 | 259° | 24km/h | 29416m | 3.7m/s | 0°C | 0% | 0hPa | 0V | 00:00:00 | 00:00:00 | 00:00:00 | |
| PETON7-10 | 2026-09-06 00:45:35 | 50.41264 | 18.45467 | 179° | 27km/h | 29378m | 8.6m/s | 0°C | 0% | 0hPa | 0V | 00:00:00 | 00:00:00 | 00:00:00 | |
| POL1PZ | 2026-09-06 00:45:33 | 50.41278 | 18.45456 | 197° | 16km/h | 29365m | 2.4m/s | 0°C | 0% | 0hPa | 0V | 00:00:00 | 00:00:00 | 00:00:00 | |
| OE5MMP-10 | 2026-09-06 00:45:30 | 50.41285 | 18.45430 | 106° | 29km/h | 29347m | 5.9m/s | 0°C | 0% | 0hPa | 0V | 00:00:00 | 00:00:00 | 00:00:00 | |
| OE5DRO-10 | 2026-09-06 00:45:26 | 50.41308 | 18.45401 | 189° | 31km/h | 29318m | 2.6m/s | 0°C | 0% | 0hPa | 0V | 00:00:00 | 00:00:00 | 00:00:00 | |
| SP3BTT-10 | 2026-09-06 00:45:24 | 50.41319 | 18.45417 | 128° | 22km/h | 29306m | 5.7m/s | 0°C | 0% | 0hPa | 0V | 00:00:00 | 00:00:00 | 00:00:00 | |
| PETON7-10 | 2026-09-06 00:45:20 | 50.41334 | 18.45373 | 166° | 24km/h | 29277m | 8.1m/s | 0°C | 0% | 0hPa | 0V | 00:00:00 | 00:00:00 | 00:00:00 | |
| OE5MMP-10 | 2026-09-06 00:45:10 | 50.41385 | 18.45325 | 115° | 29km/h | 29223m | 5.2m/s | 0°C | 0% | 0hPa | 0V | 00:00:00 | 00:00:00 | 00:00:00 | |
| PETON7-10 | 2026-09-06 00:45:05 | 50.41407 | 18.45298 | 168° | 31km/h | 29194m | 3.8m/s | 0°C | 0% | 0hPa | 0V | 00:00:00 | 00:00:00 | 00:00:00 | |
| OE5MMP-10 | 2026-09-06 00:45:00 | 50.41429 | 18.45245 | 143° | 29km/h | 29157m | 7.0m/s | 0°C | 0% | 0hPa | 0V | 00:00:00 | 00:00:00 | 00:00:00 | |
| POL1PZ | 2026-09-06 00:44:57 | 50.41444 | 18.45236 | 142° | 11km/h | 29140m | 2.6m/s | 0°C | 0% | 0hPa | 0V | 00:00:00 | 00:00:00 | 00:00:00 | |
| PETON7-10 | 2026-09-06 00:44:50 | 50.41465 | 18.45175 | 212° | 33km/h | 29100m | 3.4m/s | 0°C | 0% | 0hPa | 0V | 00:00:00 | 00:00:00 | 00:00:00 | |
| OE5MMP-10 | 2026-09-06 00:44:48 | 50.41469 | 18.45166 | 107° | 35km/h | 29085m | 7.4m/s | 0°C | 0% | 0hPa | 0V | 00:00:00 | 00:00:00 | 00:00:00 | |
| PETON7-10 | 2026-09-06 00:44:34 | 50.41522 | 18.45032 | 67° | 27km/h | 28997m | 6.0m/s | 0°C | 0% | 0hPa | 0V | 00:00:00 | 00:00:00 | 00:00:00 | |
| OE5MMP-10 | 2026-09-06 00:44:33 | 50.41521 | 18.45026 | 62° | 29km/h | 28988m | 6.5m/s | 0°C | 0% | 0hPa | 0V | 00:00:00 | 00:00:00 | 00:00:00 | |
| POL1PZ | 2026-09-06 00:44:32 | 50.41519 | 18.45015 | 75° | 42km/h | 28981m | 6.3m/s | 0°C | 0% | 0hPa | 0V | 00:00:00 | 00:00:00 | 00:00:00 | |
| OE5DRO-10 | 2026-09-06 00:44:31 | 50.41518 | 18.44997 | 89° | 33km/h | 28973m | 4.5m/s | 0°C | 0% | 0hPa | 0V | 00:00:00 | 00:00:00 | 00:00:00 | |
| OE5MMP-10 | 2026-09-06 00:44:23 | 50.41524 | 18.44930 | 85° | 27km/h | 28927m | 5.5m/s | 0°C | 0% | 0hPa | 0V | 00:00:00 | 00:00:00 | 00:00:00 | |
| PETON7-10 | 2026-09-06 00:44:19 | 50.41545 | 18.44881 | 120° | 20km/h | 28909m | 5.1m/s | 0°C | 0% | 0hPa | 0V | 00:00:00 | 00:00:00 | 00:00:00 | |
| OE5MMP-10 | 2026-09-06 00:44:12 | 50.41554 | 18.44846 | 112° | 26km/h | 28852m | 6.7m/s | 0°C | 0% | 0hPa | 0V | 00:00:00 | 00:00:00 | 00:00:00 | |
| POL1PZ | 2026-09-06 00:44:11 | 50.41555 | 18.44834 | 85° | 33km/h | 28844m | 6.8m/s | 0°C | 0% | 0hPa | 0V | 00:00:00 | 00:00:00 | 00:00:00 | |
| SP3BTT-10 | 2026-09-06 00:44:07 | 50.41557 | 18.44792 | 157° | 27km/h | 28815m | 5.0m/s | 0°C | 0% | 0hPa | 0V | 00:00:00 | 00:00:00 | 00:00:00 | |
| PETON7-10 | 2026-09-06 00:44:04 | 50.41567 | 18.44784 | 56° | 24km/h | 28801m | 6.2m/s | 0°C | 0% | 0hPa | 0V | 00:00:00 | 00:00:00 | 00:00:00 | |
| OE5MMP-10 | 2026-09-06 00:44:01 | 50.41558 | 18.44743 | 87° | 27km/h | 28784m | 4.8m/s | 0°C | 0% | 0hPa | 0V | 00:00:00 | 00:00:00 | 00:00:00 | |
| OE5MMP-10 | 2026-09-06 00:43:51 | 50.41577 | 18.44683 | 145° | 16km/h | 28732m | 5.1m/s | 0°C | 0% | 0hPa | 0V | 00:00:00 | 00:00:00 | 00:00:00 | |
| PETON7-10 | 2026-09-06 00:43:49 | 50.41579 | 18.44681 | 360° | 18km/h | 28717m | 8.8m/s | 0°C | 0% | 0hPa | 0V | 00:00:00 | 00:00:00 | 00:00:00 | |
| POL1PZ | 2026-09-06 00:43:48 | 50.41574 | 18.44682 | 353° | 20km/h | 28709m | 5.5m/s | 0°C | 0% | 0hPa | 0V | 00:00:00 | 00:00:00 | 00:00:00 | |
| OE5MMP-10 | 2026-09-06 00:43:40 | 50.41574 | 18.44662 | 333° | 27km/h | 28668m | 2.5m/s | 0°C | 0% | 0hPa | 0V | 00:00:00 | 00:00:00 | 00:00:00 | |
| PETON7-10 | 2026-09-06 00:43:34 | 50.41592 | 18.44665 | 88° | 31km/h | 28637m | 5.9m/s | 0°C | 0% | 0hPa | 0V | 00:00:00 | 00:00:00 | 00:00:00 | |
| OE5DRO-10 | 2026-09-06 00:43:32 | 50.41583 | 18.44661 | 347° | 31km/h | 28620m | 3.3m/s | 0°C | 0% | 0hPa | 0V | 00:00:00 | 00:00:00 | 00:00:00 | |
| OE5MMP-10 | 2026-09-06 00:43:30 | 50.41576 | 18.44679 | 275° | 29km/h | 28611m | 6.6m/s | 0°C | 0% | 0hPa | 0V | 00:00:00 | 00:00:00 | 00:00:00 | |
| POL1PZ | 2026-09-06 00:43:21 | 50.41592 | 18.44662 | 172° | 35km/h | 28554m | 5.7m/s | 0°C | 0% | 0hPa | 0V | 00:00:00 | 00:00:00 | 00:00:00 | |
| OE5MMP-10 | 2026-09-06 00:43:20 | 50.41599 | 18.44655 | 132° | 27km/h | 28548m | 7.1m/s | 0°C | 0% | 0hPa | 0V | 00:00:00 | 00:00:00 | 00:00:00 | |
| PETON7-10 | 2026-09-06 00:43:19 | 50.41604 | 18.44644 | 111° | 22km/h | 28538m | 10.1m/s | 0°C | 0% | 0hPa | 0V | 00:00:00 | 00:00:00 | 00:00:00 | |
| OE5DRO-10 | 2026-09-06 00:43:13 | 50.41612 | 18.44651 | 166° | 27km/h | 28504m | 6.9m/s | 0°C | 0% | 0hPa | 0V | 00:00:00 | 00:00:00 | 00:00:00 | |
| OE5MMP-10 | 2026-09-06 00:43:10 | 50.41628 | 18.44623 | 143° | 26km/h | 28469m | 6.0m/s | 0°C | 0% | 0hPa | 0V | 00:00:00 | 00:00:00 | 00:00:00 | |
| SP3BTT-10 | 2026-09-06 00:43:09 | 50.41632 | 18.44619 | 187° | 26km/h | 28461m | 4.3m/s | 0°C | 0% | 0hPa | 0V | 00:00:00 | 00:00:00 | 00:00:00 | |
| PETON7-10 | 2026-09-06 00:43:04 | 50.41636 | 18.44634 | 195° | 33km/h | 28441m | 1.2m/s | 0°C | 0% | 0hPa | 0V | 00:00:00 | 00:00:00 | 00:00:00 | |
| OE5MMP-10 | 2026-09-06 00:42:57 | 50.41665 | 18.44615 | 309° | 37km/h | 28403m | -0.2m/s | 0°C | 0% | 0hPa | 0V | 00:00:00 | 00:00:00 | 00:00:00 | |
| PETON7-10 | 2026-09-06 00:42:49 | 50.41714 | 18.44597 | 330° | 27km/h | 28357m | 5.4m/s | 0°C | 0% | 0hPa | 0V | 00:00:00 | 00:00:00 | 00:00:00 | |
| OE5DRO-10 | 2026-09-06 00:42:46 | 50.41713 | 18.44616 | 210° | 31km/h | 28340m | 4.8m/s | 0°C | 0% | 0hPa | 0V | 00:00:00 | 00:00:00 | 00:00:00 | |
| OE5MMP-10 | 2026-09-06 00:42:45 | 50.41722 | 18.44617 | 167° | 35km/h | 28334m | 6.4m/s | 0°C | 0% | 0hPa | 0V | 00:00:00 | 00:00:00 | 00:00:00 | |
| OE5MMP-10 | 2026-09-06 00:42:35 | 50.41782 | 18.44570 | 129° | 26km/h | 28272m | 6.8m/s | 0°C | 0% | 0hPa | 0V | 00:00:00 | 00:00:00 | 00:00:00 | |
| PETON7-10 | 2026-09-06 00:42:34 | 50.41784 | 18.44565 | 123° | 26km/h | 28266m | 3.5m/s | 0°C | 0% | 0hPa | 0V | 00:00:00 | 00:00:00 | 00:00:00 | |
| OE5DRO-10 | 2026-09-06 00:42:26 | 50.41835 | 18.44535 | 137° | 24km/h | 28219m | 4.3m/s | 0°C | 0% | 0hPa | 0V | 00:00:00 | 00:00:00 | 00:00:00 | |
| OE5MMP-10 | 2026-09-06 00:42:25 | 50.41840 | 18.44527 | 137° | 26km/h | 28213m | 7.8m/s | 0°C | 0% | 0hPa | 0V | 00:00:00 | 00:00:00 | 00:00:00 | |
| PETON7-10 | 2026-09-06 00:42:19 | 50.41876 | 18.44487 | 182° | 24km/h | 28175m | 3.9m/s | 0°C | 0% | 0hPa | 0V | 00:00:00 | 00:00:00 | 00:00:00 | |
| POL1PZ | 2026-09-06 00:42:18 | 50.41882 | 18.44486 | 164° | 26km/h | 28166m | 7.1m/s | 0°C | 0% | 0hPa | 0V | 00:00:00 | 00:00:00 | 00:00:00 | |
| OE5MMP-10 | 2026-09-06 00:42:15 | 50.41902 | 18.44460 | 126° | 29km/h | 28145m | 5.9m/s | 0°C | 0% | 0hPa | 0V | 00:00:00 | 00:00:00 | 00:00:00 | |
| SP3BTT-10 | 2026-09-06 00:42:08 | 50.41942 | 18.44436 | 168° | 16km/h | 28104m | 8.3m/s | 0°C | 0% | 0hPa | 0V | 00:00:00 | 00:00:00 | 00:00:00 | |
| OE5MMP-10 | 2026-09-06 00:42:05 | 50.41946 | 18.44418 | 115° | 27km/h | 28084m | 5.1m/s | 0°C | 0% | 0hPa | 0V | 00:00:00 | 00:00:00 | 00:00:00 | |
| OE5DRO-10 | 2026-09-06 00:42:04 | 50.41951 | 18.44409 | 141° | 26km/h | 28074m | 8.0m/s | 0°C | 0% | 0hPa | 0V | 00:00:00 | 00:00:00 | 00:00:00 | |
| PETON7-10 | 2026-09-06 00:42:03 | 50.41961 | 18.44403 | 169° | 27km/h | 28067m | 4.6m/s | 0°C | 0% | 0hPa | 0V | 00:00:00 | 00:00:00 | 00:00:00 | |
| POL1PZ | 2026-09-06 00:41:58 | 50.41986 | 18.44388 | 91° | 27km/h | 28041m | 5.2m/s | 0°C | 0% | 0hPa | 0V | 00:00:00 | 00:00:00 | 00:00:00 | |
| OE5MMP-10 | 2026-09-06 00:41:50 | 50.42027 | 18.44341 | 130° | 24km/h | 27983m | 4.5m/s | 0°C | 0% | 0hPa | 0V | 00:00:00 | 00:00:00 | 00:00:00 | |
| PETON7-10 | 2026-09-06 00:41:48 | 50.42031 | 18.44334 | 145° | 20km/h | 27977m | 5.0m/s | 0°C | 0% | 0hPa | 0V | 00:00:00 | 00:00:00 | 00:00:00 | |
| OE5DRO-10 | 2026-09-06 00:41:44 | 50.42047 | 18.44337 | 169° | 22km/h | 27957m | 4.9m/s | 0°C | 0% | 0hPa | 0V | 00:00:00 | 00:00:00 | 00:00:00 | |
| OE5MMP-10 | 2026-09-06 00:41:37 | 50.42062 | 18.44302 | 170° | 22km/h | 27932m | 8.6m/s | 0°C | 0% | 0hPa | 0V | 00:00:00 | 00:00:00 | 00:00:00 | |
| PETON7-10 | 2026-09-06 00:41:31 | 50.42087 | 18.44289 | 61° | 15km/h | 27875m | 3.6m/s | 0°C | 0% | 0hPa | 0V | 00:00:00 | 00:00:00 | 00:00:00 | |
| POL1PZ | 2026-09-06 00:41:27 | 50.42105 | 18.44265 | 167° | 20km/h | 27848m | -1.9m/s | 0°C | 0% | 0hPa | 0V | 00:00:00 | 00:00:00 | 00:00:00 | |
| OE5MMP-10 | 2026-09-06 00:41:25 | 50.42106 | 18.44269 | 316° | 16km/h | 27845m | 2.0m/s | 0°C | 0% | 0hPa | 0V | 00:00:00 | 00:00:00 | 00:00:00 | |
| PETON7-10 | 2026-09-06 00:41:15 | 50.42121 | 18.44267 | 78° | 16km/h | 27784m | 6.6m/s | 0°C | 0% | 0hPa | 0V | 00:00:00 | 00:00:00 | 00:00:00 | |
| OE5MMP-10 | 2026-09-06 00:41:14 | 50.42121 | 18.44265 | 356° | 7km/h | 27776m | 5.1m/s | 0°C | 0% | 0hPa | 0V | 00:00:00 | 00:00:00 | 00:00:00 | |
| OE5MMP-10 | 2026-09-06 00:41:04 | 50.42127 | 18.44288 | 360° | 22km/h | 27710m | 5.5m/s | 0°C | 0% | 0hPa | 0V | 00:00:00 | 00:00:00 | 00:00:00 | |
| PETON7-10 | 2026-09-06 00:41:00 | 50.42131 | 18.44273 | 185° | 27km/h | 27685m | 5.6m/s | 0°C | 0% | 0hPa | 0V | 00:00:00 | 00:00:00 | 00:00:00 | |
| POL1PZ | 2026-09-06 00:40:57 | 50.42146 | 18.44294 | 223° | 24km/h | 27666m | 2.2m/s | 0°C | 0% | 0hPa | 0V | 00:00:00 | 00:00:00 | 00:00:00 | |
| OE5MMP-10 | 2026-09-06 00:40:54 | 50.42159 | 18.44285 | 121° | 31km/h | 27652m | 2.4m/s | 0°C | 0% | 0hPa | 0V | 00:00:00 | 00:00:00 | 00:00:00 | |
| PETON7-10 | 2026-09-06 00:40:45 | 50.42209 | 18.44272 | 136° | 22km/h | 27596m | 6.3m/s | 0°C | 0% | 0hPa | 0V | 00:00:00 | 00:00:00 | 00:00:00 | |
| OE5MMP-10 | 2026-09-06 00:40:44 | 50.42212 | 18.44269 | 136° | 26km/h | 27590m | 3.9m/s | 0°C | 0% | 0hPa | 0V | 00:00:00 | 00:00:00 | 00:00:00 | |
| OE5DRO-10 | 2026-09-06 00:40:43 | 50.42215 | 18.44264 | 132° | 22km/h | 27586m | 4.8m/s | 0°C | 0% | 0hPa | 0V | 00:00:00 | 00:00:00 | 00:00:00 | |
| PETON7-10 | 2026-09-06 00:40:30 | 50.42294 | 18.44226 | 300° | 27km/h | 27511m | 3.3m/s | 0°C | 0% | 0hPa | 0V | 00:00:00 | 00:00:00 | 00:00:00 | |
| OE5MMP-10 | 2026-09-06 00:40:28 | 50.42294 | 18.44224 | 135° | 16km/h | 27504m | 6.1m/s | 0°C | 0% | 0hPa | 0V | 00:00:00 | 00:00:00 | 00:00:00 | |
| OE5DRO-10 | 2026-09-06 00:40:24 | 50.42327 | 18.44213 | 150° | 37km/h | 27467m | 6.6m/s | 0°C | 0% | 0hPa | 0V | 00:00:00 | 00:00:00 | 00:00:00 | |
| OE5MMP-10 | 2026-09-06 00:40:18 | 50.42349 | 18.44198 | 172° | 40km/h | 27454m | 6.9m/s | 0°C | 0% | 0hPa | 0V | 00:00:00 | 00:00:00 | 00:00:00 | |
| PETON7-10 | 2026-09-06 00:40:15 | 50.42371 | 18.44168 | 86° | 33km/h | 27430m | 13.6m/s | 0°C | 0% | 0hPa | 0V | 00:00:00 | 00:00:00 | 00:00:00 | |
| POL1PZ | 2026-09-06 00:40:12 | 50.42379 | 18.44149 | 202° | 16km/h | 27404m | 4.6m/s | 0°C | 0% | 0hPa | 0V | 00:00:00 | 00:00:00 | 00:00:00 | |
| OE5MMP-10 | 2026-09-06 00:40:06 | 50.42419 | 18.44106 | 146° | 37km/h | 27366m | 7.3m/s | 0°C | 0% | 0hPa | 0V | 00:00:00 | 00:00:00 | 00:00:00 | |
| OE5DRO-10 | 2026-09-06 00:40:01 | 50.42450 | 18.44056 | 144° | 33km/h | 27331m | 5.0m/s | 0°C | 0% | 0hPa | 0V | 00:00:00 | 00:00:00 | 00:00:00 | |
| PETON7-10 | 2026-09-06 00:40:00 | 50.42458 | 18.44049 | 159° | 38km/h | 27323m | 5.8m/s | 0°C | 0% | 0hPa | 0V | 00:00:00 | 00:00:00 | 00:00:00 | |
| OE5MMP-10 | 2026-09-06 00:39:55 | 50.42491 | 18.43999 | 107° | 35km/h | 27295m | 3.9m/s | 0°C | 0% | 0hPa | 0V | 00:00:00 | 00:00:00 | 00:00:00 | |
| POL1PZ | 2026-09-06 00:39:50 | 50.42528 | 18.43967 | 146° | 47km/h | 27266m | 6.3m/s | 0°C | 0% | 0hPa | 0V | 00:00:00 | 00:00:00 | 00:00:00 | |
| PETON7-10 | 2026-09-06 00:39:45 | 50.42567 | 18.43912 | 159° | 37km/h | 27234m | 4.8m/s | 0°C | 0% | 0hPa | 0V | 00:00:00 | 00:00:00 | 00:00:00 | |
| OE5DRO-10 | 2026-09-06 00:39:40 | 50.42583 | 18.43857 | 131° | 35km/h | 27206m | 4.7m/s | 0°C | 0% | 0hPa | 0V | 00:00:00 | 00:00:00 | 00:00:00 | |
| SP3BTT-10 | 2026-09-06 00:39:34 | 50.42603 | 18.43796 | 130° | 22km/h | 27165m | 5.8m/s | 0°C | 0% | 0hPa | 0V | 00:00:00 | 00:00:00 | 00:00:00 | |
| PETON7-10 | 2026-09-06 00:39:30 | 50.42633 | 18.43751 | 107° | 37km/h | 27142m | 2.0m/s | 0°C | 0% | 0hPa | 0V | 00:00:00 | 00:00:00 | 00:00:00 | |
| POL1PZ | 2026-09-06 00:39:29 | 50.42635 | 18.43733 | 99° | 49km/h | 27137m | 6.7m/s | 0°C | 0% | 0hPa | 0V | 00:00:00 | 00:00:00 | 00:00:00 | |
| OE5MMP-10 | 2026-09-06 00:39:24 | 50.42654 | 18.43681 | 165° | 33km/h | 27106m | 3.8m/s | 0°C | 0% | 0hPa | 0V | 00:00:00 | 00:00:00 | 00:00:00 | |
| OE5DRO-10 | 2026-09-06 00:39:21 | 50.42671 | 18.43642 | 87° | 27km/h | 27089m | 3.8m/s | 0°C | 0% | 0hPa | 0V | 00:00:00 | 00:00:00 | 00:00:00 | |
| PETON7-10 | 2026-09-06 00:39:15 | 50.42680 | 18.43576 | 129° | 29km/h | 27055m | 5.2m/s | 0°C | 0% | 0hPa | 0V | 00:00:00 | 00:00:00 | 00:00:00 | |
| OE5MMP-10 | 2026-09-06 00:39:12 | 50.42687 | 18.43544 | 91° | 26km/h | 27035m | 4.8m/s | 0°C | 0% | 0hPa | 0V | 00:00:00 | 00:00:00 | 00:00:00 | |
| POL1PZ | 2026-09-06 00:39:06 | 50.42689 | 18.43477 | 132° | 37km/h | 27012m | 3.8m/s | 0°C | 0% | 0hPa | 0V | 00:00:00 | 00:00:00 | 00:00:00 | |
| OE5MMP-10 | 2026-09-06 00:39:02 | 50.42699 | 18.43471 | 20° | 40km/h | 26988m | 3.4m/s | 0°C | 0% | 0hPa | 0V | 00:00:00 | 00:00:00 | 00:00:00 | |
| OE5DRO-10 | 2026-09-06 00:39:00 | 50.42690 | 18.43446 | 83° | 22km/h | 26974m | 5.7m/s | 0°C | 0% | 0hPa | 0V | 00:00:00 | 00:00:00 | 00:00:00 | |
| PETON7-10 | 2026-09-06 00:38:58 | 50.42696 | 18.43415 | 130° | 20km/h | 26966m | 6.7m/s | 0°C | 0% | 0hPa | 0V | 00:00:00 | 00:00:00 | 00:00:00 | |
| OE5MMP-10 | 2026-09-06 00:38:51 | 50.42705 | 18.43369 | 135° | 20km/h | 26918m | 7.6m/s | 0°C | 0% | 0hPa | 0V | 00:00:00 | 00:00:00 | 00:00:00 | |
| HA6NAB-11 | 2026-09-06 00:38:48 | 50.42713 | 18.43362 | 71° | 11km/h | 26896m | 8.5m/s | 0°C | 0% | 0hPa | 0V | 00:00:00 | 00:00:00 | 00:00:00 | |
| POL1PZ | 2026-09-06 00:38:46 | 50.42712 | 18.43348 | 75° | 26km/h | 26883m | 4.6m/s | 0°C | 0% | 0hPa | 0V | 00:00:00 | 00:00:00 | 00:00:00 | |
| PETON7-10 | 2026-09-06 00:38:42 | 50.42704 | 18.43329 | 78° | 16km/h | 26861m | 4.8m/s | 0°C | 0% | 0hPa | 0V | 00:00:00 | 00:00:00 | 00:00:00 | |
| OE5MMP-10 | 2026-09-06 00:38:40 | 50.42702 | 18.43314 | 102° | 20km/h | 26846m | 5.1m/s | 0°C | 0% | 0hPa | 0V | 00:00:00 | 00:00:00 | 00:00:00 | |
| HA6NAB-11 | 2026-09-06 00:38:37 | 50.42710 | 18.43294 | 160° | 9km/h | 26830m | 4.1m/s | 0°C | 0% | 0hPa | 0V | 00:00:00 | 00:00:00 | 00:00:00 | |
| HA6NAB-11 | 2026-09-06 00:38:31 | 50.42703 | 18.43271 | 152° | 16km/h | 26800m | 5.4m/s | 0°C | 0% | 0hPa | 0V | 00:00:00 | 00:00:00 | 00:00:00 | |
| PETON7-10 | 2026-09-06 00:38:27 | 50.42709 | 18.43262 | 80° | 16km/h | 26771m | 5.8m/s | 0°C | 0% | 0hPa | 0V | 00:00:00 | 00:00:00 | 00:00:00 | |
| POL1PZ | 2026-09-06 00:38:24 | 50.42714 | 18.43251 | 179° | 15km/h | 26754m | 3.8m/s | 0°C | 0% | 0hPa | 0V | 00:00:00 | 00:00:00 | 00:00:00 | |
| HA6NAB-11 | 2026-09-06 00:38:23 | 50.42718 | 18.43250 | 165° | 15km/h | 26749m | 4.2m/s | 0°C | 0% | 0hPa | 0V | 00:00:00 | 00:00:00 | 00:00:00 | |
| SP3BTT-10 | 2026-09-06 00:38:18 | 50.42725 | 18.43226 | 162° | 15km/h | 26723m | 9.4m/s | 0°C | 0% | 0hPa | 0V | 00:00:00 | 00:00:00 | 00:00:00 | |
| HA6NAB-11 | 2026-09-06 00:38:17 | 50.42728 | 18.43226 | 192° | 16km/h | 26717m | 3.7m/s | 0°C | 0% | 0hPa | 0V | 00:00:00 | 00:00:00 | 00:00:00 | |
| PETON7-10 | 2026-09-06 00:38:12 | 50.42739 | 18.43204 | 115° | 18km/h | 26693m | 6.6m/s | 0°C | 0% | 0hPa | 0V | 00:00:00 | 00:00:00 | 00:00:00 | |
| HA6NAB-11 | 2026-09-06 00:38:10 | 50.42744 | 18.43201 | 197° | 11km/h | 26680m | 4.2m/s | 0°C | 0% | 0hPa | 0V | 00:00:00 | 00:00:00 | 00:00:00 | |
| HA6NAB-11 | 2026-09-06 00:38:04 | 50.42758 | 18.43166 | 141° | 20km/h | 26640m | 6.6m/s | 0°C | 0% | 0hPa | 0V | 00:00:00 | 00:00:00 | 00:00:00 | |
| OE5MMP-10 | 2026-09-06 00:38:03 | 50.42762 | 18.43161 | 160° | 22km/h | 26633m | 8.4m/s | 0°C | 0% | 0hPa | 0V | 00:00:00 | 00:00:00 | 00:00:00 | |
| PETON7-10 | 2026-09-06 00:37:58 | 50.42777 | 18.43142 | 17° | 15km/h | 26589m | 3.9m/s | 0°C | 0% | 0hPa | 0V | 00:00:00 | 00:00:00 | 00:00:00 | |
| HA6NAB-11 | 2026-09-06 00:37:56 | 50.42776 | 18.43140 | 82° | 9km/h | 26586m | 7.1m/s | 0°C | 0% | 0hPa | 0V | 00:00:00 | 00:00:00 | 00:00:00 | |
| HA6NAB-11 | 2026-09-06 00:37:50 | 50.42798 | 18.43105 | 165° | 5km/h | 26547m | 4.5m/s | 0°C | 0% | 0hPa | 0V | 00:00:00 | 00:00:00 | 00:00:00 | |
| SP3BTT-10 | 2026-09-06 00:37:48 | 50.42803 | 18.43100 | 135° | 22km/h | 26533m | 5.5m/s | 0°C | 0% | 0hPa | 0V | 00:00:00 | 00:00:00 | 00:00:00 | |
| HA6NAB-11 | 2026-09-06 00:37:44 | 50.42823 | 18.43070 | 123° | 4km/h | 26507m | 0.7m/s | 0°C | 0% | 0hPa | 0V | 00:00:00 | 00:00:00 | 00:00:00 | |
| POL1PZ | 2026-09-06 00:37:43 | 50.42822 | 18.43069 | 29° | 9km/h | 26507m | 3.8m/s | 0°C | 0% | 0hPa | 0V | 00:00:00 | 00:00:00 | 00:00:00 | |
| PETON7-10 | 2026-09-06 00:37:42 | 50.42820 | 18.43067 | 106° | 15km/h | 26504m | 6.3m/s | 0°C | 0% | 0hPa | 0V | 00:00:00 | 00:00:00 | 00:00:00 | |
| HA6NAB-11 | 2026-09-06 00:37:38 | 50.42833 | 18.43039 | 144° | 13km/h | 26472m | 6.9m/s | 0°C | 0% | 0hPa | 0V | 00:00:00 | 00:00:00 | 00:00:00 | |
| OE5DRO-10 | 2026-09-06 00:37:35 | 50.42836 | 18.43032 | 130° | 16km/h | 26451m | 5.0m/s | 0°C | 0% | 0hPa | 0V | 00:00:00 | 00:00:00 | 00:00:00 | |
| HA6NAB-11 | 2026-09-06 00:37:31 | 50.42851 | 18.43015 | 183° | 18km/h | 26430m | 6.5m/s | 0°C | 0% | 0hPa | 0V | 00:00:00 | 00:00:00 | 00:00:00 | |
| PETON7-10 | 2026-09-06 00:37:24 | 50.42860 | 18.42983 | 201° | 15km/h | 26387m | 4.0m/s | 0°C | 0% | 0hPa | 0V | 00:00:00 | 00:00:00 | 00:00:00 | |
| POL1PZ | 2026-09-06 00:37:21 | 50.42870 | 18.42984 | 134° | 27km/h | 26363m | 2.5m/s | 0°C | 0% | 0hPa | 0V | 00:00:00 | 00:00:00 | 00:00:00 | |
| OE5DRO-10 | 2026-09-06 00:37:10 | 50.42895 | 18.42946 | 192° | 16km/h | 26327m | 5.2m/s | 0°C | 0% | 0hPa | 0V | 00:00:00 | 00:00:00 | 00:00:00 | |
| PETON7-10 | 2026-09-06 00:37:09 | 50.42895 | 18.42946 | 92° | 18km/h | 26324m | 6.4m/s | 0°C | 0% | 0hPa | 0V | 00:00:00 | 00:00:00 | 00:00:00 | |
| HA6NAB-11 | 2026-09-06 00:37:00 | 50.42912 | 18.42903 | 85° | 27km/h | 26257m | 11.9m/s | 0°C | 0% | 0hPa | 0V | 00:00:00 | 00:00:00 | 00:00:00 | |
| POL1PZ | 2026-09-06 00:36:58 | 50.42909 | 18.42885 | 66° | 18km/h | 26237m | 6.8m/s | 0°C | 0% | 0hPa | 0V | 00:00:00 | 00:00:00 | 00:00:00 | |
| PETON7-10 | 2026-09-06 00:36:54 | 50.42924 | 18.42874 | 159° | 22km/h | 26215m | 7.4m/s | 0°C | 0% | 0hPa | 0V | 00:00:00 | 00:00:00 | 00:00:00 | |
| OE5DRO-10 | 2026-09-06 00:36:50 | 50.42930 | 18.42859 | 98° | 18km/h | 26190m | 4.0m/s | 0°C | 0% | 0hPa | 0V | 00:00:00 | 00:00:00 | 00:00:00 | |
| PETON7-10 | 2026-09-06 00:36:39 | 50.42980 | 18.42820 | 150° | 16km/h | 26123m | 7.3m/s | 0°C | 0% | 0hPa | 0V | 00:00:00 | 00:00:00 | 00:00:00 | |
| SP3BTT-10 | 2026-09-06 00:36:37 | 50.42986 | 18.42815 | 162° | 24km/h | 26112m | 5.3m/s | 0°C | 0% | 0hPa | 0V | 00:00:00 | 00:00:00 | 00:00:00 | |
| OE5DRO-10 | 2026-09-06 00:36:31 | 50.43011 | 18.42811 | 82° | 16km/h | 26077m | 5.0m/s | 0°C | 0% | 0hPa | 0V | 00:00:00 | 00:00:00 | 00:00:00 | |
| HA6NAB-11 | 2026-09-06 00:36:27 | 50.43032 | 18.42804 | 199° | 26km/h | 26052m | 6.9m/s | 0°C | 0% | 0hPa | 0V | 00:00:00 | 00:00:00 | 00:00:00 | |
| PETON7-10 | 2026-09-06 00:36:23 | 50.43044 | 18.42810 | 165° | 18km/h | 26025m | 7.1m/s | 0°C | 0% | 0hPa | 0V | 00:00:00 | 00:00:00 | 00:00:00 | |
| POL1PZ | 2026-09-06 00:36:15 | 50.43081 | 18.42797 | 170° | 29km/h | 25977m | 3.9m/s | 0°C | 0% | 0hPa | 0V | 00:00:00 | 00:00:00 | 00:00:00 | |
| OE5DRO-10 | 2026-09-06 00:36:11 | 50.43096 | 18.42775 | 125° | 27km/h | 25954m | 5.5m/s | 0°C | 0% | 0hPa | 0V | 00:00:00 | 00:00:00 | 00:00:00 | |
| PETON7-10 | 2026-09-06 00:36:08 | 50.43113 | 18.42770 | 177° | 29km/h | 25932m | 6.5m/s | 0°C | 0% | 0hPa | 0V | 00:00:00 | 00:00:00 | 00:00:00 | |
| SP3BTT-10 | 2026-09-06 00:36:02 | 50.43136 | 18.42725 | 163° | 22km/h | 25891m | 5.3m/s | 0°C | 0% | 0hPa | 0V | 00:00:00 | 00:00:00 | 00:00:00 | |
| HA6NAB-11 | 2026-09-06 00:35:56 | 50.43156 | 18.42684 | 132° | 35km/h | 25859m | 5.5m/s | 0°C | 0% | 0hPa | 0V | 00:00:00 | 00:00:00 | 00:00:00 | |
| PETON7-10 | 2026-09-06 00:35:53 | 50.43169 | 18.42652 | 101° | 27km/h | 25844m | 3.3m/s | 0°C | 0% | 0hPa | 0V | 00:00:00 | 00:00:00 | 00:00:00 | |
| OE5DRO-10 | 2026-09-06 00:35:52 | 50.43169 | 18.42642 | 78° | 31km/h | 25841m | 3.1m/s | 0°C | 0% | 0hPa | 0V | 00:00:00 | 00:00:00 | 00:00:00 | |
| POL1PZ | 2026-09-06 00:35:48 | 50.43181 | 18.42599 | 116° | 46km/h | 25817m | 9.6m/s | 0°C | 0% | 0hPa | 0V | 00:00:00 | 00:00:00 | 00:00:00 | |
| HA6NAB-11 | 2026-09-06 00:35:46 | 50.43183 | 18.42573 | 75° | 24km/h | 25799m | 6.2m/s | 0°C | 0% | 0hPa | 0V | 00:00:00 | 00:00:00 | 00:00:00 | |
| HA6NAB-11 | 2026-09-06 00:35:39 | 50.43185 | 18.42497 | 74° | 37km/h | 25747m | 7.6m/s | 0°C | 0% | 0hPa | 0V | 00:00:00 | 00:00:00 | 00:00:00 | |
| PETON7-10 | 2026-09-06 00:35:38 | 50.43183 | 18.42484 | 84° | 22km/h | 25739m | 8.6m/s | 0°C | 0% | 0hPa | 0V | 00:00:00 | 00:00:00 | 00:00:00 | |
| HA6NAB-11 | 2026-09-06 00:35:33 | 50.43191 | 18.42435 | 64° | 18km/h | 25697m | 1.8m/s | 0°C | 0% | 0hPa | 0V | 00:00:00 | 00:00:00 | 00:00:00 | |
| OE5DRO-10 | 2026-09-06 00:35:32 | 50.43188 | 18.42428 | 133° | 22km/h | 25688m | -5.6m/s | 0°C | 0% | 0hPa | 0V | 00:00:00 | 00:00:00 | 00:00:00 | |
| HA6NAB-11 | 2026-09-06 00:35:28 | 50.43196 | 18.42394 | 90° | 29km/h | 25691m | 5.1m/s | 0°C | 0% | 0hPa | 0V | 00:00:00 | 00:00:00 | 00:00:00 | |
| PETON7-10 | 2026-09-06 00:35:23 | 50.43195 | 18.42357 | 117° | 24km/h | 25660m | 5.3m/s | 0°C | 0% | 0hPa | 0V | 00:00:00 | 00:00:00 | 00:00:00 | |
| HA6NAB-11 | 2026-09-06 00:35:22 | 50.43197 | 18.42347 | 105° | 27km/h | 25655m | 5.7m/s | 0°C | 0% | 0hPa | 0V | 00:00:00 | 00:00:00 | 00:00:00 | |
| OE5DRO-10 | 2026-09-06 00:35:13 | 50.43180 | 18.42284 | 60° | 22km/h | 25597m | 6.6m/s | 0°C | 0% | 0hPa | 0V | 00:00:00 | 00:00:00 | 00:00:00 | |
| PETON7-10 | 2026-09-06 00:35:08 | 50.43170 | 18.42243 | 25° | 22km/h | 25563m | 4.6m/s | 0°C | 0% | 0hPa | 0V | 00:00:00 | 00:00:00 | 00:00:00 | |
| SP3BTT-10 | 2026-09-06 00:35:04 | 50.43162 | 18.42224 | 98° | 26km/h | 25536m | 4.9m/s | 0°C | 0% | 0hPa | 0V | 00:00:00 | 00:00:00 | 00:00:00 | |
| OE5DRO-10 | 2026-09-06 00:34:53 | 50.43157 | 18.42149 | 40° | 16km/h | 25478m | 4.9m/s | 0°C | 0% | 0hPa | 0V | 00:00:00 | 00:00:00 | 00:00:00 | |
| PETON7-10 | 2026-09-06 00:34:52 | 50.43155 | 18.42145 | 34° | 16km/h | 25471m | 6.8m/s | 0°C | 0% | 0hPa | 0V | 00:00:00 | 00:00:00 | 00:00:00 | |
| PETON7-10 | 2026-09-06 00:34:36 | 50.43135 | 18.42066 | 72° | 16km/h | 25375m | 9.9m/s | 0°C | 0% | 0hPa | 0V | 00:00:00 | 00:00:00 | 00:00:00 | |
| OE5MMP-10 | 2026-09-06 00:34:35 | 50.43134 | 18.42061 | 80° | 13km/h | 25367m | 7.7m/s | 0°C | 0% | 0hPa | 0V | 00:00:00 | 00:00:00 | 00:00:00 | |
| OE5DRO-10 | 2026-09-06 00:34:34 | 50.43134 | 18.42058 | 120° | 18km/h | 25360m | 7.1m/s | 0°C | 0% | 0hPa | 0V | 00:00:00 | 00:00:00 | 00:00:00 | |
| POL1PZ | 2026-09-06 00:34:26 | 50.43134 | 18.42042 | 120° | 5km/h | 25311m | 7.9m/s | 0°C | 0% | 0hPa | 0V | 00:00:00 | 00:00:00 | 00:00:00 | |
| OE5MMP-10 | 2026-09-06 00:34:25 | 50.43136 | 18.42038 | 169° | 24km/h | 25303m | 6.0m/s | 0°C | 0% | 0hPa | 0V | 00:00:00 | 00:00:00 | 00:00:00 | |
| PETON7-10 | 2026-09-06 00:34:21 | 50.43150 | 18.42021 | 71° | 22km/h | 25282m | 3.4m/s | 0°C | 0% | 0hPa | 0V | 00:00:00 | 00:00:00 | 00:00:00 | |
| OE5DRO-10 | 2026-09-06 00:34:15 | 50.43167 | 18.41987 | 105° | 26km/h | 25246m | 3.4m/s | 0°C | 0% | 0hPa | 0V | 00:00:00 | 00:00:00 | 00:00:00 | |
| OE5MMP-10 | 2026-09-06 00:34:13 | 50.43169 | 18.41973 | 115° | 22km/h | 25234m | 5.1m/s | 0°C | 0% | 0hPa | 0V | 00:00:00 | 00:00:00 | 00:00:00 | |
| PETON7-10 | 2026-09-06 00:34:06 | 50.43194 | 18.41927 | 178° | 26km/h | 25194m | 1.2m/s | 0°C | 0% | 0hPa | 0V | 00:00:00 | 00:00:00 | 00:00:00 | |
| SP3BTT-10 | 2026-09-06 00:34:01 | 50.43199 | 18.41875 | 167° | 26km/h | 25171m | -0.3m/s | 0°C | 0% | 0hPa | 0V | 00:00:00 | 00:00:00 | 00:00:00 | |
| PETON7-10 | 2026-09-06 00:33:51 | 50.43236 | 18.41793 | 134° | 33km/h | 25109m | 3.8m/s | 0°C | 0% | 0hPa | 0V | 00:00:00 | 00:00:00 | 00:00:00 | |
| POL1PZ | 2026-09-06 00:33:44 | 50.43244 | 18.41722 | 126° | 29km/h | 25075m | 2.8m/s | 0°C | 0% | 0hPa | 0V | 00:00:00 | 00:00:00 | 00:00:00 | |
| PETON7-10 | 2026-09-06 00:33:36 | 50.43231 | 18.41643 | 93° | 26km/h | 25033m | 5.3m/s | 0°C | 0% | 0hPa | 0V | 00:00:00 | 00:00:00 | 00:00:00 | |
| OE5DRO-10 | 2026-09-06 00:33:34 | 50.43228 | 18.41611 | 76° | 29km/h | 25021m | 3.5m/s | 0°C | 0% | 0hPa | 0V | 00:00:00 | 00:00:00 | 00:00:00 | |
| PETON7-10 | 2026-09-06 00:33:21 | 50.43176 | 18.41506 | 58° | 27km/h | 24952m | 4.3m/s | 0°C | 0% | 0hPa | 0V | 00:00:00 | 00:00:00 | 00:00:00 | |
| POL1PZ | 2026-09-06 00:33:20 | 50.43172 | 18.41496 | 52° | 24km/h | 24948m | 5.8m/s | 0°C | 0% | 0hPa | 0V | 00:00:00 | 00:00:00 | 00:00:00 | |
| SP3BTT-10 | 2026-09-06 00:33:16 | 50.43157 | 18.41489 | 28° | 24km/h | 24919m | 6.4m/s | 0°C | 0% | 0hPa | 0V | 00:00:00 | 00:00:00 | 00:00:00 | |
| OE5DRO-10 | 2026-09-06 00:33:15 | 50.43149 | 18.41480 | 49° | 31km/h | 24911m | 7.8m/s | 0°C | 0% | 0hPa | 0V | 00:00:00 | 00:00:00 | 00:00:00 | |
| PETON7-10 | 2026-09-06 00:33:05 | 50.43089 | 18.41434 | 30° | 26km/h | 24855m | 2.6m/s | 0°C | 0% | 0hPa | 0V | 00:00:00 | 00:00:00 | 00:00:00 | |
| OE5DRO-10 | 2026-09-06 00:32:56 | 50.43039 | 18.41408 | 48° | 16km/h | 24811m | 4.3m/s | 0°C | 0% | 0hPa | 0V | 00:00:00 | 00:00:00 | 00:00:00 | |
| POL1PZ | 2026-09-06 00:32:51 | 50.43034 | 18.41375 | 321° | 16km/h | 24787m | 7.1m/s | 0°C | 0% | 0hPa | 0V | 00:00:00 | 00:00:00 | 00:00:00 | |
| PETON7-10 | 2026-09-06 00:32:49 | 50.43020 | 18.41374 | 20° | 16km/h | 24779m | 3.1m/s | 0°C | 0% | 0hPa | 0V | 00:00:00 | 00:00:00 | 00:00:00 | |
| PETON7-10 | 2026-09-06 00:32:30 | 50.42965 | 18.41342 | 4° | 20km/h | 24666m | 18.4m/s | 0°C | 0% | 0hPa | 0V | 00:00:00 | 00:00:00 | 00:00:00 | |
| POL1PZ | 2026-09-06 00:32:25 | 50.42945 | 18.41340 | 92° | 18km/h | 24620m | 4.8m/s | 0°C | 0% | 0hPa | 0V | 00:00:00 | 00:00:00 | 00:00:00 | |
| OE5DRO-10 | 2026-09-06 00:32:21 | 50.42939 | 18.41323 | 353° | 18km/h | 24595m | 5.7m/s | 0°C | 0% | 0hPa | 0V | 00:00:00 | 00:00:00 | 00:00:00 | |
| OE5MMP-10 | 2026-09-06 00:32:17 | 50.42918 | 18.41306 | 87° | 18km/h | 24568m | 4.3m/s | 0°C | 0% | 0hPa | 0V | 00:00:00 | 00:00:00 | 00:00:00 | |
| PETON7-10 | 2026-09-06 00:32:15 | 50.42915 | 18.41299 | 348° | 18km/h | 24544m | 4.4m/s | 0°C | 0% | 0hPa | 0V | 00:00:00 | 00:00:00 | 00:00:00 | |
| OE5MMP-10 | 2026-09-06 00:32:06 | 50.42872 | 18.41301 | 342° | 24km/h | 24516m | 4.5m/s | 0°C | 0% | 0hPa | 0V | 00:00:00 | 00:00:00 | 00:00:00 | |
| POL1PZ | 2026-09-06 00:32:04 | 50.42864 | 18.41303 | 349° | 22km/h | 24509m | 5.3m/s | 0°C | 0% | 0hPa | 0V | 00:00:00 | 00:00:00 | 00:00:00 | |
| OE5DRO-10 | 2026-09-06 00:32:00 | 50.42838 | 18.41312 | 1° | 16km/h | 24483m | 7.7m/s | 0°C | 0% | 0hPa | 0V | 00:00:00 | 00:00:00 | 00:00:00 | |
| PETON7-10 | 2026-09-06 00:31:57 | 50.42838 | 18.41303 | 205° | 22km/h | 24461m | 5.3m/s | 0°C | 0% | 0hPa | 0V | 00:00:00 | 00:00:00 | 00:00:00 | |
| OE5MMP-10 | 2026-09-06 00:31:53 | 50.42810 | 18.41324 | 347° | 26km/h | 24433m | 5.0m/s | 0°C | 0% | 0hPa | 0V | 00:00:00 | 00:00:00 | 00:00:00 | |
| PETON7-10 | 2026-09-06 00:31:42 | 50.42776 | 18.41350 | 309° | 16km/h | 24350m | 4.2m/s | 0°C | 0% | 0hPa | 0V | 00:00:00 | 00:00:00 | 00:00:00 | |
| OE5DRO-10 | 2026-09-06 00:31:37 | 50.42773 | 18.41362 | 307° | 18km/h | 24300m | -4.0m/s | 0°C | 0% | 0hPa | 0V | 00:00:00 | 00:00:00 | 00:00:00 | |
| PG1ADW-2 | 2026-09-06 00:31:33 | 50.42758 | 18.41387 | 305° | 26km/h | 24310m | 2.8m/s | 0°C | 0% | 0hPa | 0V | 00:00:00 | 00:00:00 | 00:00:00 | |
| POL1PZ | 2026-09-06 00:31:28 | 50.42760 | 18.41412 | 313° | 5km/h | 24279m | 4.2m/s | 0°C | 0% | 0hPa | 0V | 00:00:00 | 00:00:00 | 00:00:00 | |
| PETON7-10 | 2026-09-06 00:31:26 | 50.42758 | 18.41410 | 310° | 16km/h | 24270m | 2.9m/s | 0°C | 0% | 0hPa | 0V | 00:00:00 | 00:00:00 | 00:00:00 | |
| OE5DRO-10 | 2026-09-06 00:31:16 | 50.42751 | 18.41474 | 309° | 18km/h | 24220m | 4.5m/s | 0°C | 0% | 0hPa | 0V | 00:00:00 | 00:00:00 | 00:00:00 | |
| PETON7-10 | 2026-09-06 00:31:10 | 50.42758 | 18.41501 | 294° | 16km/h | 24186m | 5.0m/s | 0°C | 0% | 0hPa | 0V | 00:00:00 | 00:00:00 | 00:00:00 | |
| POL1PZ | 2026-09-06 00:31:08 | 50.42757 | 18.41504 | 0° | 0km/h | 24174m | 6.1m/s | 0°C | 0% | 0hPa | 0V | 00:00:00 | 00:00:00 | 00:00:00 | |
| SP3BTT-10 | 2026-09-06 00:31:02 | 50.42775 | 18.41524 | 239° | 16km/h | 24145m | 3.4m/s | 0°C | 0% | 0hPa | 0V | 00:00:00 | 00:00:00 | 00:00:00 | |
| OE5DRO-10 | 2026-09-06 00:30:57 | 50.42793 | 18.41525 | 236° | 13km/h | 24112m | 5.4m/s | 0°C | 0% | 0hPa | 0V | 00:00:00 | 00:00:00 | 00:00:00 | |
| PETON7-10 | 2026-09-06 00:30:55 | 50.42800 | 18.41536 | 212° | 15km/h | 24101m | 3.4m/s | 0°C | 0% | 0hPa | 0V | 00:00:00 | 00:00:00 | 00:00:00 | |
| PETON7-10 | 2026-09-06 00:30:38 | 50.42850 | 18.41530 | 204° | 18km/h | 24007m | 5.3m/s | 0°C | 0% | 0hPa | 0V | 00:00:00 | 00:00:00 | 00:00:00 | |
| PETON7-10 | 2026-09-06 00:30:21 | 50.42894 | 18.41460 | 149° | 18km/h | 23917m | 5.1m/s | 0°C | 0% | 0hPa | 0V | 00:00:00 | 00:00:00 | 00:00:00 | |
| OE5DRO-10 | 2026-09-06 00:30:18 | 50.42903 | 18.41451 | 126° | 18km/h | 23900m | 3.9m/s | 0°C | 0% | 0hPa | 0V | 00:00:00 | 00:00:00 | 00:00:00 | |
| SP3BTT-10 | 2026-09-06 00:30:17 | 50.42915 | 18.41442 | 186° | 26km/h | 23881m | 5.4m/s | 0°C | 0% | 0hPa | 0V | 00:00:00 | 00:00:00 | 00:00:00 | |
| PETON7-10 | 2026-09-06 00:30:04 | 50.42947 | 18.41435 | 147° | 22km/h | 23818m | 5.2m/s | 0°C | 0% | 0hPa | 0V | 00:00:00 | 00:00:00 | 00:00:00 | |
| OE5DRO-10 | 2026-09-06 00:29:58 | 50.42968 | 18.41427 | 169° | 24km/h | 23785m | 5.9m/s | 0°C | 0% | 0hPa | 0V | 00:00:00 | 00:00:00 | 00:00:00 | |
| PETON7-10 | 2026-09-06 00:29:48 | 50.43014 | 18.41403 | 171° | 15km/h | 23727m | 6.7m/s | 0°C | 0% | 0hPa | 0V | 00:00:00 | 00:00:00 | 00:00:00 | |
| POL1PZ | 2026-09-06 00:29:36 | 50.43065 | 18.41349 | 126° | 20km/h | 23648m | 7.6m/s | 0°C | 0% | 0hPa | 0V | 00:00:00 | 00:00:00 | 00:00:00 | |
| OE5DRO-10 | 2026-09-06 00:29:35 | 50.43067 | 18.41342 | 97° | 27km/h | 23641m | 4.0m/s | 0°C | 0% | 0hPa | 0V | 00:00:00 | 00:00:00 | 00:00:00 | |
| PETON7-10 | 2026-09-06 00:29:33 | 50.43070 | 18.41329 | 128° | 26km/h | 23629m | 5.4m/s | 0°C | 0% | 0hPa | 0V | 00:00:00 | 00:00:00 | 00:00:00 | |
| PETON7-10 | 2026-09-06 00:29:18 | 50.43137 | 18.41205 | 65° | 22km/h | 23547m | 6.5m/s | 0°C | 0% | 0hPa | 0V | 00:00:00 | 00:00:00 | 00:00:00 | |
| SP3BTT-10 | 2026-09-06 00:29:14 | 50.43134 | 18.41164 | 110° | 16km/h | 23532m | 8.3m/s | 0°C | 0% | 0hPa | 0V | 00:00:00 | 00:00:00 | 00:00:00 | |
| OE5DRO-10 | 2026-09-06 00:29:13 | 50.43137 | 18.41159 | 173° | 18km/h | 23523m | 6.0m/s | 0°C | 0% | 0hPa | 0V | 00:00:00 | 00:00:00 | 00:00:00 | |
| POL1PZ | 2026-09-06 00:29:11 | 50.43143 | 18.41160 | 170° | 13km/h | 23513m | 5.7m/s | 0°C | 0% | 0hPa | 0V | 00:00:00 | 00:00:00 | 00:00:00 | |
| PETON7-10 | 2026-09-06 00:29:01 | 50.43147 | 18.41083 | 67° | 11km/h | 23456m | 8.2m/s | 0°C | 0% | 0hPa | 0V | 00:00:00 | 00:00:00 | 00:00:00 | |
| OE5DRO-10 | 2026-09-06 00:28:52 | 50.43143 | 18.41046 | 350° | 13km/h | 23397m | 6.0m/s | 0°C | 0% | 0hPa | 0V | 00:00:00 | 00:00:00 | 00:00:00 | |
| POL1PZ | 2026-09-06 00:28:47 | 50.43147 | 18.41031 | 104° | 16km/h | 23373m | 5.2m/s | 0°C | 0% | 0hPa | 0V | 00:00:00 | 00:00:00 | 00:00:00 | |
| PETON7-10 | 2026-09-06 00:28:46 | 50.43147 | 18.41023 | 72° | 13km/h | 23368m | 5.3m/s | 0°C | 0% | 0hPa | 0V | 00:00:00 | 00:00:00 | 00:00:00 | |
| OE5DRO-10 | 2026-09-06 00:28:33 | 50.43151 | 18.41005 | 161° | 16km/h | 23294m | 4.8m/s | 0°C | 0% | 0hPa | 0V | 00:00:00 | 00:00:00 | 00:00:00 | |
| PETON7-10 | 2026-09-06 00:28:31 | 50.43154 | 18.41002 | 137° | 18km/h | 23283m | 5.2m/s | 0°C | 0% | 0hPa | 0V | 00:00:00 | 00:00:00 | 00:00:00 | |
| POL1PZ | 2026-09-06 00:28:25 | 50.43178 | 18.40984 | 191° | 16km/h | 23249m | 5.6m/s | 0°C | 0% | 0hPa | 0V | 00:00:00 | 00:00:00 | 00:00:00 | |
| PETON7-10 | 2026-09-06 00:28:14 | 50.43220 | 18.40966 | 128° | 26km/h | 23182m | 6.0m/s | 0°C | 0% | 0hPa | 0V | 00:00:00 | 00:00:00 | 00:00:00 | |
| SP3BTT-10 | 2026-09-06 00:28:13 | 50.43223 | 18.40963 | 150° | 29km/h | 23177m | 4.8m/s | 0°C | 0% | 0hPa | 0V | 00:00:00 | 00:00:00 | 00:00:00 | |
| OE5DRO-10 | 2026-09-06 00:28:10 | 50.43244 | 18.40967 | 161° | 29km/h | 23163m | 6.9m/s | 0°C | 0% | 0hPa | 0V | 00:00:00 | 00:00:00 | 00:00:00 | |
| POL1PZ | 2026-09-06 00:28:03 | 50.43284 | 18.40927 | 151° | 27km/h | 23116m | 7.9m/s | 0°C | 0% | 0hPa | 0V | 00:00:00 | 00:00:00 | 00:00:00 | |
| PETON7-10 | 2026-09-06 00:27:59 | 50.43311 | 18.40905 | 152° | 35km/h | 23093m | 4.1m/s | 0°C | 0% | 0hPa | 0V | 00:00:00 | 00:00:00 | 00:00:00 | |
| OE5DRO-10 | 2026-09-06 00:27:51 | 50.43368 | 18.40863 | 137° | 40km/h | 23045m | 8.2m/s | 0°C | 0% | 0hPa | 0V | 00:00:00 | 00:00:00 | 00:00:00 | |
| PETON7-10 | 2026-09-06 00:27:44 | 50.43424 | 18.40819 | 142° | 38km/h | 23004m | 4.6m/s | 0°C | 0% | 0hPa | 0V | 00:00:00 | 00:00:00 | 00:00:00 | |
| POL1PZ | 2026-09-06 00:27:42 | 50.43440 | 18.40797 | 138° | 51km/h | 22992m | 6.2m/s | 0°C | 0% | 0hPa | 0V | 00:00:00 | 00:00:00 | 00:00:00 | |
| OE5DRO-10 | 2026-09-06 00:27:31 | 50.43519 | 18.40695 | 150° | 29km/h | 22928m | 6.1m/s | 0°C | 0% | 0hPa | 0V | 00:00:00 | 00:00:00 | 00:00:00 | |
| PETON7-10 | 2026-09-06 00:27:29 | 50.43537 | 18.40681 | 157° | 29km/h | 22915m | 3.1m/s | 0°C | 0% | 0hPa | 0V | 00:00:00 | 00:00:00 | 00:00:00 | |
| POL1PZ | 2026-09-06 00:27:19 | 50.43593 | 18.40607 | 118° | 20km/h | 22865m | 5.4m/s | 0°C | 0% | 0hPa | 0V | 00:00:00 | 00:00:00 | 00:00:00 | |
| PETON7-10 | 2026-09-06 00:27:14 | 50.43622 | 18.40570 | 167° | 27km/h | 22838m | 4.3m/s | 0°C | 0% | 0hPa | 0V | 00:00:00 | 00:00:00 | 00:00:00 | |
| OE5DRO-10 | 2026-09-06 00:27:12 | 50.43634 | 18.40561 | 147° | 20km/h | 22826m | 7.6m/s | 0°C | 0% | 0hPa | 0V | 00:00:00 | 00:00:00 | 00:00:00 | |
| PETON7-10 | 2026-09-06 00:26:59 | 50.43687 | 18.40451 | 118° | 29km/h | 22744m | 4.6m/s | 0°C | 0% | 0hPa | 0V | 00:00:00 | 00:00:00 | 00:00:00 | |
| POL1PZ | 2026-09-06 00:26:52 | 50.43719 | 18.40392 | 107° | 26km/h | 22707m | 5.0m/s | 0°C | 0% | 0hPa | 0V | 00:00:00 | 00:00:00 | 00:00:00 | |
| PETON7-10 | 2026-09-06 00:26:44 | 50.43753 | 18.40317 | 109° | 27km/h | 22668m | 3.4m/s | 0°C | 0% | 0hPa | 0V | 00:00:00 | 00:00:00 | 00:00:00 | |
| POL1PZ | 2026-09-06 00:26:31 | 50.43789 | 18.40228 | 127° | 13km/h | 22607m | 4.7m/s | 0°C | 0% | 0hPa | 0V | 00:00:00 | 00:00:00 | 00:00:00 | |
| PETON7-10 | 2026-09-06 00:26:26 | 50.43815 | 18.40175 | 180° | 15km/h | 22581m | 5.7m/s | 0°C | 0% | 0hPa | 0V | 00:00:00 | 00:00:00 | 00:00:00 | |
| SP3BTT-10 | 2026-09-06 00:26:14 | 50.43854 | 18.40145 | 249° | 24km/h | 22509m | 1.7m/s | 0°C | 0% | 0hPa | 0V | 00:00:00 | 00:00:00 | 00:00:00 | |
| PETON7-10 | 2026-09-06 00:26:11 | 50.43861 | 18.40134 | 124° | 18km/h | 22491m | 4.8m/s | 0°C | 0% | 0hPa | 0V | 00:00:00 | 00:00:00 | 00:00:00 | |
| POL1PZ | 2026-09-06 00:26:02 | 50.43903 | 18.40096 | 172° | 22km/h | 22436m | 3.0m/s | 0°C | 0% | 0hPa | 0V | 00:00:00 | 00:00:00 | 00:00:00 | |
| PETON7-10 | 2026-09-06 00:25:54 | 50.43928 | 18.40077 | 147° | 20km/h | 22394m | 5.0m/s | 0°C | 0% | 0hPa | 0V | 00:00:00 | 00:00:00 | 00:00:00 | |
| PETON7-10 | 2026-09-06 00:25:39 | 50.43992 | 18.40038 | 168° | 24km/h | 22317m | 6.5m/s | 0°C | 0% | 0hPa | 0V | 00:00:00 | 00:00:00 | 00:00:00 | |
| PETON7-10 | 2026-09-06 00:25:24 | 50.44067 | 18.39959 | 121° | 31km/h | 22239m | 4.2m/s | 0°C | 0% | 0hPa | 0V | 00:00:00 | 00:00:00 | 00:00:00 | |
| POL1PZ | 2026-09-06 00:25:18 | 50.44094 | 18.39926 | 126° | 31km/h | 22210m | 6.8m/s | 0°C | 0% | 0hPa | 0V | 00:00:00 | 00:00:00 | 00:00:00 | |
| SP3BTT-10 | 2026-09-06 00:25:13 | 50.44108 | 18.39879 | 132° | 33km/h | 22187m | 5.7m/s | 0°C | 0% | 0hPa | 0V | 00:00:00 | 00:00:00 | 00:00:00 | |
| PETON7-10 | 2026-09-06 00:25:08 | 50.44134 | 18.39834 | 103° | 35km/h | 22162m | 6.1m/s | 0°C | 0% | 0hPa | 0V | 00:00:00 | 00:00:00 | 00:00:00 | |
| POL1PZ | 2026-09-06 00:24:54 | 50.44169 | 18.39659 | 110° | 49km/h | 22092m | 4.3m/s | 0°C | 0% | 0hPa | 0V | 00:00:00 | 00:00:00 | 00:00:00 | |
| PETON7-10 | 2026-09-06 00:24:51 | 50.44182 | 18.39618 | 118° | 33km/h | 22082m | 3.5m/s | 0°C | 0% | 0hPa | 0V | 00:00:00 | 00:00:00 | 00:00:00 | |
| POL1PZ | 2026-09-06 00:24:33 | 50.44214 | 18.39398 | 129° | 37km/h | 21986m | 3.2m/s | 0°C | 0% | 0hPa | 0V | 00:00:00 | 00:00:00 | 00:00:00 | |
| PETON7-10 | 2026-09-06 00:24:32 | 50.44220 | 18.39387 | 117° | 29km/h | 21982m | 5.0m/s | 0°C | 0% | 0hPa | 0V | 00:00:00 | 00:00:00 | 00:00:00 | |
| PETON7-10 | 2026-09-06 00:24:17 | 50.44243 | 18.39229 | 63° | 37km/h | 21906m | 4.5m/s | 0°C | 0% | 0hPa | 0V | 00:00:00 | 00:00:00 | 00:00:00 | |
| SP3BTT-10 | 2026-09-06 00:24:12 | 50.44268 | 18.39184 | 122° | 35km/h | 21882m | 4.6m/s | 0°C | 0% | 0hPa | 0V | 00:00:00 | 00:00:00 | 00:00:00 | |
| PETON7-10 | 2026-09-06 00:24:01 | 50.44311 | 18.39045 | 104° | 35km/h | 21830m | 6.2m/s | 0°C | 0% | 0hPa | 0V | 00:00:00 | 00:00:00 | 00:00:00 | |
| POL1PZ | 2026-09-06 00:23:50 | 50.44330 | 18.38918 | 72° | 27km/h | 21768m | 5.8m/s | 0°C | 0% | 0hPa | 0V | 00:00:00 | 00:00:00 | 00:00:00 | |
| PETON7-10 | 2026-09-06 00:23:45 | 50.44335 | 18.38847 | 103° | 31km/h | 21742m | 4.6m/s | 0°C | 0% | 0hPa | 0V | 00:00:00 | 00:00:00 | 00:00:00 | |
| PETON7-10 | 2026-09-06 00:23:29 | 50.44318 | 18.38661 | 93° | 35km/h | 21652m | 4.8m/s | 0°C | 0% | 0hPa | 0V | 00:00:00 | 00:00:00 | 00:00:00 | |
| PETON7-10 | 2026-09-06 00:23:14 | 50.44286 | 18.38469 | 73° | 29km/h | 21566m | 4.3m/s | 0°C | 0% | 0hPa | 0V | 00:00:00 | 00:00:00 | 00:00:00 | |
| SP3BTT-10 | 2026-09-06 00:23:12 | 50.44279 | 18.38443 | 75° | 27km/h | 21558m | 6.9m/s | 0°C | 0% | 0hPa | 0V | 00:00:00 | 00:00:00 | 00:00:00 | |
| POL1PZ | 2026-09-06 00:23:08 | 50.44270 | 18.38414 | 49° | 26km/h | 21541m | 4.4m/s | 0°C | 0% | 0hPa | 0V | 00:00:00 | 00:00:00 | 00:00:00 | |
| POL1PZ | 2026-09-06 00:22:45 | 50.44257 | 18.38186 | 56° | 20km/h | 21410m | 2.7m/s | 0°C | 0% | 0hPa | 0V | 00:00:00 | 00:00:00 | 00:00:00 | |
| PETON7-10 | 2026-09-06 00:22:29 | 50.44280 | 18.38050 | 100° | 33km/h | 21319m | 8.1m/s | 0°C | 0% | 0hPa | 0V | 00:00:00 | 00:00:00 | 00:00:00 | |
| POL1PZ | 2026-09-06 00:22:20 | 50.44300 | 18.37954 | 128° | 26km/h | 21267m | 6.7m/s | 0°C | 0% | 0hPa | 0V | 00:00:00 | 00:00:00 | 00:00:00 | |
| SP3BTT-10 | 2026-09-06 00:22:12 | 50.44331 | 18.37857 | 125° | 33km/h | 21219m | 5.0m/s | 0°C | 0% | 0hPa | 0V | 00:00:00 | 00:00:00 | 00:00:00 | |
| POL1PZ | 2026-09-06 00:22:00 | 50.44381 | 18.37699 | 116° | 47km/h | 21160m | 7.2m/s | 0°C | 0% | 0hPa | 0V | 00:00:00 | 00:00:00 | 00:00:00 | |
| PETON7-10 | 2026-09-06 00:21:44 | 50.44434 | 18.37490 | 116° | 38km/h | 21070m | 3.5m/s | 0°C | 0% | 0hPa | 0V | 00:00:00 | 00:00:00 | 00:00:00 | |
| POL1PZ | 2026-09-06 00:21:39 | 50.44443 | 18.37407 | 91° | 33km/h | 21037m | 5.2m/s | 0°C | 0% | 0hPa | 0V | 00:00:00 | 00:00:00 | 00:00:00 | |
| PETON7-10 | 2026-09-06 00:21:26 | 50.44446 | 18.37232 | 108° | 31km/h | 20971m | 3.6m/s | 0°C | 0% | 0hPa | 0V | 00:00:00 | 00:00:00 | 00:00:00 | |
| POL1PZ | 2026-09-06 00:21:19 | 50.44440 | 18.37140 | 73° | 33km/h | 20942m | 5.4m/s | 0°C | 0% | 0hPa | 0V | 00:00:00 | 00:00:00 | 00:00:00 | |
| SP3BTT-10 | 2026-09-06 00:21:11 | 50.44434 | 18.37043 | 52° | 22km/h | 20898m | 3.8m/s | 0°C | 0% | 0hPa | 0V | 00:00:00 | 00:00:00 | 00:00:00 | |
| PETON7-10 | 2026-09-06 00:21:09 | 50.44430 | 18.37026 | 85° | 33km/h | 20889m | 5.8m/s | 0°C | 0% | 0hPa | 0V | 00:00:00 | 00:00:00 | 00:00:00 | |
| POL1PZ | 2026-09-06 00:20:57 | 50.44416 | 18.36898 | 103° | 31km/h | 20816m | 2.4m/s | 0°C | 0% | 0hPa | 0V | 00:00:00 | 00:00:00 | 00:00:00 | |
| PETON7-10 | 2026-09-06 00:20:54 | 50.44410 | 18.36859 | 49° | 29km/h | 20803m | 2.1m/s | 0°C | 0% | 0hPa | 0V | 00:00:00 | 00:00:00 | 00:00:00 | |
| OE5DRO-10 | 2026-09-06 00:20:43 | 50.44364 | 18.36767 | 50° | 33km/h | 20753m | 4.0m/s | 0°C | 0% | 0hPa | 0V | 00:00:00 | 00:00:00 | 00:00:00 | |
| PETON7-10 | 2026-09-06 00:20:39 | 50.44350 | 18.36732 | 79° | 27km/h | 20733m | 5.8m/s | 0°C | 0% | 0hPa | 0V | 00:00:00 | 00:00:00 | 00:00:00 | |
| POL1PZ | 2026-09-06 00:20:36 | 50.44342 | 18.36712 | 27° | 20km/h | 20715m | 7.1m/s | 0°C | 0% | 0hPa | 0V | 00:00:00 | 00:00:00 | 00:00:00 | |
| PETON7-10 | 2026-09-06 00:20:23 | 50.44281 | 18.36613 | 64° | 20km/h | 20649m | 5.1m/s | 0°C | 0% | 0hPa | 0V | 00:00:00 | 00:00:00 | 00:00:00 | |
| OE5DRO-10 | 2026-09-06 00:20:21 | 50.44281 | 18.36603 | 115° | 18km/h | 20637m | 4.0m/s | 0°C | 0% | 0hPa | 0V | 00:00:00 | 00:00:00 | 00:00:00 | |
| POL1PZ | 2026-09-06 00:20:09 | 50.44254 | 18.36537 | 90° | 16km/h | 20575m | 2.0m/s | 0°C | 0% | 0hPa | 0V | 00:00:00 | 00:00:00 | 00:00:00 | |
| PETON7-10 | 2026-09-06 00:20:06 | 50.44247 | 18.36511 | 57° | 20km/h | 20562m | 5.2m/s | 0°C | 0% | 0hPa | 0V | 00:00:00 | 00:00:00 | 00:00:00 | |
| OE5DRO-10 | 2026-09-06 00:19:55 | 50.44248 | 18.36435 | 78° | 16km/h | 20499m | 5.7m/s | 0°C | 0% | 0hPa | 0V | 00:00:00 | 00:00:00 | 00:00:00 | |
| PETON7-10 | 2026-09-06 00:19:51 | 50.44246 | 18.36395 | 90° | 18km/h | 20478m | 5.0m/s | 0°C | 0% | 0hPa | 0V | 00:00:00 | 00:00:00 | 00:00:00 | |
| POL1PZ | 2026-09-06 00:19:44 | 50.44243 | 18.36347 | 82° | 15km/h | 20444m | 7.9m/s | 0°C | 0% | 0hPa | 0V | 00:00:00 | 00:00:00 | 00:00:00 | |
| PETON7-10 | 2026-09-06 00:19:36 | 50.44237 | 18.36294 | 123° | 20km/h | 20399m | 3.1m/s | 0°C | 0% | 0hPa | 0V | 00:00:00 | 00:00:00 | 00:00:00 | |
| OE5DRO-10 | 2026-09-06 00:19:33 | 50.44238 | 18.36278 | 74° | 16km/h | 20385m | 5.8m/s | 0°C | 0% | 0hPa | 0V | 00:00:00 | 00:00:00 | 00:00:00 | |
| POL1PZ | 2026-09-06 00:19:23 | 50.44226 | 18.36199 | 86° | 24km/h | 20329m | 6.9m/s | 0°C | 0% | 0hPa | 0V | 00:00:00 | 00:00:00 | 00:00:00 | |
| OE5DRO-10 | 2026-09-06 00:19:14 | 50.44245 | 18.36127 | 102° | 24km/h | 20283m | 6.0m/s | 0°C | 0% | 0hPa | 0V | 00:00:00 | 00:00:00 | 00:00:00 | |
| PETON7-10 | 2026-09-06 00:19:04 | 50.44284 | 18.36063 | 121° | 24km/h | 20226m | 3.3m/s | 0°C | 0% | 0hPa | 0V | 00:00:00 | 00:00:00 | 00:00:00 | |
| POL1PZ | 2026-09-06 00:19:03 | 50.44288 | 18.36053 | 130° | 20km/h | 20222m | 4.6m/s | 0°C | 0% | 0hPa | 0V | 00:00:00 | 00:00:00 | 00:00:00 | |
| PETON7-10 | 2026-09-06 00:18:47 | 50.44347 | 18.35974 | 120° | 26km/h | 20146m | 4.1m/s | 0°C | 0% | 0hPa | 0V | 00:00:00 | 00:00:00 | 00:00:00 | |
| SP3BTT-10 | 2026-09-06 00:18:43 | 50.44364 | 18.35949 | 175° | 31km/h | 20126m | 4.5m/s | 0°C | 0% | 0hPa | 0V | 00:00:00 | 00:00:00 | 00:00:00 | |
| POL1PZ | 2026-09-06 00:18:42 | 50.44369 | 18.35947 | 173° | 20km/h | 20122m | 5.8m/s | 0°C | 0% | 0hPa | 0V | 00:00:00 | 00:00:00 | 00:00:00 | |
| PETON7-10 | 2026-09-06 00:18:32 | 50.44407 | 18.35896 | 197° | 24km/h | 20063m | 5.1m/s | 0°C | 0% | 0hPa | 0V | 00:00:00 | 00:00:00 | 00:00:00 | |
| POL1PZ | 2026-09-06 00:18:20 | 50.44453 | 18.35840 | 88° | 15km/h | 19995m | 6.1m/s | 0°C | 0% | 0hPa | 0V | 00:00:00 | 00:00:00 | 00:00:00 | |
| PETON7-10 | 2026-09-06 00:18:14 | 50.44489 | 18.35807 | 146° | 35km/h | 19967m | 5.5m/s | 0°C | 0% | 0hPa | 0V | 00:00:00 | 00:00:00 | 00:00:00 | |
| PETON7-10 | 2026-09-06 00:17:57 | 50.44588 | 18.35662 | 126° | 44km/h | 19873m | 3.8m/s | 0°C | 0% | 0hPa | 0V | 00:00:00 | 00:00:00 | 00:00:00 | |
| OE3JTB-15 | 2026-09-06 00:17:43 | 50.44679 | 18.35479 | 123° | 38km/h | 19796m | 2.8m/s | 0°C | 0% | 0hPa | 0V | 00:00:00 | 00:00:00 | 00:00:00 | |
| PETON7-10 | 2026-09-06 00:17:40 | 50.44700 | 18.35438 | 133° | 35km/h | 19780m | 5.3m/s | 0°C | 0% | 0hPa | 0V | 00:00:00 | 00:00:00 | 00:00:00 | |
| POL1PZ | 2026-09-06 00:17:36 | 50.44721 | 18.35391 | 115° | 33km/h | 19753m | 6.5m/s | 0°C | 0% | 0hPa | 0V | 00:00:00 | 00:00:00 | 00:00:00 | |
| PETON7-10 | 2026-09-06 00:17:24 | 50.44778 | 18.35226 | 110° | 29km/h | 19678m | 5.1m/s | 0°C | 0% | 0hPa | 0V | 00:00:00 | 00:00:00 | 00:00:00 | |
| POL1PZ | 2026-09-06 00:17:15 | 50.44799 | 18.35115 | 87° | 53km/h | 19624m | -5.1m/s | 0°C | 0% | 0hPa | 0V | 00:00:00 | 00:00:00 | 00:00:00 | |
| OE3JTB-15 | 2026-09-06 00:17:13 | 50.44798 | 18.35080 | 85° | 35km/h | 19629m | 0.5m/s | 0°C | 0% | 0hPa | 0V | 00:00:00 | 00:00:00 | 00:00:00 | |
| POL1PZ | 2026-09-06 00:16:52 | 50.44810 | 18.34852 | 94° | 29km/h | 19527m | 3.4m/s | 0°C | 0% | 0hPa | 0V | 00:00:00 | 00:00:00 | 00:00:00 | |
| POL1PZ | 2026-09-06 00:16:31 | 50.44826 | 18.34628 | 83° | 20km/h | 19426m | 5.0m/s | 0°C | 0% | 0hPa | 0V | 00:00:00 | 00:00:00 | 00:00:00 | |
| PETON7-10 | 2026-09-06 00:16:22 | 50.44836 | 18.34523 | 123° | 26km/h | 19381m | 4.6m/s | 0°C | 0% | 0hPa | 0V | 00:00:00 | 00:00:00 | 00:00:00 | |
| POL1PZ | 2026-09-06 00:16:10 | 50.44845 | 18.34390 | 103° | 29km/h | 19326m | 2.9m/s | 0°C | 0% | 0hPa | 0V | 00:00:00 | 00:00:00 | 00:00:00 | |
| PETON7-10 | 2026-09-06 00:16:04 | 50.44851 | 18.34326 | 104° | 33km/h | 19299m | 4.0m/s | 0°C | 0% | 0hPa | 0V | 00:00:00 | 00:00:00 | 00:00:00 | |
| OE5DRO-10 | 2026-09-06 00:15:51 | 50.44873 | 18.34180 | 93° | 35km/h | 19236m | 0.7m/s | 0°C | 0% | 0hPa | 0V | 00:00:00 | 00:00:00 | 00:00:00 | |
| PETON7-10 | 2026-09-06 00:15:49 | 50.44876 | 18.34150 | 108° | 35km/h | 19230m | 5.1m/s | 0°C | 0% | 0hPa | 0V | 00:00:00 | 00:00:00 | 00:00:00 | |
| PETON7-10 | 2026-09-06 00:15:31 | 50.44923 | 18.33918 | 116° | 46km/h | 19145m | 5.0m/s | 0°C | 0% | 0hPa | 0V | 00:00:00 | 00:00:00 | 00:00:00 | |
| OE5DRO-10 | 2026-09-06 00:15:29 | 50.44928 | 18.33895 | 98° | 42km/h | 19137m | 4.0m/s | 0°C | 0% | 0hPa | 0V | 00:00:00 | 00:00:00 | 00:00:00 | |
| POL1PZ | 2026-09-06 00:15:28 | 50.44930 | 18.33883 | 104° | 33km/h | 19132m | 4.3m/s | 0°C | 0% | 0hPa | 0V | 00:00:00 | 00:00:00 | 00:00:00 | |
| SP3BTT-10 | 2026-09-06 00:15:12 | 50.45018 | 18.33618 | 102° | 51km/h | 19056m | 5.5m/s | 0°C | 0% | 0hPa | 0V | 00:00:00 | 00:00:00 | 00:00:00 | |
| POL1PZ | 2026-09-06 00:15:06 | 50.45047 | 18.33507 | 100° | 53km/h | 19026m | 4.6m/s | 0°C | 0% | 0hPa | 0V | 00:00:00 | 00:00:00 | 00:00:00 | |
| PETON7-10 | 2026-09-06 00:15:01 | 50.45062 | 18.33417 | 109° | 51km/h | 19003m | 5.0m/s | 0°C | 0% | 0hPa | 0V | 00:00:00 | 00:00:00 | 00:00:00 | |
| POL1PZ | 2026-09-06 00:14:45 | 50.45142 | 18.33100 | 113° | 46km/h | 18925m | 6.0m/s | 0°C | 0% | 0hPa | 0V | 00:00:00 | 00:00:00 | 00:00:00 | |
| PETON7-10 | 2026-09-06 00:14:43 | 50.45152 | 18.33064 | 117° | 47km/h | 18916m | 3.1m/s | 0°C | 0% | 0hPa | 0V | 00:00:00 | 00:00:00 | 00:00:00 | |
| PETON7-10 | 2026-09-06 00:14:26 | 50.45252 | 18.32772 | 114° | 51km/h | 18839m | 2.8m/s | 0°C | 0% | 0hPa | 0V | 00:00:00 | 00:00:00 | 00:00:00 | |
| POL1PZ | 2026-09-06 00:14:20 | 50.45296 | 18.32674 | 123° | 44km/h | 18813m | 4.1m/s | 0°C | 0% | 0hPa | 0V | 00:00:00 | 00:00:00 | 00:00:00 | |
| POL1PZ | 2026-09-06 00:13:55 | 50.45487 | 18.32319 | 125° | 51km/h | 18691m | 5.5m/s | 0°C | 0% | 0hPa | 0V | 00:00:00 | 00:00:00 | 00:00:00 | |
| POL1PZ | 2026-09-06 00:13:34 | 50.45643 | 18.31975 | 120° | 58km/h | 18585m | 5.5m/s | 0°C | 0% | 0hPa | 0V | 00:00:00 | 00:00:00 | 00:00:00 | |
| SP3BTT-10 | 2026-09-06 00:13:27 | 50.45689 | 18.31854 | 113° | 57km/h | 18553m | 4.9m/s | 0°C | 0% | 0hPa | 0V | 00:00:00 | 00:00:00 | 00:00:00 | |
| POL1PZ | 2026-09-06 00:13:12 | 50.45758 | 18.31579 | 114° | 47km/h | 18475m | 4.4m/s | 0°C | 0% | 0hPa | 0V | 00:00:00 | 00:00:00 | 00:00:00 | |
| POL1PZ | 2026-09-06 00:12:52 | 50.45829 | 18.31115 | 98° | 55km/h | 18368m | 4.5m/s | 0°C | 0% | 0hPa | 0V | 00:00:00 | 00:00:00 | 00:00:00 | |
| SP3BTT-10 | 2026-09-06 00:12:49 | 50.45834 | 18.31043 | 99° | 55km/h | 18355m | 5.4m/s | 0°C | 0% | 0hPa | 0V | 00:00:00 | 00:00:00 | 00:00:00 | |
| PETON7-10 | 2026-09-06 00:12:42 | 50.45847 | 18.30892 | 87° | 57km/h | 18319m | 4.9m/s | 0°C | 0% | 0hPa | 0V | 00:00:00 | 00:00:00 | 00:00:00 | |
| PETON7-10 | 2026-09-06 00:12:27 | 50.45872 | 18.30606 | 88° | 46km/h | 18242m | 6.4m/s | 0°C | 0% | 0hPa | 0V | 00:00:00 | 00:00:00 | 00:00:00 | |
| PETON7-10 | 2026-09-06 00:12:10 | 50.45905 | 18.30299 | 92° | 46km/h | 18156m | 5.5m/s | 0°C | 0% | 0hPa | 0V | 00:00:00 | 00:00:00 | 00:00:00 | |
| POL1PZ | 2026-09-06 00:11:59 | 50.45931 | 18.30105 | 105° | 33km/h | 18095m | 5.8m/s | 0°C | 0% | 0hPa | 0V | 00:00:00 | 00:00:00 | 00:00:00 | |
| PETON7-10 | 2026-09-06 00:11:53 | 50.45951 | 18.30007 | 100° | 49km/h | 18060m | 5.0m/s | 0°C | 0% | 0hPa | 0V | 00:00:00 | 00:00:00 | 00:00:00 | |
| POL1PZ | 2026-09-06 00:11:37 | 50.46016 | 18.29730 | 110° | 53km/h | 17967m | 5.5m/s | 0°C | 0% | 0hPa | 0V | 00:00:00 | 00:00:00 | 00:00:00 | |
| OE5MMP-10 | 2026-09-06 00:11:20 | 50.46090 | 18.29436 | 121° | 51km/h | 17880m | 3.8m/s | 0°C | 0% | 0hPa | 0V | 00:00:00 | 00:00:00 | 00:00:00 | |
| POL1PZ | 2026-09-06 00:11:17 | 50.46109 | 18.29388 | 119° | 53km/h | 17866m | 4.1m/s | 0°C | 0% | 0hPa | 0V | 00:00:00 | 00:00:00 | 00:00:00 | |
| OE5MMP-10 | 2026-09-06 00:11:08 | 50.46163 | 18.29186 | 110° | 57km/h | 17817m | 3.8m/s | 0°C | 0% | 0hPa | 0V | 00:00:00 | 00:00:00 | 00:00:00 | |
| POL1PZ | 2026-09-06 00:10:57 | 50.46217 | 18.28972 | 109° | 60km/h | 17768m | 4.0m/s | 0°C | 0% | 0hPa | 0V | 00:00:00 | 00:00:00 | 00:00:00 | |
| OE5MMP-10 | 2026-09-06 00:10:50 | 50.46258 | 18.28815 | 107° | 66km/h | 17735m | 6.6m/s | 0°C | 0% | 0hPa | 0V | 00:00:00 | 00:00:00 | 00:00:00 | |
| OE5MMP-10 | 2026-09-06 00:10:35 | 50.46330 | 18.28484 | 108° | 51km/h | 17659m | 5.0m/s | 0°C | 0% | 0hPa | 0V | 00:00:00 | 00:00:00 | 00:00:00 | |
| POL1PZ | 2026-09-06 00:10:34 | 50.46334 | 18.28465 | 110° | 51km/h | 17654m | 6.6m/s | 0°C | 0% | 0hPa | 0V | 00:00:00 | 00:00:00 | 00:00:00 | |
| OE5MMP-10 | 2026-09-06 00:10:25 | 50.46368 | 18.28278 | 108° | 47km/h | 17613m | 4.2m/s | 0°C | 0% | 0hPa | 0V | 00:00:00 | 00:00:00 | 00:00:00 | |
| POL1PZ | 2026-09-06 00:10:14 | 50.46389 | 18.28059 | 107° | 44km/h | 17556m | 4.9m/s | 0°C | 0% | 0hPa | 0V | 00:00:00 | 00:00:00 | 00:00:00 | |
| POL1PZ | 2026-09-06 00:09:52 | 50.46412 | 18.27661 | 106° | 49km/h | 17454m | 2.6m/s | 0°C | 0% | 0hPa | 0V | 00:00:00 | 00:00:00 | 00:00:00 | |
| POL1PZ | 2026-09-06 00:09:31 | 50.46447 | 18.27299 | 104° | 40km/h | 17364m | 4.1m/s | 0°C | 0% | 0hPa | 0V | 00:00:00 | 00:00:00 | 00:00:00 | |
| POL1PZ | 2026-09-06 00:09:10 | 50.46503 | 18.26959 | 113° | 33km/h | 17264m | 3.3m/s | 0°C | 0% | 0hPa | 0V | 00:00:00 | 00:00:00 | 00:00:00 | |
| POL1PZ | 2026-09-06 00:08:49 | 50.46625 | 18.26596 | 120° | 53km/h | 17162m | 3.0m/s | 0°C | 0% | 0hPa | 0V | 00:00:00 | 00:00:00 | 00:00:00 | |
| POL1PZ | 2026-09-06 00:08:26 | 50.46761 | 18.26170 | 118° | 51km/h | 17057m | 3.2m/s | 0°C | 0% | 0hPa | 0V | 00:00:00 | 00:00:00 | 00:00:00 | |
| POL1PZ | 2026-09-06 00:08:05 | 50.46899 | 18.25726 | 120° | 62km/h | 16963m | 4.5m/s | 0°C | 0% | 0hPa | 0V | 00:00:00 | 00:00:00 | 00:00:00 | |
| POL1PZ | 2026-09-06 00:07:41 | 50.47104 | 18.25145 | 116° | 68km/h | 16855m | 4.4m/s | 0°C | 0% | 0hPa | 0V | 00:00:00 | 00:00:00 | 00:00:00 | |
| POL1PZ | 2026-09-06 00:07:20 | 50.47267 | 18.24658 | 118° | 58km/h | 16760m | 2.5m/s | 0°C | 0% | 0hPa | 0V | 00:00:00 | 00:00:00 | 00:00:00 | |
| POL1PZ | 2026-09-06 00:06:59 | 50.47424 | 18.24194 | 116° | 69km/h | 16663m | 3.9m/s | 0°C | 0% | 0hPa | 0V | 00:00:00 | 00:00:00 | 00:00:00 | |
| POL1PZ | 2026-09-06 00:06:38 | 50.47618 | 18.23698 | 124° | 66km/h | 16563m | 3.0m/s | 0°C | 0% | 0hPa | 0V | 00:00:00 | 00:00:00 | 00:00:00 | |
| POL1PZ | 2026-09-06 00:06:18 | 50.47775 | 18.23235 | 115° | 57km/h | 16474m | 3.5m/s | 0°C | 0% | 0hPa | 0V | 00:00:00 | 00:00:00 | 00:00:00 | |
| POL1PZ | 2026-09-06 00:05:58 | 50.47946 | 18.22761 | 109° | 75km/h | 16376m | 4.7m/s | 0°C | 0% | 0hPa | 0V | 00:00:00 | 00:00:00 | 00:00:00 | |
| SQ6EMJ | 2026-09-06 00:05:44 | 50.48055 | 18.22417 | 122° | 75km/h | 16306m | 5.0m/s | 0°C | 0% | 0hPa | 0V | 00:00:00 | 00:00:00 | 00:00:00 | |
| SQ6EMJ | 2026-09-06 00:05:38 | 50.48110 | 18.22266 | 118° | 89km/h | 16275m | 4.9m/s | 0°C | 0% | 0hPa | 0V | 00:00:00 | 00:00:00 | 00:00:00 | |
| POL1PZ | 2026-09-06 00:05:35 | 50.48138 | 18.22170 | 110° | 82km/h | 16260m | 3.7m/s | 0°C | 0% | 0hPa | 0V | 00:00:00 | 00:00:00 | 00:00:00 | |
| SQ6EMJ | 2026-09-06 00:05:30 | 50.48178 | 18.22025 | 112° | 78km/h | 16235m | 4.9m/s | 0°C | 0% | 0hPa | 0V | 00:00:00 | 00:00:00 | 00:00:00 | |
| SP3BTT-10 | 2026-09-06 00:05:27 | 50.48202 | 18.21930 | 114° | 80km/h | 16220m | 3.2m/s | 0°C | 0% | 0hPa | 0V | 00:00:00 | 00:00:00 | 00:00:00 | |
| SQ6EMJ | 2026-09-06 00:05:25 | 50.48224 | 18.21845 | 116° | 69km/h | 16206m | 2.7m/s | 0°C | 0% | 0hPa | 0V | 00:00:00 | 00:00:00 | 00:00:00 | |
| POL1PZ | 2026-09-06 00:05:15 | 50.48294 | 18.21598 | 113° | 64km/h | 16163m | 3.6m/s | 0°C | 0% | 0hPa | 0V | 00:00:00 | 00:00:00 | 00:00:00 | |
| SQ6EMJ | 2026-09-06 00:05:14 | 50.48300 | 18.21574 | 115° | 66km/h | 16160m | 4.2m/s | 0°C | 0% | 0hPa | 0V | 00:00:00 | 00:00:00 | 00:00:00 | |
| SQ6EMJ | 2026-09-06 00:05:07 | 50.48355 | 18.21344 | 117° | 69km/h | 16119m | 4.8m/s | 0°C | 0% | 0hPa | 0V | 00:00:00 | 00:00:00 | 00:00:00 | |
| SQ6EMJ | 2026-09-06 00:05:00 | 50.48412 | 18.21123 | 105° | 64km/h | 16082m | 4.9m/s | 0°C | 0% | 0hPa | 0V | 00:00:00 | 00:00:00 | 00:00:00 | |
| POL1PZ | 2026-09-06 00:04:55 | 50.48431 | 18.21050 | 118° | 78km/h | 16069m | 4.2m/s | 0°C | 0% | 0hPa | 0V | 00:00:00 | 00:00:00 | 00:00:00 | |
| SQ6EMJ | 2026-09-06 00:04:52 | 50.48454 | 18.20964 | 111° | 77km/h | 16057m | 2.1m/s | 0°C | 0% | 0hPa | 0V | 00:00:00 | 00:00:00 | 00:00:00 | |
| SQ6EMJ | 2026-09-06 00:04:47 | 50.48500 | 18.20807 | 109° | 66km/h | 16027m | 4.5m/s | 0°C | 0% | 0hPa | 0V | 00:00:00 | 00:00:00 | 00:00:00 | |
| SQ6EMJ | 2026-09-06 00:04:39 | 50.48561 | 18.20631 | 124° | 75km/h | 15990m | 3.6m/s | 0°C | 0% | 0hPa | 0V | 00:00:00 | 00:00:00 | 00:00:00 | |
| POL1PZ | 2026-09-06 00:04:35 | 50.48595 | 18.20527 | 116° | 82km/h | 15972m | 4.8m/s | 0°C | 0% | 0hPa | 0V | 00:00:00 | 00:00:00 | 00:00:00 | |
| SQ6EMJ | 2026-09-06 00:04:32 | 50.48623 | 18.20439 | 117° | 73km/h | 15959m | 5.1m/s | 0°C | 0% | 0hPa | 0V | 00:00:00 | 00:00:00 | 00:00:00 | |
| SQ6EMJ | 2026-09-06 00:04:27 | 50.48680 | 18.20300 | 123° | 88km/h | 15931m | 4.2m/s | 0°C | 0% | 0hPa | 0V | 00:00:00 | 00:00:00 | 00:00:00 | |
| POL1PZ | 2026-09-06 00:04:15 | 50.48805 | 18.20008 | 128° | 89km/h | 15868m | 5.0m/s | 0°C | 0% | 0hPa | 0V | 00:00:00 | 00:00:00 | 00:00:00 | |
| SP3BTT-10 | 2026-09-06 00:04:08 | 50.48873 | 18.19836 | 117° | 89km/h | 15836m | 5.5m/s | 0°C | 0% | 0hPa | 0V | 00:00:00 | 00:00:00 | 00:00:00 | |
| POL1PZ | 2026-09-06 00:03:54 | 50.49056 | 18.19363 | 112° | 99km/h | 15768m | 5.0m/s | 0°C | 0% | 0hPa | 0V | 00:00:00 | 00:00:00 | 00:00:00 | |
| POL1PZ | 2026-09-06 00:03:33 | 50.49265 | 18.18672 | 113° | 102km/h | 15674m | 5.9m/s | 0°C | 0% | 0hPa | 0V | 00:00:00 | 00:00:00 | 00:00:00 | |
| SQ6EMJ | 2026-09-06 00:03:26 | 50.49356 | 18.18357 | 118° | 95km/h | 15632m | 5.3m/s | 0°C | 0% | 0hPa | 0V | 00:00:00 | 00:00:00 | 00:00:00 | |
| POL1PZ | 2026-09-06 00:03:17 | 50.49494 | 18.17956 | 122° | 97km/h | 15575m | 4.5m/s | 0°C | 0% | 0hPa | 0V | 00:00:00 | 00:00:00 | 00:00:00 | |
| SQ6EMJ | 2026-09-06 00:03:13 | 50.49594 | 18.17690 | 124° | 99km/h | 15536m | 4.9m/s | 0°C | 0% | 0hPa | 0V | 00:00:00 | 00:00:00 | 00:00:00 | |
| SQ6EMJ | 2026-09-06 00:03:03 | 50.49702 | 18.17384 | 113° | 102km/h | 15493m | 3.9m/s | 0°C | 0% | 0hPa | 0V | 00:00:00 | 00:00:00 | 00:00:00 | |
| POL1PZ | 2026-09-06 00:03:00 | 50.49735 | 18.17278 | 120° | 99km/h | 15479m | 4.4m/s | 0°C | 0% | 0hPa | 0V | 00:00:00 | 00:00:00 | 00:00:00 | |
| SQ6EMJ | 2026-09-06 00:02:55 | 50.49798 | 18.17065 | 112° | 97km/h | 15452m | 5.7m/s | 0°C | 0% | 0hPa | 0V | 00:00:00 | 00:00:00 | 00:00:00 | |
| SQ6EMJ | 2026-09-06 00:02:51 | 50.49849 | 18.16887 | 114° | 99km/h | 15430m | 6.9m/s | 0°C | 0% | 0hPa | 0V | 00:00:00 | 00:00:00 | 00:00:00 | |
| SQ6EMJ | 2026-09-06 00:02:18 | 50.50059 | 18.16053 | 107° | 100km/h | 15317m | 4.3m/s | 0°C | 0% | 0hPa | 0V | 00:00:00 | 00:00:00 | 00:00:00 | |
| POL1PZ | 2026-09-06 00:02:12 | 50.50117 | 18.15810 | 111° | 89km/h | 15285m | 3.0m/s | 0°C | 0% | 0hPa | 0V | 00:00:00 | 00:00:00 | 00:00:00 | |
| SQ6EMJ | 2026-09-06 00:02:10 | 50.50133 | 18.15741 | 111° | 95km/h | 15277m | 6.0m/s | 0°C | 0% | 0hPa | 0V | 00:00:00 | 00:00:00 | 00:00:00 | |
| SQ6EMJ | 2026-09-06 00:01:59 | 50.50252 | 18.15306 | 116° | 95km/h | 15211m | 3.0m/s | 0°C | 0% | 0hPa | 0V | 00:00:00 | 00:00:00 | 00:00:00 | |
| SQ6EMJ | 2026-09-06 00:01:56 | 50.50305 | 18.15141 | 109° | 93km/h | 15190m | 2.7m/s | 0°C | 0% | 0hPa | 0V | 00:00:00 | 00:00:00 | 00:00:00 | |
| POL1PZ | 2026-09-06 00:01:55 | 50.50313 | 18.15107 | 114° | 89km/h | 15186m | 5.4m/s | 0°C | 0% | 0hPa | 0V | 00:00:00 | 00:00:00 | 00:00:00 | |
| SQ6EMJ | 2026-09-06 00:01:46 | 50.50397 | 18.14858 | 119° | 82km/h | 15146m | 5.9m/s | 0°C | 0% | 0hPa | 0V | 00:00:00 | 00:00:00 | 00:00:00 | |
| SQ6EMJ | 2026-09-06 00:01:39 | 50.50458 | 18.14684 | 119° | 91km/h | 15118m | 4.5m/s | 0°C | 0% | 0hPa | 0V | 00:00:00 | 00:00:00 | 00:00:00 | |
| SQ6EMJ | 2026-09-06 00:01:34 | 50.50513 | 18.14543 | 122° | 84km/h | 15098m | 5.9m/s | 0°C | 0% | 0hPa | 0V | 00:00:00 | 00:00:00 | 00:00:00 | |
| POL1PZ | 2026-09-06 00:01:32 | 50.50546 | 18.14457 | 126° | 80km/h | 15083m | 5.6m/s | 0°C | 0% | 0hPa | 0V | 00:00:00 | 00:00:00 | 00:00:00 | |
| SP3BTT-10 | 2026-09-06 00:01:24 | 50.50647 | 18.14193 | 119° | 97km/h | 15042m | 4.5m/s | 0°C | 0% | 0hPa | 0V | 00:00:00 | 00:00:00 | 00:00:00 | |
| POL1PZ | 2026-09-06 00:01:10 | 50.50772 | 18.13843 | 125° | 86km/h | 14992m | 4.5m/s | 0°C | 0% | 0hPa | 0V | 00:00:00 | 00:00:00 | 00:00:00 | |
| SQ6EMJ | 2026-09-06 00:00:48 | 50.51008 | 18.13165 | 115° | 99km/h | 14902m | 2.9m/s | 0°C | 0% | 0hPa | 0V | 00:00:00 | 00:00:00 | 00:00:00 | |
| POL1PZ | 2026-09-06 00:00:47 | 50.51018 | 18.13130 | 116° | 95km/h | 14898m | 3.6m/s | 0°C | 0% | 0hPa | 0V | 00:00:00 | 00:00:00 | 00:00:00 | |
| POL1PZ | 2026-09-06 00:00:27 | 50.51259 | 18.12410 | 120° | 95km/h | 14804m | 5.7m/s | 0°C | 0% | 0hPa | 0V | 00:00:00 | 00:00:00 | 00:00:00 | |
| SQ6EMJ | 2026-09-06 00:00:10 | 50.51484 | 18.11753 | 114° | 97km/h | 14722m | 2.2m/s | 0°C | 0% | 0hPa | 0V | 00:00:00 | 00:00:00 | 00:00:00 | |
| POL1PZ | 2026-09-06 00:00:09 | 50.51495 | 18.11717 | 117° | 102km/h | 14718m | 3.7m/s | 0°C | 0% | 0hPa | 0V | 00:00:00 | 00:00:00 | 00:00:00 | |
| SP3BTT-10 | 2026-09-05 23:59:51 | 50.51671 | 18.11166 | 119° | 126km/h | 14647m | 2.4m/s | 0°C | 0% | 0hPa | 0V | 00:00:00 | 00:00:00 | 00:00:00 | |
| SQ6EMJ | 2026-09-05 23:59:50 | 50.51695 | 18.11095 | 119° | 100km/h | 14638m | 4.8m/s | 0°C | 0% | 0hPa | 0V | 00:00:00 | 00:00:00 | 00:00:00 | |
| POL1PZ | 2026-09-05 23:59:45 | 50.51736 | 18.10945 | 111° | 100km/h | 14619m | 6.0m/s | 0°C | 0% | 0hPa | 0V | 00:00:00 | 00:00:00 | 00:00:00 | |
| SQ6EMJ | 2026-09-05 23:59:33 | 50.51896 | 18.10492 | 121° | 102km/h | 14551m | 4.0m/s | 0°C | 0% | 0hPa | 0V | 00:00:00 | 00:00:00 | 00:00:00 | |
| POL1PZ | 2026-09-05 23:59:23 | 50.51990 | 18.10187 | 119° | 97km/h | 14502m | 5.5m/s | 0°C | 0% | 0hPa | 0V | 00:00:00 | 00:00:00 | 00:00:00 | |
| POL1PZ | 2026-09-05 23:59:02 | 50.52234 | 18.09495 | 121° | 99km/h | 14385m | 5.7m/s | 0°C | 0% | 0hPa | 0V | 00:00:00 | 00:00:00 | 00:00:00 | |
| POL1PZ | 2026-09-05 23:58:41 | 50.52519 | 18.08812 | 120° | 100km/h | 14275m | 5.7m/s | 0°C | 0% | 0hPa | 0V | 00:00:00 | 00:00:00 | 00:00:00 | |
| POL1PZ | 2026-09-05 23:58:20 | 50.52853 | 18.08104 | 131° | 115km/h | 14155m | 5.4m/s | 0°C | 0% | 0hPa | 0V | 00:00:00 | 00:00:00 | 00:00:00 | |
| POL1PZ | 2026-09-05 23:58:00 | 50.53213 | 18.07395 | 133° | 117km/h | 14044m | 6.4m/s | 0°C | 0% | 0hPa | 0V | 00:00:00 | 00:00:00 | 00:00:00 | |
| POL1PZ | 2026-09-05 23:57:38 | 50.53602 | 18.06582 | 123° | 113km/h | 13920m | 6.2m/s | 0°C | 0% | 0hPa | 0V | 00:00:00 | 00:00:00 | 00:00:00 | |
| POL1PZ | 2026-09-05 23:57:17 | 50.53953 | 18.05768 | 124° | 122km/h | 13806m | 7.9m/s | 0°C | 0% | 0hPa | 0V | 00:00:00 | 00:00:00 | 00:00:00 | |
| POL1PZ | 2026-09-05 23:56:56 | 50.54301 | 18.04924 | 122° | 131km/h | 13690m | 5.0m/s | 0°C | 0% | 0hPa | 0V | 00:00:00 | 00:00:00 | 00:00:00 | |
| POL1PZ | 2026-09-05 23:56:36 | 50.54625 | 18.04147 | 130° | 124km/h | 13574m | 1.9m/s | 0°C | 0% | 0hPa | 0V | 00:00:00 | 00:00:00 | 00:00:00 | |
| POL1PZ | 2026-09-05 23:56:16 | 50.55004 | 18.03365 | 132° | 131km/h | 13464m | 5.5m/s | 0°C | 0% | 0hPa | 0V | 00:00:00 | 00:00:00 | 00:00:00 | |
| POL1PZ | 2026-09-05 23:55:55 | 50.55449 | 18.02489 | 129° | 133km/h | 13366m | 4.5m/s | 0°C | 0% | 0hPa | 0V | 00:00:00 | 00:00:00 | 00:00:00 | |
| POL1PZ | 2026-09-05 23:55:34 | 50.55914 | 18.01559 | 130° | 157km/h | 13268m | 7.1m/s | 0°C | 0% | 0hPa | 0V | 00:00:00 | 00:00:00 | 00:00:00 | |
| POL1PZ | 2026-09-05 23:55:13 | 50.56418 | 18.00533 | 126° | 153km/h | 13154m | 4.7m/s | 0°C | 0% | 0hPa | 0V | 00:00:00 | 00:00:00 | 00:00:00 | |
| SQ6EMJ | 2026-09-05 23:55:09 | 50.56507 | 18.00331 | 130° | 153km/h | 13129m | 8.5m/s | 0°C | 0% | 0hPa | 0V | 00:00:00 | 00:00:00 | 00:00:00 | |
| SQ6EMJ | 2026-09-05 23:55:02 | 50.56672 | 17.99983 | 123° | 157km/h | 13092m | 7.9m/s | 0°C | 0% | 0hPa | 0V | 00:00:00 | 00:00:00 | 00:00:00 | |
| SQ6EMJ | 2026-09-05 23:54:57 | 50.56803 | 17.99686 | 125° | 161km/h | 13057m | 5.0m/s | 0°C | 0% | 0hPa | 0V | 00:00:00 | 00:00:00 | 00:00:00 | |
| POL1PZ | 2026-09-05 23:54:52 | 50.56897 | 17.99483 | 127° | 142km/h | 13038m | 6.0m/s | 0°C | 0% | 0hPa | 0V | 00:00:00 | 00:00:00 | 00:00:00 | |
| SP3BTT-10 | 2026-09-05 23:54:50 | 50.56939 | 17.99392 | 125° | 192km/h | 13028m | 5.0m/s | 0°C | 0% | 0hPa | 0V | 00:00:00 | 00:00:00 | 00:00:00 | |
| SQ6EMJ | 2026-09-05 23:54:34 | 50.57275 | 17.98563 | 124° | 150km/h | 12938m | 7.9m/s | 0°C | 0% | 0hPa | 0V | 00:00:00 | 00:00:00 | 00:00:00 | |
| POL1PZ | 2026-09-05 23:54:29 | 50.57386 | 17.98310 | 125° | 162km/h | 12910m | 4.3m/s | 0°C | 0% | 0hPa | 0V | 00:00:00 | 00:00:00 | 00:00:00 | |
| SQ6EMJ | 2026-09-05 23:54:28 | 50.57408 | 17.98256 | 125° | 164km/h | 12906m | 5.6m/s | 0°C | 0% | 0hPa | 0V | 00:00:00 | 00:00:00 | 00:00:00 | |
| SQ6EMJ | 2026-09-05 23:54:22 | 50.57545 | 17.97947 | 128° | 172km/h | 12870m | 5.2m/s | 0°C | 0% | 0hPa | 0V | 00:00:00 | 00:00:00 | 00:00:00 | |
| SQ6EMJ | 2026-09-05 23:54:17 | 50.57660 | 17.97671 | 124° | 155km/h | 12843m | 5.2m/s | 0°C | 0% | 0hPa | 0V | 00:00:00 | 00:00:00 | 00:00:00 | |
| SQ6EMJ | 2026-09-05 23:54:11 | 50.57802 | 17.97359 | 124° | 170km/h | 12808m | 5.8m/s | 0°C | 0% | 0hPa | 0V | 00:00:00 | 00:00:00 | 00:00:00 | |
| POL1PZ | 2026-09-05 23:54:08 | 50.57869 | 17.97195 | 125° | 155km/h | 12794m | 5.3m/s | 0°C | 0% | 0hPa | 0V | 00:00:00 | 00:00:00 | 00:00:00 | |
| SQ6EMJ | 2026-09-05 23:54:06 | 50.57913 | 17.97098 | 128° | 150km/h | 12783m | 3.8m/s | 0°C | 0% | 0hPa | 0V | 00:00:00 | 00:00:00 | 00:00:00 | |
| SQ6EMJ | 2026-09-05 23:54:01 | 50.58038 | 17.96831 | 123° | 162km/h | 12760m | 3.4m/s | 0°C | 0% | 0hPa | 0V | 00:00:00 | 00:00:00 | 00:00:00 | |
| SQ6EMJ | 2026-09-05 23:53:56 | 50.58138 | 17.96560 | 125° | 170km/h | 12735m | 5.7m/s | 0°C | 0% | 0hPa | 0V | 00:00:00 | 00:00:00 | 00:00:00 | |
| SQ6EMJ | 2026-09-05 23:53:50 | 50.58282 | 17.96223 | 123° | 159km/h | 12708m | 3.9m/s | 0°C | 0% | 0hPa | 0V | 00:00:00 | 00:00:00 | 00:00:00 | |
| SQ6EMJ | 2026-09-05 23:53:45 | 50.58403 | 17.95948 | 123° | 172km/h | 12683m | 4.3m/s | 0°C | 0% | 0hPa | 0V | 00:00:00 | 00:00:00 | 00:00:00 | |
| POL1PZ | 2026-09-05 23:53:44 | 50.58425 | 17.95890 | 123° | 170km/h | 12679m | 4.3m/s | 0°C | 0% | 0hPa | 0V | 00:00:00 | 00:00:00 | 00:00:00 | |
| SQ6EMJ | 2026-09-05 23:53:39 | 50.58549 | 17.95625 | 126° | 162km/h | 12651m | 5.6m/s | 0°C | 0% | 0hPa | 0V | 00:00:00 | 00:00:00 | 00:00:00 | |
| SQ6EMJ | 2026-09-05 23:53:34 | 50.58681 | 17.95351 | 128° | 175km/h | 12627m | 4.5m/s | 0°C | 0% | 0hPa | 0V | 00:00:00 | 00:00:00 | 00:00:00 | |
| SQ6EMJ | 2026-09-05 23:53:28 | 50.58834 | 17.95038 | 129° | 173km/h | 12591m | 5.3m/s | 0°C | 0% | 0hPa | 0V | 00:00:00 | 00:00:00 | 00:00:00 | |
| SQ6EMJ | 2026-09-05 23:53:22 | 50.58999 | 17.94718 | 130° | 170km/h | 12555m | 5.0m/s | 0°C | 0% | 0hPa | 0V | 00:00:00 | 00:00:00 | 00:00:00 | |
| SQ6EMJ | 2026-09-05 23:53:17 | 50.59162 | 17.94403 | 130° | 172km/h | 12522m | 3.8m/s | 0°C | 0% | 0hPa | 0V | 00:00:00 | 00:00:00 | 00:00:00 | |
| SQ6EMJ | 2026-09-05 23:53:05 | 50.59477 | 17.93823 | 129° | 179km/h | 12460m | 5.1m/s | 0°C | 0% | 0hPa | 0V | 00:00:00 | 00:00:00 | 00:00:00 | |
| POL1PZ | 2026-09-05 23:52:57 | 50.59712 | 17.93393 | 130° | 184km/h | 12412m | 6.7m/s | 0°C | 0% | 0hPa | 0V | 00:00:00 | 00:00:00 | 00:00:00 | |
| SQ6EMJ | 2026-09-05 23:52:56 | 50.59741 | 17.93338 | 131° | 179km/h | 12406m | 5.7m/s | 0°C | 0% | 0hPa | 0V | 00:00:00 | 00:00:00 | 00:00:00 | |
| SQ6EMJ | 2026-09-05 23:52:49 | 50.59940 | 17.92968 | 127° | 184km/h | 12367m | 4.0m/s | 0°C | 0% | 0hPa | 0V | 00:00:00 | 00:00:00 | 00:00:00 | |
| SQ6EMJ | 2026-09-05 23:52:44 | 50.60089 | 17.92711 | 134° | 173km/h | 12340m | 5.9m/s | 0°C | 0% | 0hPa | 0V | 00:00:00 | 00:00:00 | 00:00:00 | |
| SQ6EMJ | 2026-09-05 23:52:38 | 50.60279 | 17.92381 | 135° | 192km/h | 12310m | 5.9m/s | 0°C | 0% | 0hPa | 0V | 00:00:00 | 00:00:00 | 00:00:00 | |
| SQ6EMJ | 2026-09-05 23:52:32 | 50.60472 | 17.92067 | 135° | 203km/h | 12282m | 5.4m/s | 0°C | 0% | 0hPa | 0V | 00:00:00 | 00:00:00 | 00:00:00 | |
| SQ6EMJ | 2026-09-05 23:52:26 | 50.60670 | 17.91743 | 138° | 181km/h | 12257m | 3.5m/s | 0°C | 0% | 0hPa | 0V | 00:00:00 | 00:00:00 | 00:00:00 | |
| SQ6EMJ | 2026-09-05 23:52:20 | 50.60877 | 17.91390 | 135° | 184km/h | 12229m | 6.1m/s | 0°C | 0% | 0hPa | 0V | 00:00:00 | 00:00:00 | 00:00:00 | |
| SQ6EMJ | 2026-09-05 23:52:14 | 50.61086 | 17.91066 | 136° | 226km/h | 12202m | 3.8m/s | 0°C | 0% | 0hPa | 0V | 00:00:00 | 00:00:00 | 00:00:00 | |
| SQ6EMJ | 2026-09-05 23:52:09 | 50.61265 | 17.90756 | 136° | 179km/h | 12177m | 6.2m/s | 0°C | 0% | 0hPa | 0V | 00:00:00 | 00:00:00 | 00:00:00 | |
| SQ6EMJ | 2026-09-05 23:52:03 | 50.61480 | 17.90408 | 129° | 217km/h | 12142m | 5.4m/s | 0°C | 0% | 0hPa | 0V | 00:00:00 | 00:00:00 | 00:00:00 | |
| SQ6EMJ | 2026-09-05 23:51:58 | 50.61651 | 17.90100 | 139° | 203km/h | 12112m | 5.9m/s | 0°C | 0% | 0hPa | 0V | 00:00:00 | 00:00:00 | 00:00:00 | |
| SQ6EMJ | 2026-09-05 23:51:52 | 50.61869 | 17.89727 | 136° | 219km/h | 12078m | 4.4m/s | 0°C | 0% | 0hPa | 0V | 00:00:00 | 00:00:00 | 00:00:00 | |
| SQ6EMJ | 2026-09-05 23:51:46 | 50.62107 | 17.89355 | 136° | 215km/h | 12051m | 2.8m/s | 0°C | 0% | 0hPa | 0V | 00:00:00 | 00:00:00 | 00:00:00 | |
| SQ6EMJ | 2026-09-05 23:51:28 | 50.62838 | 17.88173 | 132° | 224km/h | 11965m | 6.8m/s | 0°C | 0% | 0hPa | 0V | 00:00:00 | 00:00:00 | 00:00:00 | |
| SQ6EMJ | 2026-09-05 23:51:14 | 50.63428 | 17.87219 | 135° | 221km/h | 11893m | 7.0m/s | 0°C | 0% | 0hPa | 0V | 00:00:00 | 00:00:00 | 00:00:00 | |
| SQ6EMJ | 2026-09-05 23:49:40 | 50.67020 | 17.80140 | 131° | 237km/h | 11417m | 4.4m/s | 0°C | 0% | 0hPa | 0V | 00:00:00 | 00:00:00 | 00:00:00 | |
| POL1PZ | 2026-09-05 23:49:29 | 50.67421 | 17.79336 | 127° | 248km/h | 11358m | 3.8m/s | 0°C | 0% | 0hPa | 0V | 00:00:00 | 00:00:00 | 00:00:00 | |
| POL1PZ | 2026-09-05 23:49:05 | 50.68292 | 17.77677 | 135° | 212km/h | 11225m | 4.6m/s | 0°C | 0% | 0hPa | 0V | 00:00:00 | 00:00:00 | 00:00:00 | |
| POL1PZ | 2026-09-05 23:48:45 | 50.69002 | 17.76348 | 131° | 224km/h | 11121m | 7.4m/s | 0°C | 0% | 0hPa | 0V | 00:00:00 | 00:00:00 | 00:00:00 | |
| SQ6EMJ | 2026-09-05 23:48:36 | 50.69320 | 17.75766 | 135° | 210km/h | 11067m | 4.7m/s | 0°C | 0% | 0hPa | 0V | 00:00:00 | 00:00:00 | 00:00:00 | |
| SQ6EMJ | 2026-09-05 23:48:30 | 50.69535 | 17.75384 | 133° | 215km/h | 11038m | 5.5m/s | 0°C | 0% | 0hPa | 0V | 00:00:00 | 00:00:00 | 00:00:00 | |
| POL1PZ | 2026-09-05 23:48:24 | 50.69755 | 17.75013 | 135° | 223km/h | 11007m | 6.4m/s | 0°C | 0% | 0hPa | 0V | 00:00:00 | 00:00:00 | 00:00:00 | |
| SQ6EMJ | 2026-09-05 23:48:18 | 50.69973 | 17.74627 | 131° | 208km/h | 10974m | 5.2m/s | 0°C | 0% | 0hPa | 0V | 00:00:00 | 00:00:00 | 00:00:00 | |
| SQ6EMJ | 2026-09-05 23:48:10 | 50.70269 | 17.74138 | 135° | 206km/h | 10932m | 5.9m/s | 0°C | 0% | 0hPa | 0V | 00:00:00 | 00:00:00 | 00:00:00 | |
| SQ6EMJ | 2026-09-05 23:48:04 | 50.70485 | 17.73758 | 133° | 221km/h | 10899m | 5.5m/s | 0°C | 0% | 0hPa | 0V | 00:00:00 | 00:00:00 | 00:00:00 | |
| POL1PZ | 2026-09-05 23:48:03 | 50.70523 | 17.73695 | 136° | 215km/h | 10894m | 3.9m/s | 0°C | 0% | 0hPa | 0V | 00:00:00 | 00:00:00 | 00:00:00 | |
| SQ6EMJ | 2026-09-05 23:47:58 | 50.70711 | 17.73405 | 134° | 204km/h | 10866m | 6.4m/s | 0°C | 0% | 0hPa | 0V | 00:00:00 | 00:00:00 | 00:00:00 | |
| SQ6EMJ | 2026-09-05 23:47:53 | 50.70897 | 17.73080 | 137° | 219km/h | 10841m | 4.8m/s | 0°C | 0% | 0hPa | 0V | 00:00:00 | 00:00:00 | 00:00:00 | |
| SQ6EMJ | 2026-09-05 23:47:47 | 50.71118 | 17.72709 | 131° | 215km/h | 10811m | 4.2m/s | 0°C | 0% | 0hPa | 0V | 00:00:00 | 00:00:00 | 00:00:00 | |
| POL1PZ | 2026-09-05 23:47:42 | 50.71308 | 17.72399 | 135° | 221km/h | 10783m | 6.2m/s | 0°C | 0% | 0hPa | 0V | 00:00:00 | 00:00:00 | 00:00:00 | |
| SQ6EMJ | 2026-09-05 23:47:40 | 50.71386 | 17.72269 | 134° | 226km/h | 10772m | 4.7m/s | 0°C | 0% | 0hPa | 0V | 00:00:00 | 00:00:00 | 00:00:00 | |
| SQ6EMJ | 2026-09-05 23:47:34 | 50.71613 | 17.71886 | 135° | 210km/h | 10741m | 6.0m/s | 0°C | 0% | 0hPa | 0V | 00:00:00 | 00:00:00 | 00:00:00 | |
| SQ6EMJ | 2026-09-05 23:47:28 | 50.71832 | 17.71502 | 135° | 223km/h | 10713m | 4.2m/s | 0°C | 0% | 0hPa | 0V | 00:00:00 | 00:00:00 | 00:00:00 | |
| POL1PZ | 2026-09-05 23:47:22 | 50.72058 | 17.71124 | 133° | 221km/h | 10679m | 5.7m/s | 0°C | 0% | 0hPa | 0V | 00:00:00 | 00:00:00 | 00:00:00 | |
| SQ6EMJ | 2026-09-05 23:47:15 | 50.72327 | 17.70681 | 131° | 212km/h | 10646m | 3.5m/s | 0°C | 0% | 0hPa | 0V | 00:00:00 | 00:00:00 | 00:00:00 | |
| SQ6EMJ | 2026-09-05 23:47:10 | 50.72510 | 17.70353 | 133° | 219km/h | 10625m | 6.4m/s | 0°C | 0% | 0hPa | 0V | 00:00:00 | 00:00:00 | 00:00:00 | |
| SQ6EMJ | 2026-09-05 23:47:04 | 50.72738 | 17.69969 | 132° | 232km/h | 10598m | 4.5m/s | 0°C | 0% | 0hPa | 0V | 00:00:00 | 00:00:00 | 00:00:00 | |
| SP3BTT-10 | 2026-09-05 23:47:03 | 50.72777 | 17.69899 | 131° | 221km/h | 10595m | 2.8m/s | 0°C | 0% | 0hPa | 0V | 00:00:00 | 00:00:00 | 00:00:00 | |
| POL1PZ | 2026-09-05 23:47:00 | 50.72889 | 17.69709 | 138° | 206km/h | 10582m | 4.6m/s | 0°C | 0% | 0hPa | 0V | 00:00:00 | 00:00:00 | 00:00:00 | |
| SQ6EMJ | 2026-09-05 23:46:59 | 50.72927 | 17.69653 | 138° | 208km/h | 10578m | 4.8m/s | 0°C | 0% | 0hPa | 0V | 00:00:00 | 00:00:00 | 00:00:00 | |
| SQ6EMJ | 2026-09-05 23:46:52 | 50.73195 | 17.69216 | 134° | 204km/h | 10546m | 1.4m/s | 0°C | 0% | 0hPa | 0V | 00:00:00 | 00:00:00 | 00:00:00 | |
| SQ6EMJ | 2026-09-05 23:46:46 | 50.73430 | 17.68829 | 135° | 230km/h | 10520m | 6.2m/s | 0°C | 0% | 0hPa | 0V | 00:00:00 | 00:00:00 | 00:00:00 | |
| POL1PZ | 2026-09-05 23:46:40 | 50.73655 | 17.68458 | 138° | 223km/h | 10489m | 3.9m/s | 0°C | 0% | 0hPa | 0V | 00:00:00 | 00:00:00 | 00:00:00 | |
| SQ6EMJ | 2026-09-05 23:46:39 | 50.73696 | 17.68396 | 136° | 228km/h | 10483m | 8.1m/s | 0°C | 0% | 0hPa | 0V | 00:00:00 | 00:00:00 | 00:00:00 | |
| SQ6EMJ | 2026-09-05 23:46:29 | 50.74087 | 17.67755 | 133° | 235km/h | 10429m | 7.9m/s | 0°C | 0% | 0hPa | 0V | 00:00:00 | 00:00:00 | 00:00:00 | |
| SP3BTT-10 | 2026-09-05 23:46:21 | 50.74405 | 17.67236 | 131° | 226km/h | 10389m | 5.3m/s | 0°C | 0% | 0hPa | 0V | 00:00:00 | 00:00:00 | 00:00:00 | |
| POL1PZ | 2026-09-05 23:46:20 | 50.74442 | 17.67167 | 132° | 228km/h | 10384m | 4.1m/s | 0°C | 0% | 0hPa | 0V | 00:00:00 | 00:00:00 | 00:00:00 | |
| SQ6EMJ | 2026-09-05 23:46:13 | 50.74727 | 17.66719 | 136° | 237km/h | 10350m | 4.8m/s | 0°C | 0% | 0hPa | 0V | 00:00:00 | 00:00:00 | 00:00:00 | |
| SQ6EMJ | 2026-09-05 23:46:01 | 50.75212 | 17.65966 | 134° | 224km/h | 10280m | 5.4m/s | 0°C | 0% | 0hPa | 0V | 00:00:00 | 00:00:00 | 00:00:00 | |
| POL1PZ | 2026-09-05 23:46:00 | 50.75250 | 17.65900 | 133° | 226km/h | 10275m | 5.4m/s | 0°C | 0% | 0hPa | 0V | 00:00:00 | 00:00:00 | 00:00:00 | |
| SQ6EMJ | 2026-09-05 23:45:56 | 50.75411 | 17.65651 | 140° | 217km/h | 10254m | 5.3m/s | 0°C | 0% | 0hPa | 0V | 00:00:00 | 00:00:00 | 00:00:00 | |
| SQ6EMJ | 2026-09-05 23:45:50 | 50.75659 | 17.65261 | 134° | 232km/h | 10221m | 4.3m/s | 0°C | 0% | 0hPa | 0V | 00:00:00 | 00:00:00 | 00:00:00 | |
| SQ6EMJ | 2026-09-05 23:45:44 | 50.75901 | 17.64879 | 139° | 246km/h | 10187m | 7.7m/s | 0°C | 0% | 0hPa | 0V | 00:00:00 | 00:00:00 | 00:00:00 | |
| POL1PZ | 2026-09-05 23:45:39 | 50.76110 | 17.64548 | 135° | 221km/h | 10159m | 4.9m/s | 0°C | 0% | 0hPa | 0V | 00:00:00 | 00:00:00 | 00:00:00 | |
| SQ6EMJ | 2026-09-05 23:45:35 | 50.76320 | 17.64219 | 134° | 232km/h | 10128m | 7.7m/s | 0°C | 0% | 0hPa | 0V | 00:00:00 | 00:00:00 | 00:00:00 | |
| SQ6EMJ | 2026-09-05 23:45:29 | 50.76522 | 17.63880 | 137° | 246km/h | 10098m | 7.4m/s | 0°C | 0% | 0hPa | 0V | 00:00:00 | 00:00:00 | 00:00:00 | |
| SQ6EMJ | 2026-09-05 23:45:23 | 50.76771 | 17.63490 | 135° | 230km/h | 10068m | 6.4m/s | 0°C | 0% | 0hPa | 0V | 00:00:00 | 00:00:00 | 00:00:00 | |
| POL1PZ | 2026-09-05 23:45:19 | 50.76938 | 17.63209 | 135° | 237km/h | 10048m | 4.2m/s | 0°C | 0% | 0hPa | 0V | 00:00:00 | 00:00:00 | 00:00:00 | |
| SQ6EMJ | 2026-09-05 23:45:17 | 50.77021 | 17.63079 | 138° | 226km/h | 10037m | 4.3m/s | 0°C | 0% | 0hPa | 0V | 00:00:00 | 00:00:00 | 00:00:00 | |
| SQ6EMJ | 2026-09-05 23:45:11 | 50.77269 | 17.62679 | 132° | 228km/h | 10005m | 4.5m/s | 0°C | 0% | 0hPa | 0V | 00:00:00 | 00:00:00 | 00:00:00 | |
| SQ6EMJ | 2026-09-05 23:45:02 | 50.77631 | 17.62080 | 134° | 224km/h | 9948m | 6.3m/s | 0°C | 0% | 0hPa | 0V | 00:00:00 | 00:00:00 | 00:00:00 | |
| POL1PZ | 2026-09-05 23:44:58 | 50.77799 | 17.61816 | 137° | 239km/h | 9923m | 8.0m/s | 0°C | 0% | 0hPa | 0V | 00:00:00 | 00:00:00 | 00:00:00 | |
| SQ6EMJ | 2026-09-05 23:44:57 | 50.77842 | 17.61747 | 134° | 245km/h | 9918m | 4.9m/s | 0°C | 0% | 0hPa | 0V | 00:00:00 | 00:00:00 | 00:00:00 | |
| SQ6EMJ | 2026-09-05 23:44:51 | 50.78083 | 17.61346 | 135° | 223km/h | 9882m | 3.8m/s | 0°C | 0% | 0hPa | 0V | 00:00:00 | 00:00:00 | 00:00:00 | |
| SQ6EMJ | 2026-09-05 23:44:45 | 50.78332 | 17.60927 | 135° | 230km/h | 9851m | 8.2m/s | 0°C | 0% | 0hPa | 0V | 00:00:00 | 00:00:00 | 00:00:00 | |
| SQ6EMJ | 2026-09-05 23:44:39 | 50.78571 | 17.60528 | 134° | 235km/h | 9812m | 7.2m/s | 0°C | 0% | 0hPa | 0V | 00:00:00 | 00:00:00 | 00:00:00 | |
| POL1PZ | 2026-09-05 23:44:37 | 50.78646 | 17.60391 | 130° | 219km/h | 9799m | 4.1m/s | 0°C | 0% | 0hPa | 0V | 00:00:00 | 00:00:00 | 00:00:00 | |
| SQ6EMJ | 2026-09-05 23:44:33 | 50.78802 | 17.60127 | 138° | 237km/h | 9781m | 5.8m/s | 0°C | 0% | 0hPa | 0V | 00:00:00 | 00:00:00 | 00:00:00 | |
| SQ6EMJ | 2026-09-05 23:44:28 | 50.79008 | 17.59780 | 134° | 243km/h | 9757m | 7.3m/s | 0°C | 0% | 0hPa | 0V | 00:00:00 | 00:00:00 | 00:00:00 | |
| SQ6EMJ | 2026-09-05 23:44:23 | 50.79217 | 17.59447 | 136° | 219km/h | 9733m | 5.5m/s | 0°C | 0% | 0hPa | 0V | 00:00:00 | 00:00:00 | 00:00:00 | |
| SQ6EMJ | 2026-09-05 23:44:17 | 50.79458 | 17.59050 | 132° | 235km/h | 9695m | 3.8m/s | 0°C | 0% | 0hPa | 0V | 00:00:00 | 00:00:00 | 00:00:00 | |
| POL1PZ | 2026-09-05 23:44:16 | 50.79497 | 17.58979 | 133° | 235km/h | 9691m | 6.8m/s | 0°C | 0% | 0hPa | 0V | 00:00:00 | 00:00:00 | 00:00:00 | |
| SQ6EMJ | 2026-09-05 23:44:12 | 50.79659 | 17.58721 | 136° | 223km/h | 9669m | 6.8m/s | 0°C | 0% | 0hPa | 0V | 00:00:00 | 00:00:00 | 00:00:00 | |
| SQ6EMJ | 2026-09-05 23:44:06 | 50.79892 | 17.58312 | 137° | 239km/h | 9635m | 8.6m/s | 0°C | 0% | 0hPa | 0V | 00:00:00 | 00:00:00 | 00:00:00 | |
| SQ6EMJ | 2026-09-05 23:44:00 | 50.80134 | 17.57903 | 133° | 226km/h | 9601m | 5.8m/s | 0°C | 0% | 0hPa | 0V | 00:00:00 | 00:00:00 | 00:00:00 | |
| POL1PZ | 2026-09-05 23:43:55 | 50.80339 | 17.57560 | 135° | 235km/h | 9568m | 6.4m/s | 0°C | 0% | 0hPa | 0V | 00:00:00 | 00:00:00 | 00:00:00 | |
| SQ6EMJ | 2026-09-05 23:43:49 | 50.80571 | 17.57154 | 137° | 252km/h | 9541m | 5.8m/s | 0°C | 0% | 0hPa | 0V | 00:00:00 | 00:00:00 | 00:00:00 | |
| SQ6EMJ | 2026-09-05 23:43:43 | 50.80812 | 17.56755 | 132° | 239km/h | 9511m | 5.6m/s | 0°C | 0% | 0hPa | 0V | 00:00:00 | 00:00:00 | 00:00:00 | |
| SQ6EMJ | 2026-09-05 23:43:37 | 50.81067 | 17.56338 | 135° | 214km/h | 9474m | 8.9m/s | 0°C | 0% | 0hPa | 0V | 00:00:00 | 00:00:00 | 00:00:00 | |
| POL1PZ | 2026-09-05 23:43:35 | 50.81144 | 17.56209 | 133° | 228km/h | 9460m | 7.0m/s | 0°C | 0% | 0hPa | 0V | 00:00:00 | 00:00:00 | 00:00:00 | |
| SQ6EMJ | 2026-09-05 23:43:32 | 50.81262 | 17.56001 | 132° | 239km/h | 9440m | 5.7m/s | 0°C | 0% | 0hPa | 0V | 00:00:00 | 00:00:00 | 00:00:00 | |
| SQ6EMJ | 2026-09-05 23:43:26 | 50.81504 | 17.55591 | 136° | 215km/h | 9406m | 6.2m/s | 0°C | 0% | 0hPa | 0V | 00:00:00 | 00:00:00 | 00:00:00 | |
| SQ6EMJ | 2026-09-05 23:43:17 | 50.81863 | 17.54987 | 136° | 230km/h | 9355m | 4.2m/s | 0°C | 0% | 0hPa | 0V | 00:00:00 | 00:00:00 | 00:00:00 | |
| POL1PZ | 2026-09-05 23:43:14 | 50.81986 | 17.54774 | 132° | 243km/h | 9338m | 4.5m/s | 0°C | 0% | 0hPa | 0V | 00:00:00 | 00:00:00 | 00:00:00 | |
| SQ6EMJ | 2026-09-05 23:43:10 | 50.82138 | 17.54509 | 136° | 219km/h | 9317m | 3.1m/s | 0°C | 0% | 0hPa | 0V | 00:00:00 | 00:00:00 | 00:00:00 | |
| SQ6EMJ | 2026-09-05 23:43:05 | 50.82334 | 17.54173 | 131° | 234km/h | 9292m | 4.8m/s | 0°C | 0% | 0hPa | 0V | 00:00:00 | 00:00:00 | 00:00:00 | |
| POL1PZ | 2026-09-05 23:42:54 | 50.82769 | 17.53423 | 137° | 232km/h | 9239m | 4.6m/s | 0°C | 0% | 0hPa | 0V | 00:00:00 | 00:00:00 | 00:00:00 | |
| SQ6EMJ | 2026-09-05 23:42:48 | 50.83008 | 17.52996 | 132° | 235km/h | 9213m | 4.5m/s | 0°C | 0% | 0hPa | 0V | 00:00:00 | 00:00:00 | 00:00:00 | |
| SQ6EMJ | 2026-09-05 23:42:43 | 50.83210 | 17.52664 | 134° | 241km/h | 9187m | 2.9m/s | 0°C | 0% | 0hPa | 0V | 00:00:00 | 00:00:00 | 00:00:00 | |
| SQ6EMJ | 2026-09-05 23:42:38 | 50.83410 | 17.52340 | 136° | 228km/h | 9164m | 6.0m/s | 0°C | 0% | 0hPa | 0V | 00:00:00 | 00:00:00 | 00:00:00 | |
| POL1PZ | 2026-09-05 23:42:33 | 50.83603 | 17.51988 | 133° | 214km/h | 9137m | 5.2m/s | 0°C | 0% | 0hPa | 0V | 00:00:00 | 00:00:00 | 00:00:00 | |
| SQ6EMJ | 2026-09-05 23:42:27 | 50.83857 | 17.51608 | 134° | 232km/h | 9106m | 5.3m/s | 0°C | 0% | 0hPa | 0V | 00:00:00 | 00:00:00 | 00:00:00 | |
| SQ6EMJ | 2026-09-05 23:42:22 | 50.84048 | 17.51249 | 133° | 235km/h | 9082m | 7.9m/s | 0°C | 0% | 0hPa | 0V | 00:00:00 | 00:00:00 | 00:00:00 | |
| SQ6EMJ | 2026-09-05 23:42:17 | 50.84241 | 17.50921 | 133° | 230km/h | 9052m | 7.8m/s | 0°C | 0% | 0hPa | 0V | 00:00:00 | 00:00:00 | 00:00:00 | |
| POL1PZ | 2026-09-05 23:42:13 | 50.84406 | 17.50648 | 135° | 230km/h | 9032m | 5.4m/s | 0°C | 0% | 0hPa | 0V | 00:00:00 | 00:00:00 | 00:00:00 | |
| SQ6EMJ | 2026-09-05 23:42:11 | 50.84484 | 17.50519 | 134° | 217km/h | 9018m | 6.6m/s | 0°C | 0% | 0hPa | 0V | 00:00:00 | 00:00:00 | 00:00:00 | |
| SQ6EMJ | 2026-09-05 23:42:04 | 50.84750 | 17.50060 | 132° | 215km/h | 8980m | 4.9m/s | 0°C | 0% | 0hPa | 0V | 00:00:00 | 00:00:00 | 00:00:00 | |
| SQ6EMJ | 2026-09-05 23:41:57 | 50.85017 | 17.49617 | 134° | 223km/h | 8948m | 4.2m/s | 0°C | 0% | 0hPa | 0V | 00:00:00 | 00:00:00 | 00:00:00 | |
| POL1PZ | 2026-09-05 23:41:53 | 50.85165 | 17.49335 | 131° | 232km/h | 8929m | 5.6m/s | 0°C | 0% | 0hPa | 0V | 00:00:00 | 00:00:00 | 00:00:00 | |
| SQ6EMJ | 2026-09-05 23:41:50 | 50.85283 | 17.49140 | 136° | 219km/h | 8911m | 6.8m/s | 0°C | 0% | 0hPa | 0V | 00:00:00 | 00:00:00 | 00:00:00 | |
| SQ6EMJ | 2026-09-05 23:41:43 | 50.85550 | 17.48699 | 135° | 232km/h | 8872m | 5.3m/s | 0°C | 0% | 0hPa | 0V | 00:00:00 | 00:00:00 | 00:00:00 | |
| SQ6EMJ | 2026-09-05 23:41:34 | 50.85889 | 17.48107 | 134° | 203km/h | 8819m | 5.9m/s | 0°C | 0% | 0hPa | 0V | 00:00:00 | 00:00:00 | 00:00:00 | |
| POL1PZ | 2026-09-05 23:41:31 | 50.85999 | 17.47918 | 133° | 223km/h | 8802m | 9.6m/s | 0°C | 0% | 0hPa | 0V | 00:00:00 | 00:00:00 | 00:00:00 | |
| SQ6EMJ | 2026-09-05 23:41:28 | 50.86114 | 17.47720 | 133° | 224km/h | 8785m | 9.8m/s | 0°C | 0% | 0hPa | 0V | 00:00:00 | 00:00:00 | 00:00:00 | |
| POL1PZ | 2026-09-05 23:41:11 | 50.86742 | 17.46634 | 136° | 208km/h | 8689m | 5.9m/s | 0°C | 0% | 0hPa | 0V | 00:00:00 | 00:00:00 | 00:00:00 | |
| SQ6EMJ | 2026-09-05 23:41:07 | 50.86887 | 17.46387 | 134° | 215km/h | 8671m | 4.1m/s | 0°C | 0% | 0hPa | 0V | 00:00:00 | 00:00:00 | 00:00:00 | |
| SQ6EMJ | 2026-09-05 23:41:01 | 50.87118 | 17.46010 | 135° | 223km/h | 8646m | 3.3m/s | 0°C | 0% | 0hPa | 0V | 00:00:00 | 00:00:00 | 00:00:00 | |
| SQ6EMJ | 2026-09-05 23:40:55 | 50.87334 | 17.45655 | 133° | 210km/h | 8614m | 9.7m/s | 0°C | 0% | 0hPa | 0V | 00:00:00 | 00:00:00 | 00:00:00 | |
| POL1PZ | 2026-09-05 23:40:51 | 50.87483 | 17.45389 | 135° | 226km/h | 8589m | 4.8m/s | 0°C | 0% | 0hPa | 0V | 00:00:00 | 00:00:00 | 00:00:00 | |
| SQ6EMJ | 2026-09-05 23:40:50 | 50.87523 | 17.45325 | 136° | 224km/h | 8585m | 4.4m/s | 0°C | 0% | 0hPa | 0V | 00:00:00 | 00:00:00 | 00:00:00 | |
| SQ6EMJ | 2026-09-05 23:40:44 | 50.87730 | 17.44949 | 131° | 215km/h | 8552m | 6.2m/s | 0°C | 0% | 0hPa | 0V | 00:00:00 | 00:00:00 | 00:00:00 | |
| SQ6EMJ | 2026-09-05 23:40:38 | 50.87953 | 17.44554 | 135° | 215km/h | 8516m | 8.5m/s | 0°C | 0% | 0hPa | 0V | 00:00:00 | 00:00:00 | 00:00:00 | |
| SQ6EMJ | 2026-09-05 23:40:32 | 50.88162 | 17.44158 | 128° | 206km/h | 8482m | 4.8m/s | 0°C | 0% | 0hPa | 0V | 00:00:00 | 00:00:00 | 00:00:00 | |
| POL1PZ | 2026-09-05 23:40:30 | 50.88232 | 17.44032 | 135° | 219km/h | 8472m | 5.2m/s | 0°C | 0% | 0hPa | 0V | 00:00:00 | 00:00:00 | 00:00:00 | |
| SQ6EMJ | 2026-09-05 23:40:27 | 50.88352 | 17.43843 | 136° | 217km/h | 8455m | 4.7m/s | 0°C | 0% | 0hPa | 0V | 00:00:00 | 00:00:00 | 00:00:00 | |
| SQ6EMJ | 2026-09-05 23:40:22 | 50.88562 | 17.43469 | 134° | 228km/h | 8419m | 8.9m/s | 0°C | 0% | 0hPa | 0V | 00:00:00 | 00:00:00 | 00:00:00 | |
| SQ6EMJ | 2026-09-05 23:40:16 | 50.88754 | 17.43145 | 131° | 215km/h | 8388m | 7.9m/s | 0°C | 0% | 0hPa | 0V | 00:00:00 | 00:00:00 | 00:00:00 | |
| SQ6EMJ | 2026-09-05 23:40:11 | 50.88932 | 17.42822 | 131° | 210km/h | 8355m | 5.8m/s | 0°C | 0% | 0hPa | 0V | 00:00:00 | 00:00:00 | 00:00:00 | |
| POL1PZ | 2026-09-05 23:40:10 | 50.88967 | 17.42758 | 131° | 214km/h | 8349m | 9.3m/s | 0°C | 0% | 0hPa | 0V | 00:00:00 | 00:00:00 | 00:00:00 | |
| SQ6EMJ | 2026-09-05 23:40:04 | 50.89184 | 17.42378 | 131° | 215km/h | 8312m | 8.8m/s | 0°C | 0% | 0hPa | 0V | 00:00:00 | 00:00:00 | 00:00:00 | |
| SQ6EMJ | 2026-09-05 23:39:58 | 50.89397 | 17.42003 | 131° | 219km/h | 8279m | 7.6m/s | 0°C | 0% | 0hPa | 0V | 00:00:00 | 00:00:00 | 00:00:00 | |
| SQ6EMJ | 2026-09-05 23:39:53 | 50.89562 | 17.41667 | 129° | 214km/h | 8256m | 7.8m/s | 0°C | 0% | 0hPa | 0V | 00:00:00 | 00:00:00 | 00:00:00 | |
| POL1PZ | 2026-09-05 23:39:50 | 50.89669 | 17.41472 | 132° | 208km/h | 8237m | 8.4m/s | 0°C | 0% | 0hPa | 0V | 00:00:00 | 00:00:00 | 00:00:00 | |
| SQ6EMJ | 2026-09-05 23:39:47 | 50.89769 | 17.41285 | 131° | 212km/h | 8218m | 9.7m/s | 0°C | 0% | 0hPa | 0V | 00:00:00 | 00:00:00 | 00:00:00 | |
| SQ6EMJ | 2026-09-05 23:39:42 | 50.89942 | 17.40960 | 133° | 212km/h | 8185m | 8.9m/s | 0°C | 0% | 0hPa | 0V | 00:00:00 | 00:00:00 | 00:00:00 | |
| SQ6EMJ | 2026-09-05 23:39:36 | 50.90132 | 17.40577 | 128° | 206km/h | 8146m | 4.6m/s | 0°C | 0% | 0hPa | 0V | 00:00:00 | 00:00:00 | 00:00:00 | |
| SQ6EMJ | 2026-09-05 23:39:30 | 50.90340 | 17.40192 | 129° | 201km/h | 8114m | 7.5m/s | 0°C | 0% | 0hPa | 0V | 00:00:00 | 00:00:00 | 00:00:00 | |
| POL1PZ | 2026-09-05 23:39:29 | 50.90371 | 17.40129 | 128° | 197km/h | 8108m | 8.4m/s | 0°C | 0% | 0hPa | 0V | 00:00:00 | 00:00:00 | 00:00:00 | |
| SQ6EMJ | 2026-09-05 23:39:24 | 50.90535 | 17.39806 | 130° | 212km/h | 8081m | 5.0m/s | 0°C | 0% | 0hPa | 0V | 00:00:00 | 00:00:00 | 00:00:00 | |
| SQ6EMJ | 2026-09-05 23:39:22 | 50.90723 | 17.39436 | 127° | 197km/h | 8040m | 7.6m/s | 0°C | 0% | 0hPa | 0V | 00:00:00 | 00:00:00 | 00:00:00 | |
| SQ6EMJ | 2026-09-05 23:39:21 | 50.90921 | 17.39038 | 132° | 203km/h | 8007m | 8.8m/s | 0°C | 0% | 0hPa | 0V | 00:00:00 | 00:00:00 | 00:00:00 | |
| POL1PZ | 2026-09-05 23:39:08 | 50.91047 | 17.38798 | 129° | 197km/h | 7979m | 8.6m/s | 0°C | 0% | 0hPa | 0V | 00:00:00 | 00:00:00 | 00:00:00 | |
| SQ6EMJ | 2026-09-05 23:39:06 | 50.91106 | 17.38662 | 123° | 212km/h | 7966m | 10.9m/s | 0°C | 0% | 0hPa | 0V | 00:00:00 | 00:00:00 | 00:00:00 | |
| SQ6EMJ | 2026-09-05 23:39:01 | 50.91262 | 17.38330 | 133° | 199km/h | 7936m | 6.4m/s | 0°C | 0% | 0hPa | 0V | 00:00:00 | 00:00:00 | 00:00:00 | |
| SQ6EMJ | 2026-09-05 23:38:55 | 50.91456 | 17.37934 | 129° | 212km/h | 7905m | 4.9m/s | 0°C | 0% | 0hPa | 0V | 00:00:00 | 00:00:00 | 00:00:00 | |
| SQ6EMJ | 2026-09-05 23:38:50 | 50.91608 | 17.37624 | 128° | 199km/h | 7880m | 8.7m/s | 0°C | 0% | 0hPa | 0V | 00:00:00 | 00:00:00 | 00:00:00 | |
| POL1PZ | 2026-09-05 23:38:45 | 50.91760 | 17.37294 | 129° | 214km/h | 7847m | 5.7m/s | 0°C | 0% | 0hPa | 0V | 00:00:00 | 00:00:00 | 00:00:00 | |
| SQ6EMJ | 2026-09-05 23:38:44 | 50.91793 | 17.37229 | 129° | 201km/h | 7842m | 5.8m/s | 0°C | 0% | 0hPa | 0V | 00:00:00 | 00:00:00 | 00:00:00 | |
| SQ6EMJ | 2026-09-05 23:38:39 | 50.91926 | 17.36924 | 124° | 193km/h | 7812m | 7.2m/s | 0°C | 0% | 0hPa | 0V | 00:00:00 | 00:00:00 | 00:00:00 | |
| SQ6EMJ | 2026-09-05 23:38:34 | 50.92077 | 17.36604 | 129° | 192km/h | 7781m | 7.2m/s | 0°C | 0% | 0hPa | 0V | 00:00:00 | 00:00:00 | 00:00:00 | |
| SQ6EMJ | 2026-09-05 23:38:28 | 50.92252 | 17.36223 | 123° | 190km/h | 7742m | 6.2m/s | 0°C | 0% | 0hPa | 0V | 00:00:00 | 00:00:00 | 00:00:00 | |
| POL1PZ | 2026-09-05 23:38:23 | 50.92389 | 17.35912 | 129° | 208km/h | 7711m | 5.6m/s | 0°C | 0% | 0hPa | 0V | 00:00:00 | 00:00:00 | 00:00:00 | |
| SQ6EMJ | 2026-09-05 23:38:22 | 50.92421 | 17.35846 | 128° | 210km/h | 7705m | 6.3m/s | 0°C | 0% | 0hPa | 0V | 00:00:00 | 00:00:00 | 00:00:00 | |
| SQ6EMJ | 2026-09-05 23:38:17 | 50.92563 | 17.35532 | 128° | 183km/h | 7676m | 7.0m/s | 0°C | 0% | 0hPa | 0V | 00:00:00 | 00:00:00 | 00:00:00 | |
| SQ6EMJ | 2026-09-05 23:38:11 | 50.92737 | 17.35149 | 132° | 186km/h | 7642m | 6.5m/s | 0°C | 0% | 0hPa | 0V | 00:00:00 | 00:00:00 | 00:00:00 | |
| SQ6EMJ | 2026-09-05 23:38:06 | 50.92897 | 17.34847 | 128° | 188km/h | 7610m | 10.1m/s | 0°C | 0% | 0hPa | 0V | 00:00:00 | 00:00:00 | 00:00:00 | |
| SQ6EMJ | 2026-09-05 23:38:00 | 50.93072 | 17.34486 | 131° | 210km/h | 7576m | 8.3m/s | 0°C | 0% | 0hPa | 0V | 00:00:00 | 00:00:00 | 00:00:00 | |
| POL1PZ | 2026-09-05 23:37:58 | 50.93138 | 17.34363 | 132° | 193km/h | 7566m | 3.0m/s | 0°C | 0% | 0hPa | 0V | 00:00:00 | 00:00:00 | 00:00:00 | |
| SQ6EMJ | 2026-09-05 23:37:55 | 50.93225 | 17.34192 | 127° | 181km/h | 7552m | 4.1m/s | 0°C | 0% | 0hPa | 0V | 00:00:00 | 00:00:00 | 00:00:00 | |
| SQ6EMJ | 2026-09-05 23:37:49 | 50.93407 | 17.33816 | 129° | 203km/h | 7520m | 4.5m/s | 0°C | 0% | 0hPa | 0V | 00:00:00 | 00:00:00 | 00:00:00 | |
| SQ6EMJ | 2026-09-05 23:37:44 | 50.93551 | 17.33517 | 127° | 183km/h | 7493m | 4.7m/s | 0°C | 0% | 0hPa | 0V | 00:00:00 | 00:00:00 | 00:00:00 | |
| SQ6EMJ | 2026-09-05 23:37:38 | 50.93732 | 17.33150 | 131° | 195km/h | 7465m | 5.5m/s | 0°C | 0% | 0hPa | 0V | 00:00:00 | 00:00:00 | 00:00:00 | |
| POL1PZ | 2026-09-05 23:37:37 | 50.93763 | 17.33093 | 133° | 184km/h | 7459m | 6.2m/s | 0°C | 0% | 0hPa | 0V | 00:00:00 | 00:00:00 | 00:00:00 | |
| SQ6EMJ | 2026-09-05 23:37:33 | 50.93877 | 17.32858 | 124° | 203km/h | 7439m | 5.0m/s | 0°C | 0% | 0hPa | 0V | 00:00:00 | 00:00:00 | 00:00:00 | |
| SQ6EMJ | 2026-09-05 23:37:27 | 50.94069 | 17.32478 | 131° | 184km/h | 7406m | 6.6m/s | 0°C | 0% | 0hPa | 0V | 00:00:00 | 00:00:00 | 00:00:00 | |
| SQ6EMJ | 2026-09-05 23:37:21 | 50.94249 | 17.32118 | 133° | 197km/h | 7365m | 5.0m/s | 0°C | 0% | 0hPa | 0V | 00:00:00 | 00:00:00 | 00:00:00 | |
| POL1PZ | 2026-09-05 23:37:17 | 50.94365 | 17.31877 | 125° | 192km/h | 7350m | 7.2m/s | 0°C | 0% | 0hPa | 0V | 00:00:00 | 00:00:00 | 00:00:00 | |
| SQ6EMJ | 2026-09-05 23:37:15 | 50.94426 | 17.31747 | 131° | 208km/h | 7339m | 9.4m/s | 0°C | 0% | 0hPa | 0V | 00:00:00 | 00:00:00 | 00:00:00 | |
| SQ6EMJ | 2026-09-05 23:37:09 | 50.94602 | 17.31401 | 127° | 175km/h | 7301m | 6.7m/s | 0°C | 0% | 0hPa | 0V | 00:00:00 | 00:00:00 | 00:00:00 | |
| SQ6EMJ | 2026-09-05 23:37:04 | 50.94755 | 17.31109 | 127° | 199km/h | 7278m | 5.2m/s | 0°C | 0% | 0hPa | 0V | 00:00:00 | 00:00:00 | 00:00:00 | |
| SQ6EMJ | 2026-09-05 23:36:58 | 50.94919 | 17.30753 | 129° | 183km/h | 7244m | 5.3m/s | 0°C | 0% | 0hPa | 0V | 00:00:00 | 00:00:00 | 00:00:00 | |
| POL1PZ | 2026-09-05 23:36:57 | 50.94947 | 17.30694 | 127° | 186km/h | 7241m | 2.2m/s | 0°C | 0% | 0hPa | 0V | 00:00:00 | 00:00:00 | 00:00:00 | |
| SQ6EMJ | 2026-09-05 23:36:52 | 50.95089 | 17.30386 | 130° | 179km/h | 7210m | 9.6m/s | 0°C | 0% | 0hPa | 0V | 00:00:00 | 00:00:00 | 00:00:00 | |
| SQ6EMJ | 2026-09-05 23:36:47 | 50.95230 | 17.30111 | 127° | 197km/h | 7181m | 5.0m/s | 0°C | 0% | 0hPa | 0V | 00:00:00 | 00:00:00 | 00:00:00 | |
| SQ6EMJ | 2026-09-05 23:36:40 | 50.95451 | 17.29693 | 132° | 192km/h | 7147m | 6.7m/s | 0°C | 0% | 0hPa | 0V | 00:00:00 | 00:00:00 | 00:00:00 | |
| POL1PZ | 2026-09-05 23:36:36 | 50.95567 | 17.29465 | 128° | 190km/h | 7116m | 7.9m/s | 0°C | 0% | 0hPa | 0V | 00:00:00 | 00:00:00 | 00:00:00 | |
| SQ6EMJ | 2026-09-05 23:36:34 | 50.95630 | 17.29343 | 130° | 199km/h | 7105m | 4.8m/s | 0°C | 0% | 0hPa | 0V | 00:00:00 | 00:00:00 | 00:00:00 | |
| SQ6EMJ | 2026-09-05 23:36:29 | 50.95776 | 17.29057 | 133° | 179km/h | 7084m | 5.4m/s | 0°C | 0% | 0hPa | 0V | 00:00:00 | 00:00:00 | 00:00:00 | |
| SQ6EMJ | 2026-09-05 23:36:23 | 50.95958 | 17.28712 | 126° | 188km/h | 7051m | 7.4m/s | 0°C | 0% | 0hPa | 0V | 00:00:00 | 00:00:00 | 00:00:00 | |
| SQ6EMJ | 2026-09-05 23:36:17 | 50.96154 | 17.28308 | 125° | 184km/h | 7006m | 6.2m/s | 0°C | 0% | 0hPa | 0V | 00:00:00 | 00:00:00 | 00:00:00 | |
| SQ6EMJ | 2026-09-05 23:36:11 | 50.96294 | 17.28032 | 133° | 184km/h | 6984m | 3.2m/s | 0°C | 0% | 0hPa | 0V | 00:00:00 | 00:00:00 | 00:00:00 | |
| POL1PZ | 2026-09-05 23:36:09 | 50.96355 | 17.27916 | 129° | 190km/h | 6973m | 6.0m/s | 0°C | 0% | 0hPa | 0V | 00:00:00 | 00:00:00 | 00:00:00 | |
| SQ6EMJ | 2026-09-05 23:36:00 | 50.96600 | 17.27393 | 130° | 201km/h | 6923m | 4.3m/s | 0°C | 0% | 0hPa | 0V | 00:00:00 | 00:00:00 | 00:00:00 | |
| SQ6EMJ | 2026-09-05 23:35:55 | 50.96746 | 17.27113 | 130° | 177km/h | 6899m | 5.5m/s | 0°C | 0% | 0hPa | 0V | 00:00:00 | 00:00:00 | 00:00:00 | |
| SQ6EMJ | 2026-09-05 23:35:50 | 50.96912 | 17.26784 | 131° | 181km/h | 6865m | 7.6m/s | 0°C | 0% | 0hPa | 0V | 00:00:00 | 00:00:00 | 00:00:00 | |
| POL1PZ | 2026-09-05 23:35:49 | 50.96912 | 17.26784 | 131° | 181km/h | 6865m | 7.6m/s | 0°C | 0% | 0hPa | 0V | 00:00:00 | 00:00:00 | 00:00:00 | |
| SQ6EMJ | 2026-09-05 23:35:43 | 50.97080 | 17.26457 | 129° | 166km/h | 6831m | 5.7m/s | 0°C | 0% | 0hPa | 0V | 00:00:00 | 00:00:00 | 00:00:00 | |
| SQ6EMJ | 2026-09-05 23:35:38 | 50.97236 | 17.26168 | 134° | 190km/h | 6809m | 4.6m/s | 0°C | 0% | 0hPa | 0V | 00:00:00 | 00:00:00 | 00:00:00 | |
| SQ6EMJ | 2026-09-05 23:35:33 | 50.97366 | 17.25902 | 125° | 177km/h | 6783m | 4.9m/s | 0°C | 0% | 0hPa | 0V | 00:00:00 | 00:00:00 | 00:00:00 | |
| SQ6EMJ | 2026-09-05 23:35:28 | 50.97510 | 17.25640 | 136° | 164km/h | 6755m | 5.5m/s | 0°C | 0% | 0hPa | 0V | 00:00:00 | 00:00:00 | 00:00:00 | |
| SQ6EMJ | 2026-09-05 23:35:23 | 50.97666 | 17.25296 | 125° | 186km/h | 6721m | 5.0m/s | 0°C | 0% | 0hPa | 0V | 00:00:00 | 00:00:00 | 00:00:00 | |
| SQ6EMJ | 2026-09-05 23:35:16 | 50.97816 | 17.24971 | 123° | 162km/h | 6693m | 7.2m/s | 0°C | 0% | 0hPa | 0V | 00:00:00 | 00:00:00 | 00:00:00 | |
| SQ6EMJ | 2026-09-05 23:35:10 | 50.97973 | 17.24661 | 130° | 166km/h | 6662m | 6.2m/s | 0°C | 0% | 0hPa | 0V | 00:00:00 | 00:00:00 | 00:00:00 | |
| POL1PZ | 2026-09-05 23:35:08 | 50.98028 | 17.24550 | 129° | 179km/h | 6649m | 6.7m/s | 0°C | 0% | 0hPa | 0V | 00:00:00 | 00:00:00 | 00:00:00 | |
| SQ6EMJ | 2026-09-05 23:35:04 | 50.98137 | 17.24332 | 128° | 164km/h | 6624m | 5.3m/s | 0°C | 0% | 0hPa | 0V | 00:00:00 | 00:00:00 | 00:00:00 | |
| SQ6EMJ | 2026-09-05 23:34:58 | 50.98258 | 17.24012 | 123° | 173km/h | 6595m | 7.9m/s | 0°C | 0% | 0hPa | 0V | 00:00:00 | 00:00:00 | 00:00:00 | |
| SQ6EMJ | 2026-09-05 23:34:52 | 50.98401 | 17.23668 | 118° | 150km/h | 6560m | 6.4m/s | 0°C | 0% | 0hPa | 0V | 00:00:00 | 00:00:00 | 00:00:00 | |
| POL1PZ | 2026-09-05 23:34:47 | 50.98505 | 17.23364 | 125° | 177km/h | 6534m | 8.3m/s | 0°C | 0% | 0hPa | 0V | 00:00:00 | 00:00:00 | 00:00:00 | |
| SQ6EMJ | 2026-09-05 23:34:46 | 50.98530 | 17.23308 | 128° | 166km/h | 6527m | 7.7m/s | 0°C | 0% | 0hPa | 0V | 00:00:00 | 00:00:00 | 00:00:00 | |
| SQ6EMJ | 2026-09-05 23:34:41 | 50.98645 | 17.23024 | 118° | 181km/h | 6492m | 5.5m/s | 0°C | 0% | 0hPa | 0V | 00:00:00 | 00:00:00 | 00:00:00 | |
| SQ6EMJ | 2026-09-05 23:34:35 | 50.98769 | 17.22681 | 122° | 166km/h | 6461m | 4.9m/s | 0°C | 0% | 0hPa | 0V | 00:00:00 | 00:00:00 | 00:00:00 | |
| SQ6EMJ | 2026-09-05 23:34:29 | 50.98900 | 17.22335 | 122° | 166km/h | 6432m | 7.9m/s | 0°C | 0% | 0hPa | 0V | 00:00:00 | 00:00:00 | 00:00:00 | |
| POL1PZ | 2026-09-05 23:34:23 | 50.99023 | 17.22001 | 124° | 162km/h | 6401m | 5.2m/s | 0°C | 0% | 0hPa | 0V | 00:00:00 | 00:00:00 | 00:00:00 | |
| SQ6EMJ | 2026-09-05 23:34:17 | 50.99138 | 17.21648 | 116° | 162km/h | 6372m | 3.7m/s | 0°C | 0% | 0hPa | 0V | 00:00:00 | 00:00:00 | 00:00:00 | |
| SQ6EMJ | 2026-09-05 23:34:11 | 50.99260 | 17.21297 | 125° | 155km/h | 6335m | 8.4m/s | 0°C | 0% | 0hPa | 0V | 00:00:00 | 00:00:00 | 00:00:00 | |
| SQ6EMJ | 2026-09-05 23:34:06 | 50.99353 | 17.21025 | 122° | 164km/h | 6308m | 6.1m/s | 0°C | 0% | 0hPa | 0V | 00:00:00 | 00:00:00 | 00:00:00 | |
| POL1PZ | 2026-09-05 23:34:01 | 50.99459 | 17.20768 | 122° | 135km/h | 6282m | 5.7m/s | 0°C | 0% | 0hPa | 0V | 00:00:00 | 00:00:00 | 00:00:00 | |
| SQ6EMJ | 2026-09-05 23:33:55 | 50.99605 | 17.20383 | 123° | 161km/h | 6240m | 7.5m/s | 0°C | 0% | 0hPa | 0V | 00:00:00 | 00:00:00 | 00:00:00 | |
| SQ6EMJ | 2026-09-05 23:33:49 | 50.99712 | 17.20111 | 125° | 168km/h | 6208m | 8.5m/s | 0°C | 0% | 0hPa | 0V | 00:00:00 | 00:00:00 | 00:00:00 | |
| SQ6EMJ | 2026-09-05 23:33:43 | 50.99838 | 17.19800 | 123° | 144km/h | 6174m | 6.9m/s | 0°C | 0% | 0hPa | 0V | 00:00:00 | 00:00:00 | 00:00:00 | |
| SQ6EMJ | 2026-09-05 23:33:38 | 50.99934 | 17.19544 | 122° | 159km/h | 6144m | 7.5m/s | 0°C | 0% | 0hPa | 0V | 00:00:00 | 00:00:00 | 00:00:00 | |
| POL1PZ | 2026-09-05 23:33:32 | 51.00060 | 17.19239 | 124° | 150km/h | 6113m | 6.9m/s | 0°C | 0% | 0hPa | 0V | 00:00:00 | 00:00:00 | 00:00:00 | |
| SQ6EMJ | 2026-09-05 23:33:27 | 51.00164 | 17.18976 | 122° | 146km/h | 6086m | 7.4m/s | 0°C | 0% | 0hPa | 0V | 00:00:00 | 00:00:00 | 00:00:00 | |
| SQ6EMJ | 2026-09-05 23:33:21 | 51.00264 | 17.18690 | 126° | 142km/h | 6057m | 7.9m/s | 0°C | 0% | 0hPa | 0V | 00:00:00 | 00:00:00 | 00:00:00 | |
| SQ6EMJ | 2026-09-05 23:33:16 | 51.00357 | 17.18440 | 120° | 135km/h | 6029m | 7.4m/s | 0°C | 0% | 0hPa | 0V | 00:00:00 | 00:00:00 | 00:00:00 | |
| SQ6EMJ | 2026-09-05 23:33:10 | 51.00469 | 17.18157 | 116° | 139km/h | 5997m | 8.3m/s | 0°C | 0% | 0hPa | 0V | 00:00:00 | 00:00:00 | 00:00:00 | |
| POL1PZ | 2026-09-05 23:33:08 | 51.00501 | 17.18060 | 122° | 128km/h | 5981m | 6.7m/s | 0°C | 0% | 0hPa | 0V | 00:00:00 | 00:00:00 | 00:00:00 | |
| SQ6EMJ | 2026-09-05 23:33:04 | 51.00575 | 17.17875 | 123° | 139km/h | 5955m | 5.8m/s | 0°C | 0% | 0hPa | 0V | 00:00:00 | 00:00:00 | 00:00:00 | |
| SQ6EMJ | 2026-09-05 23:32:58 | 51.00669 | 17.17561 | 119° | 148km/h | 5930m | 3.6m/s | 0°C | 0% | 0hPa | 0V | 00:00:00 | 00:00:00 | 00:00:00 | |
| SQ6EMJ | 2026-09-05 23:32:53 | 51.00771 | 17.17316 | 124° | 151km/h | 5900m | 6.2m/s | 0°C | 0% | 0hPa | 0V | 00:00:00 | 00:00:00 | 00:00:00 | |
| SQ6EMJ | 2026-09-05 23:32:48 | 51.00849 | 17.17069 | 124° | 131km/h | 5868m | 7.8m/s | 0°C | 0% | 0hPa | 0V | 00:00:00 | 00:00:00 | 00:00:00 | |
| POL1PZ | 2026-09-05 23:32:46 | 51.00890 | 17.16981 | 128° | 142km/h | 5856m | 4.3m/s | 0°C | 0% | 0hPa | 0V | 00:00:00 | 00:00:00 | 00:00:00 | |
| SQ6EMJ | 2026-09-05 23:32:42 | 51.00967 | 17.16793 | 124° | 130km/h | 5837m | 4.5m/s | 0°C | 0% | 0hPa | 0V | 00:00:00 | 00:00:00 | 00:00:00 | |
| SQ6EMJ | 2026-09-05 23:32:37 | 51.01055 | 17.16561 | 120° | 139km/h | 5810m | 5.6m/s | 0°C | 0% | 0hPa | 0V | 00:00:00 | 00:00:00 | 00:00:00 | |
| SQ6EMJ | 2026-09-05 23:32:31 | 51.01145 | 17.16296 | 117° | 139km/h | 5781m | 4.5m/s | 0°C | 0% | 0hPa | 0V | 00:00:00 | 00:00:00 | 00:00:00 | |
| SQ6EMJ | 2026-09-05 23:32:26 | 51.01235 | 17.16086 | 123° | 110km/h | 5759m | 5.6m/s | 0°C | 0% | 0hPa | 0V | 00:00:00 | 00:00:00 | 00:00:00 | |
| POL1PZ | 2026-09-05 23:32:23 | 51.01277 | 17.15956 | 118° | 141km/h | 5740m | 8.9m/s | 0°C | 0% | 0hPa | 0V | 00:00:00 | 00:00:00 | 00:00:00 | |
| SQ6EMJ | 2026-09-05 23:32:21 | 51.01310 | 17.15850 | 118° | 148km/h | 5727m | 2.5m/s | 0°C | 0% | 0hPa | 0V | 00:00:00 | 00:00:00 | 00:00:00 | |
| SQ6EMJ | 2026-09-05 23:32:14 | 51.01430 | 17.15556 | 118° | 128km/h | 5683m | 7.1m/s | 0°C | 0% | 0hPa | 0V | 00:00:00 | 00:00:00 | 00:00:00 | |
| SQ6EMJ | 2026-09-05 23:32:08 | 51.01513 | 17.15280 | 123° | 115km/h | 5644m | 6.8m/s | 0°C | 0% | 0hPa | 0V | 00:00:00 | 00:00:00 | 00:00:00 | |
| SQ6EMJ | 2026-09-05 23:32:02 | 51.01612 | 17.15049 | 120° | 126km/h | 5613m | 7.4m/s | 0°C | 0% | 0hPa | 0V | 00:00:00 | 00:00:00 | 00:00:00 | |
| POL1PZ | 2026-09-05 23:32:01 | 51.01627 | 17.15003 | 118° | 128km/h | 5606m | 7.8m/s | 0°C | 0% | 0hPa | 0V | 00:00:00 | 00:00:00 | 00:00:00 | |
| SQ6EMJ | 2026-09-05 23:31:57 | 51.01685 | 17.14834 | 124° | 108km/h | 5584m | 6.9m/s | 0°C | 0% | 0hPa | 0V | 00:00:00 | 00:00:00 | 00:00:00 | |
| SQ6EMJ | 2026-09-05 23:31:52 | 51.01744 | 17.14632 | 114° | 126km/h | 5561m | 6.8m/s | 0°C | 0% | 0hPa | 0V | 00:00:00 | 00:00:00 | 00:00:00 | |
| SQ6EMJ | 2026-09-05 23:31:46 | 51.01839 | 17.14401 | 125° | 120km/h | 5523m | 7.1m/s | 0°C | 0% | 0hPa | 0V | 00:00:00 | 00:00:00 | 00:00:00 | |
| SQ6EMJ | 2026-09-05 23:31:39 | 51.01939 | 17.14094 | 110° | 119km/h | 5483m | 4.6m/s | 0°C | 0% | 0hPa | 0V | 00:00:00 | 00:00:00 | 00:00:00 | |
| SQ6EMJ | 2026-09-05 23:31:34 | 51.02012 | 17.13891 | 131° | 110km/h | 5452m | 6.2m/s | 0°C | 0% | 0hPa | 0V | 00:00:00 | 00:00:00 | 00:00:00 | |
| SQ6EMJ | 2026-09-05 23:31:29 | 51.02098 | 17.13656 | 117° | 110km/h | 5420m | 3.2m/s | 0°C | 0% | 0hPa | 0V | 00:00:00 | 00:00:00 | 00:00:00 | |
| SQ6EMJ | 2026-09-05 23:31:22 | 51.02188 | 17.13408 | 124° | 135km/h | 5383m | 6.2m/s | 0°C | 0% | 0hPa | 0V | 00:00:00 | 00:00:00 | 00:00:00 | |
| POL1PZ | 2026-09-05 23:31:17 | 51.02269 | 17.13211 | 123° | 106km/h | 5355m | 8.0m/s | 0°C | 0% | 0hPa | 0V | 00:00:00 | 00:00:00 | 00:00:00 | |
| SQ6EMJ | 2026-09-05 23:31:11 | 51.02370 | 17.12966 | 126° | 115km/h | 5327m | 5.2m/s | 0°C | 0% | 0hPa | 0V | 00:00:00 | 00:00:00 | 00:00:00 | |
| SQ6EMJ | 2026-09-05 23:31:05 | 51.02468 | 17.12724 | 117° | 130km/h | 5292m | 5.4m/s | 0°C | 0% | 0hPa | 0V | 00:00:00 | 00:00:00 | 00:00:00 | |
| SQ6EMJ | 2026-09-05 23:30:59 | 51.02560 | 17.12510 | 126° | 100km/h | 5262m | 8.1m/s | 0°C | 0% | 0hPa | 0V | 00:00:00 | 00:00:00 | 00:00:00 | |
| POL1PZ | 2026-09-05 23:30:53 | 51.02642 | 17.12281 | 111° | 99km/h | 5220m | 6.6m/s | 0°C | 0% | 0hPa | 0V | 00:00:00 | 00:00:00 | 00:00:00 | |
| SQ6EMJ | 2026-09-05 23:30:52 | 51.02651 | 17.12243 | 113° | 104km/h | 5214m | 5.2m/s | 0°C | 0% | 0hPa | 0V | 00:00:00 | 00:00:00 | 00:00:00 | |
| SQ6EMJ | 2026-09-05 23:30:40 | 51.02806 | 17.11841 | 115° | 102km/h | 5148m | 7.7m/s | 0°C | 0% | 0hPa | 0V | 00:00:00 | 00:00:00 | 00:00:00 | |
| POL1PZ | 2026-09-05 23:30:32 | 51.02905 | 17.11541 | 126° | 104km/h | 5100m | 5.2m/s | 0°C | 0% | 0hPa | 0V | 00:00:00 | 00:00:00 | 00:00:00 |